<?xml version="1.0" encoding="UTF-8" standalone="no" ?>
<gpx xmlns="http://www.topografix.com/GPX/1/1" xmlns:xsi="http://www.w3.org/2001/XMLSchema-instance" xsi:schemaLocation="http://www.topografix.com/GPX/1/1 http://www.topografix.com/GPX/1/1/gpx.xsd" version="1.1" creator="VisuGPX - https://www.visugpx.com">
  <metadata>
    <name>Férion ganded et gui</name>
    <desc><![CDATA[un férion pour bien finir l\'année!]]></desc>
  </metadata>
  <trk>
    <name><![CDATA[Ferion]]></name>
    <desc><![CDATA[(null)]]></desc>
    <trkseg>
      <trkpt lat="43.8494" lon="7.23696">
        <ele>520.426582</ele>
        <time>2011-12-30T10:28:45Z</time>
      </trkpt>
      <trkpt lat="43.8494" lon="7.23696">
        <ele>520.426582</ele>
        <time>2011-12-30T10:28:46Z</time>
      </trkpt>
      <trkpt lat="43.8494" lon="7.23696">
        <ele>520.426582</ele>
        <time>2011-12-30T10:28:58Z</time>
      </trkpt>
      <trkpt lat="43.84936" lon="7.23735">
        <ele>533.426662</ele>
        <time>2011-12-30T10:29:11Z</time>
      </trkpt>
      <trkpt lat="43.84941" lon="7.23771">
        <ele>532.426743</ele>
        <time>2011-12-30T10:29:22Z</time>
      </trkpt>
      <trkpt lat="43.84945" lon="7.23784">
        <ele>531.426773</ele>
        <time>2011-12-30T10:29:26Z</time>
      </trkpt>
      <trkpt lat="43.84945" lon="7.23784">
        <ele>531.426773</ele>
        <time>2011-12-30T10:29:27Z</time>
      </trkpt>
      <trkpt lat="43.84949" lon="7.23799">
        <ele>531.426811</ele>
        <time>2011-12-30T10:29:29Z</time>
      </trkpt>
      <trkpt lat="43.84955" lon="7.23814">
        <ele>531.426849</ele>
        <time>2011-12-30T10:29:34Z</time>
      </trkpt>
      <trkpt lat="43.84963" lon="7.23836">
        <ele>532.426907</ele>
        <time>2011-12-30T10:29:45Z</time>
      </trkpt>
      <trkpt lat="43.84964" lon="7.23839">
        <ele>533.426914</ele>
        <time>2011-12-30T10:29:48Z</time>
      </trkpt>
      <trkpt lat="43.84969" lon="7.23851">
        <ele>534.426945</ele>
        <time>2011-12-30T10:29:52Z</time>
      </trkpt>
      <trkpt lat="43.84975" lon="7.23872">
        <ele>538.426998</ele>
        <time>2011-12-30T10:29:58Z</time>
      </trkpt>
      <trkpt lat="43.84979" lon="7.23896">
        <ele>540.427055</ele>
        <time>2011-12-30T10:30:06Z</time>
      </trkpt>
      <trkpt lat="43.84985" lon="7.23913">
        <ele>540.427101</ele>
        <time>2011-12-30T10:30:13Z</time>
      </trkpt>
      <trkpt lat="43.84987" lon="7.23922">
        <ele>541.42712</ele>
        <time>2011-12-30T10:30:16Z</time>
      </trkpt>
      <trkpt lat="43.8499" lon="7.23936">
        <ele>542.427155</ele>
        <time>2011-12-30T10:30:20Z</time>
      </trkpt>
      <trkpt lat="43.84995" lon="7.2395">
        <ele>541.427185</ele>
        <time>2011-12-30T10:30:25Z</time>
      </trkpt>
      <trkpt lat="43.85001" lon="7.23959">
        <ele>540.427216</ele>
        <time>2011-12-30T10:30:30Z</time>
      </trkpt>
      <trkpt lat="43.85007" lon="7.23972">
        <ele>540.427254</ele>
        <time>2011-12-30T10:30:38Z</time>
      </trkpt>
      <trkpt lat="43.85013" lon="7.23983">
        <ele>542.42728</ele>
        <time>2011-12-30T10:30:43Z</time>
      </trkpt>
      <trkpt lat="43.85013" lon="7.23983">
        <ele>542.42728</ele>
        <time>2011-12-30T10:30:46Z</time>
      </trkpt>
      <trkpt lat="43.85018" lon="7.23993">
        <ele>547.427315</ele>
        <time>2011-12-30T10:30:51Z</time>
      </trkpt>
      <trkpt lat="43.85023" lon="7.2401">
        <ele>549.427353</ele>
        <time>2011-12-30T10:31:02Z</time>
      </trkpt>
      <trkpt lat="43.85029" lon="7.24021">
        <ele>548.427383</ele>
        <time>2011-12-30T10:31:28Z</time>
      </trkpt>
      <trkpt lat="43.8503" lon="7.24021">
        <ele>548.427383</ele>
        <time>2011-12-30T10:31:37Z</time>
      </trkpt>
      <trkpt lat="43.85038" lon="7.24028">
        <ele>553.42741</ele>
        <time>2011-12-30T10:32:51Z</time>
      </trkpt>
      <trkpt lat="43.85039" lon="7.24028">
        <ele>553.42741</ele>
        <time>2011-12-30T10:32:54Z</time>
      </trkpt>
      <trkpt lat="43.85032" lon="7.24037">
        <ele>564.427422</ele>
        <time>2011-12-30T10:35:09Z</time>
      </trkpt>
      <trkpt lat="43.85036" lon="7.24049">
        <ele>565.427452</ele>
        <time>2011-12-30T10:35:14Z</time>
      </trkpt>
      <trkpt lat="43.85043" lon="7.2406">
        <ele>565.427483</ele>
        <time>2011-12-30T10:35:20Z</time>
      </trkpt>
      <trkpt lat="43.8505" lon="7.24072">
        <ele>565.427521</ele>
        <time>2011-12-30T10:35:25Z</time>
      </trkpt>
      <trkpt lat="43.85057" lon="7.24083">
        <ele>565.427551</ele>
        <time>2011-12-30T10:35:30Z</time>
      </trkpt>
      <trkpt lat="43.85065" lon="7.24093">
        <ele>565.427582</ele>
        <time>2011-12-30T10:35:35Z</time>
      </trkpt>
      <trkpt lat="43.85073" lon="7.24101">
        <ele>566.427612</ele>
        <time>2011-12-30T10:35:41Z</time>
      </trkpt>
      <trkpt lat="43.85081" lon="7.24111">
        <ele>566.427643</ele>
        <time>2011-12-30T10:35:48Z</time>
      </trkpt>
      <trkpt lat="43.85083" lon="7.24113">
        <ele>566.42765</ele>
        <time>2011-12-30T10:35:49Z</time>
      </trkpt>
      <trkpt lat="43.8509" lon="7.24125">
        <ele>567.427685</ele>
        <time>2011-12-30T10:35:54Z</time>
      </trkpt>
      <trkpt lat="43.85096" lon="7.24136">
        <ele>568.427719</ele>
        <time>2011-12-30T10:35:58Z</time>
      </trkpt>
      <trkpt lat="43.85103" lon="7.24147">
        <ele>569.42775</ele>
        <time>2011-12-30T10:36:06Z</time>
      </trkpt>
      <trkpt lat="43.8511" lon="7.2416">
        <ele>569.42778</ele>
        <time>2011-12-30T10:36:12Z</time>
      </trkpt>
      <trkpt lat="43.85112" lon="7.24163">
        <ele>569.427792</ele>
        <time>2011-12-30T10:36:13Z</time>
      </trkpt>
      <trkpt lat="43.85124" lon="7.24181">
        <ele>570.427845</ele>
        <time>2011-12-30T10:36:19Z</time>
      </trkpt>
      <trkpt lat="43.85129" lon="7.24188">
        <ele>569.427868</ele>
        <time>2011-12-30T10:36:26Z</time>
      </trkpt>
      <trkpt lat="43.85136" lon="7.24206">
        <ele>570.42791</ele>
        <time>2011-12-30T10:36:31Z</time>
      </trkpt>
      <trkpt lat="43.85136" lon="7.2422">
        <ele>572.427944</ele>
        <time>2011-12-30T10:36:36Z</time>
      </trkpt>
      <trkpt lat="43.85136" lon="7.24232">
        <ele>573.427971</ele>
        <time>2011-12-30T10:36:38Z</time>
      </trkpt>
      <trkpt lat="43.85136" lon="7.24239">
        <ele>572.427986</ele>
        <time>2011-12-30T10:36:39Z</time>
      </trkpt>
      <trkpt lat="43.85137" lon="7.24255">
        <ele>573.428017</ele>
        <time>2011-12-30T10:36:43Z</time>
      </trkpt>
      <trkpt lat="43.85138" lon="7.24273">
        <ele>573.428059</ele>
        <time>2011-12-30T10:36:46Z</time>
      </trkpt>
      <trkpt lat="43.85139" lon="7.24286">
        <ele>574.428085</ele>
        <time>2011-12-30T10:36:51Z</time>
      </trkpt>
      <trkpt lat="43.85141" lon="7.24299">
        <ele>575.428116</ele>
        <time>2011-12-30T10:36:55Z</time>
      </trkpt>
      <trkpt lat="43.85143" lon="7.24317">
        <ele>575.428158</ele>
        <time>2011-12-30T10:36:58Z</time>
      </trkpt>
      <trkpt lat="43.85146" lon="7.24333">
        <ele>576.428192</ele>
        <time>2011-12-30T10:37:00Z</time>
      </trkpt>
      <trkpt lat="43.85149" lon="7.24348">
        <ele>577.42823</ele>
        <time>2011-12-30T10:37:02Z</time>
      </trkpt>
      <trkpt lat="43.85152" lon="7.24361">
        <ele>577.428261</ele>
        <time>2011-12-30T10:37:05Z</time>
      </trkpt>
      <trkpt lat="43.85154" lon="7.24371">
        <ele>578.428284</ele>
        <time>2011-12-30T10:37:10Z</time>
      </trkpt>
      <trkpt lat="43.85156" lon="7.24384">
        <ele>578.428314</ele>
        <time>2011-12-30T10:37:16Z</time>
      </trkpt>
      <trkpt lat="43.85157" lon="7.24389">
        <ele>579.428322</ele>
        <time>2011-12-30T10:37:18Z</time>
      </trkpt>
      <trkpt lat="43.85161" lon="7.24401">
        <ele>580.428352</ele>
        <time>2011-12-30T10:37:22Z</time>
      </trkpt>
      <trkpt lat="43.85165" lon="7.24413">
        <ele>580.428383</ele>
        <time>2011-12-30T10:37:26Z</time>
      </trkpt>
      <trkpt lat="43.85169" lon="7.24424">
        <ele>581.428413</ele>
        <time>2011-12-30T10:37:30Z</time>
      </trkpt>
      <trkpt lat="43.8517" lon="7.24427">
        <ele>581.428421</ele>
        <time>2011-12-30T10:37:31Z</time>
      </trkpt>
      <trkpt lat="43.85175" lon="7.2444">
        <ele>583.428452</ele>
        <time>2011-12-30T10:37:36Z</time>
      </trkpt>
      <trkpt lat="43.85181" lon="7.24452">
        <ele>584.428482</ele>
        <time>2011-12-30T10:37:41Z</time>
      </trkpt>
      <trkpt lat="43.85188" lon="7.24465">
        <ele>585.42852</ele>
        <time>2011-12-30T10:37:47Z</time>
      </trkpt>
      <trkpt lat="43.85193" lon="7.24477">
        <ele>585.428551</ele>
        <time>2011-12-30T10:37:52Z</time>
      </trkpt>
      <trkpt lat="43.85197" lon="7.24489">
        <ele>587.428589</ele>
        <time>2011-12-30T10:37:57Z</time>
      </trkpt>
      <trkpt lat="43.85201" lon="7.24501">
        <ele>589.428616</ele>
        <time>2011-12-30T10:38:02Z</time>
      </trkpt>
      <trkpt lat="43.85211" lon="7.24511">
        <ele>590.42865</ele>
        <time>2011-12-30T10:38:11Z</time>
      </trkpt>
      <trkpt lat="43.85225" lon="7.24521">
        <ele>589.428692</ele>
        <time>2011-12-30T10:38:19Z</time>
      </trkpt>
      <trkpt lat="43.85227" lon="7.24535">
        <ele>590.428726</ele>
        <time>2011-12-30T10:38:23Z</time>
      </trkpt>
      <trkpt lat="43.85227" lon="7.24538">
        <ele>590.428734</ele>
        <time>2011-12-30T10:38:25Z</time>
      </trkpt>
      <trkpt lat="43.85228" lon="7.24553">
        <ele>591.428761</ele>
        <time>2011-12-30T10:38:30Z</time>
      </trkpt>
      <trkpt lat="43.8523" lon="7.24566">
        <ele>592.428787</ele>
        <time>2011-12-30T10:38:32Z</time>
      </trkpt>
      <trkpt lat="43.8523" lon="7.24582">
        <ele>592.428822</ele>
        <time>2011-12-30T10:38:34Z</time>
      </trkpt>
      <trkpt lat="43.85231" lon="7.246">
        <ele>592.428864</ele>
        <time>2011-12-30T10:38:36Z</time>
      </trkpt>
      <trkpt lat="43.85231" lon="7.24618">
        <ele>592.428902</ele>
        <time>2011-12-30T10:38:38Z</time>
      </trkpt>
      <trkpt lat="43.85233" lon="7.24634">
        <ele>593.428932</ele>
        <time>2011-12-30T10:38:40Z</time>
      </trkpt>
      <trkpt lat="43.85238" lon="7.24647">
        <ele>593.42897</ele>
        <time>2011-12-30T10:38:43Z</time>
      </trkpt>
      <trkpt lat="43.85239" lon="7.24653">
        <ele>593.428986</ele>
        <time>2011-12-30T10:38:48Z</time>
      </trkpt>
      <trkpt lat="43.85264" lon="7.24638">
        <ele>593.428986</ele>
        <time>2011-12-30T10:38:53Z</time>
      </trkpt>
      <trkpt lat="43.85266" lon="7.24632">
        <ele>593.428978</ele>
        <time>2011-12-30T10:38:54Z</time>
      </trkpt>
      <trkpt lat="43.85273" lon="7.24604">
        <ele>592.428928</ele>
        <time>2011-12-30T10:39:02Z</time>
      </trkpt>
      <trkpt lat="43.85281" lon="7.24589">
        <ele>593.428909</ele>
        <time>2011-12-30T10:39:08Z</time>
      </trkpt>
      <trkpt lat="43.85292" lon="7.24574">
        <ele>593.428894</ele>
        <time>2011-12-30T10:39:15Z</time>
      </trkpt>
      <trkpt lat="43.85299" lon="7.24563">
        <ele>592.428879</ele>
        <time>2011-12-30T10:39:19Z</time>
      </trkpt>
      <trkpt lat="43.85314" lon="7.24552">
        <ele>593.428879</ele>
        <time>2011-12-30T10:39:26Z</time>
      </trkpt>
      <trkpt lat="43.85327" lon="7.24547">
        <ele>593.428886</ele>
        <time>2011-12-30T10:39:31Z</time>
      </trkpt>
      <trkpt lat="43.85337" lon="7.24546">
        <ele>593.428898</ele>
        <time>2011-12-30T10:39:34Z</time>
      </trkpt>
      <trkpt lat="43.85353" lon="7.24548">
        <ele>591.428925</ele>
        <time>2011-12-30T10:39:41Z</time>
      </trkpt>
      <trkpt lat="43.85362" lon="7.2455">
        <ele>592.42894</ele>
        <time>2011-12-30T10:39:44Z</time>
      </trkpt>
      <trkpt lat="43.85373" lon="7.24553">
        <ele>592.428959</ele>
        <time>2011-12-30T10:39:47Z</time>
      </trkpt>
      <trkpt lat="43.85383" lon="7.24556">
        <ele>592.428982</ele>
        <time>2011-12-30T10:39:50Z</time>
      </trkpt>
      <trkpt lat="43.85394" lon="7.2456">
        <ele>592.429001</ele>
        <time>2011-12-30T10:39:53Z</time>
      </trkpt>
      <trkpt lat="43.85404" lon="7.24563">
        <ele>593.429024</ele>
        <time>2011-12-30T10:39:56Z</time>
      </trkpt>
      <trkpt lat="43.85415" lon="7.24567">
        <ele>593.429047</ele>
        <time>2011-12-30T10:39:59Z</time>
      </trkpt>
      <trkpt lat="43.8542" lon="7.24569">
        <ele>593.429062</ele>
        <time>2011-12-30T10:40:01Z</time>
      </trkpt>
      <trkpt lat="43.85438" lon="7.24571">
        <ele>594.429089</ele>
        <time>2011-12-30T10:40:08Z</time>
      </trkpt>
      <trkpt lat="43.8545" lon="7.24571">
        <ele>594.429104</ele>
        <time>2011-12-30T10:40:13Z</time>
      </trkpt>
      <trkpt lat="43.85461" lon="7.24572">
        <ele>595.429119</ele>
        <time>2011-12-30T10:40:17Z</time>
      </trkpt>
      <trkpt lat="43.85473" lon="7.24573">
        <ele>595.429138</ele>
        <time>2011-12-30T10:40:21Z</time>
      </trkpt>
      <trkpt lat="43.85477" lon="7.24573">
        <ele>595.429146</ele>
        <time>2011-12-30T10:40:22Z</time>
      </trkpt>
      <trkpt lat="43.85486" lon="7.24574">
        <ele>595.429161</ele>
        <time>2011-12-30T10:40:25Z</time>
      </trkpt>
      <trkpt lat="43.85495" lon="7.24576">
        <ele>594.429176</ele>
        <time>2011-12-30T10:40:28Z</time>
      </trkpt>
      <trkpt lat="43.85505" lon="7.24578">
        <ele>594.429199</ele>
        <time>2011-12-30T10:40:31Z</time>
      </trkpt>
      <trkpt lat="43.85513" lon="7.24583">
        <ele>594.429214</ele>
        <time>2011-12-30T10:40:34Z</time>
      </trkpt>
      <trkpt lat="43.85522" lon="7.24593">
        <ele>594.429249</ele>
        <time>2011-12-30T10:40:37Z</time>
      </trkpt>
      <trkpt lat="43.85532" lon="7.24598">
        <ele>594.429276</ele>
        <time>2011-12-30T10:40:40Z</time>
      </trkpt>
      <trkpt lat="43.85539" lon="7.24596">
        <ele>596.429279</ele>
        <time>2011-12-30T10:40:42Z</time>
      </trkpt>
      <trkpt lat="43.8555" lon="7.24591">
        <ele>597.429283</ele>
        <time>2011-12-30T10:40:45Z</time>
      </trkpt>
      <trkpt lat="43.85563" lon="7.2459">
        <ele>599.429298</ele>
        <time>2011-12-30T10:40:48Z</time>
      </trkpt>
      <trkpt lat="43.85573" lon="7.24597">
        <ele>599.429325</ele>
        <time>2011-12-30T10:40:51Z</time>
      </trkpt>
      <trkpt lat="43.85583" lon="7.24604">
        <ele>600.429356</ele>
        <time>2011-12-30T10:40:54Z</time>
      </trkpt>
      <trkpt lat="43.85592" lon="7.24611">
        <ele>600.429382</ele>
        <time>2011-12-30T10:40:57Z</time>
      </trkpt>
      <trkpt lat="43.85603" lon="7.24616">
        <ele>600.429405</ele>
        <time>2011-12-30T10:41:00Z</time>
      </trkpt>
      <trkpt lat="43.85614" lon="7.2462">
        <ele>600.429436</ele>
        <time>2011-12-30T10:41:03Z</time>
      </trkpt>
      <trkpt lat="43.85625" lon="7.24624">
        <ele>601.429451</ele>
        <time>2011-12-30T10:41:06Z</time>
      </trkpt>
      <trkpt lat="43.85634" lon="7.24628">
        <ele>602.429474</ele>
        <time>2011-12-30T10:41:09Z</time>
      </trkpt>
      <trkpt lat="43.85643" lon="7.24631">
        <ele>602.429497</ele>
        <time>2011-12-30T10:41:12Z</time>
      </trkpt>
      <trkpt lat="43.85646" lon="7.24633">
        <ele>602.429501</ele>
        <time>2011-12-30T10:41:13Z</time>
      </trkpt>
      <trkpt lat="43.8566" lon="7.24628">
        <ele>603.429512</ele>
        <time>2011-12-30T10:41:20Z</time>
      </trkpt>
      <trkpt lat="43.85662" lon="7.24629">
        <ele>603.429516</ele>
        <time>2011-12-30T10:41:21Z</time>
      </trkpt>
      <trkpt lat="43.85672" lon="7.24637">
        <ele>603.42955</ele>
        <time>2011-12-30T10:41:25Z</time>
      </trkpt>
      <trkpt lat="43.8568" lon="7.24643">
        <ele>603.429573</ele>
        <time>2011-12-30T10:41:28Z</time>
      </trkpt>
      <trkpt lat="43.85689" lon="7.24647">
        <ele>603.429592</ele>
        <time>2011-12-30T10:41:32Z</time>
      </trkpt>
      <trkpt lat="43.85691" lon="7.24648">
        <ele>603.429596</ele>
        <time>2011-12-30T10:41:33Z</time>
      </trkpt>
      <trkpt lat="43.85701" lon="7.24652">
        <ele>604.429619</ele>
        <time>2011-12-30T10:41:37Z</time>
      </trkpt>
      <trkpt lat="43.85701" lon="7.24652">
        <ele>604.429619</ele>
        <time>2011-12-30T10:41:38Z</time>
      </trkpt>
      <trkpt lat="43.8571" lon="7.24654">
        <ele>604.429634</ele>
        <time>2011-12-30T10:41:41Z</time>
      </trkpt>
      <trkpt lat="43.85719" lon="7.24657">
        <ele>604.429653</ele>
        <time>2011-12-30T10:41:49Z</time>
      </trkpt>
      <trkpt lat="43.85731" lon="7.24662">
        <ele>604.42968</ele>
        <time>2011-12-30T10:42:01Z</time>
      </trkpt>
      <trkpt lat="43.85739" lon="7.24669">
        <ele>604.429703</ele>
        <time>2011-12-30T10:42:08Z</time>
      </trkpt>
      <trkpt lat="43.85749" lon="7.24676">
        <ele>605.429733</ele>
        <time>2011-12-30T10:42:15Z</time>
      </trkpt>
      <trkpt lat="43.85759" lon="7.24683">
        <ele>607.429764</ele>
        <time>2011-12-30T10:42:23Z</time>
      </trkpt>
      <trkpt lat="43.85768" lon="7.24692">
        <ele>609.42979</ele>
        <time>2011-12-30T10:42:29Z</time>
      </trkpt>
      <trkpt lat="43.85777" lon="7.24706">
        <ele>611.429832</ele>
        <time>2011-12-30T10:42:35Z</time>
      </trkpt>
      <trkpt lat="43.85784" lon="7.24716">
        <ele>612.429867</ele>
        <time>2011-12-30T10:42:40Z</time>
      </trkpt>
      <trkpt lat="43.85793" lon="7.24734">
        <ele>613.429913</ele>
        <time>2011-12-30T10:42:48Z</time>
      </trkpt>
      <trkpt lat="43.85805" lon="7.24751">
        <ele>618.429962</ele>
        <time>2011-12-30T10:42:56Z</time>
      </trkpt>
      <trkpt lat="43.85816" lon="7.24743">
        <ele>619.429966</ele>
        <time>2011-12-30T10:43:02Z</time>
      </trkpt>
      <trkpt lat="43.8582" lon="7.24727">
        <ele>618.429939</ele>
        <time>2011-12-30T10:43:09Z</time>
      </trkpt>
      <trkpt lat="43.8582" lon="7.24714">
        <ele>617.429909</ele>
        <time>2011-12-30T10:43:15Z</time>
      </trkpt>
      <trkpt lat="43.8582" lon="7.24708">
        <ele>617.429897</ele>
        <time>2011-12-30T10:43:17Z</time>
      </trkpt>
      <trkpt lat="43.8582" lon="7.24695">
        <ele>618.429871</ele>
        <time>2011-12-30T10:43:23Z</time>
      </trkpt>
      <trkpt lat="43.8582" lon="7.24695">
        <ele>618.429871</ele>
        <time>2011-12-30T10:43:26Z</time>
      </trkpt>
      <trkpt lat="43.85821" lon="7.24682">
        <ele>618.429844</ele>
        <time>2011-12-30T10:43:30Z</time>
      </trkpt>
      <trkpt lat="43.85827" lon="7.24694">
        <ele>619.429878</ele>
        <time>2011-12-30T10:43:50Z</time>
      </trkpt>
      <trkpt lat="43.85829" lon="7.24706">
        <ele>619.429909</ele>
        <time>2011-12-30T10:43:57Z</time>
      </trkpt>
      <trkpt lat="43.85833" lon="7.24722">
        <ele>621.429947</ele>
        <time>2011-12-30T10:44:07Z</time>
      </trkpt>
      <trkpt lat="43.85837" lon="7.24736">
        <ele>631.429977</ele>
        <time>2011-12-30T10:44:25Z</time>
      </trkpt>
      <trkpt lat="43.85838" lon="7.24736">
        <ele>631.429985</ele>
        <time>2011-12-30T10:44:26Z</time>
      </trkpt>
      <trkpt lat="43.85842" lon="7.24748">
        <ele>639.430008</ele>
        <time>2011-12-30T10:44:40Z</time>
      </trkpt>
      <trkpt lat="43.8585" lon="7.24756">
        <ele>640.430038</ele>
        <time>2011-12-30T10:44:51Z</time>
      </trkpt>
      <trkpt lat="43.85859" lon="7.24758">
        <ele>639.430054</ele>
        <time>2011-12-30T10:44:59Z</time>
      </trkpt>
      <trkpt lat="43.85867" lon="7.24756">
        <ele>638.430065</ele>
        <time>2011-12-30T10:45:07Z</time>
      </trkpt>
      <trkpt lat="43.85874" lon="7.24741">
        <ele>636.430042</ele>
        <time>2011-12-30T10:45:17Z</time>
      </trkpt>
      <trkpt lat="43.85876" lon="7.24729">
        <ele>636.430016</ele>
        <time>2011-12-30T10:45:21Z</time>
      </trkpt>
      <trkpt lat="43.85881" lon="7.24715">
        <ele>636.429993</ele>
        <time>2011-12-30T10:45:25Z</time>
      </trkpt>
      <trkpt lat="43.85884" lon="7.24702">
        <ele>635.429977</ele>
        <time>2011-12-30T10:45:29Z</time>
      </trkpt>
      <trkpt lat="43.85886" lon="7.24688">
        <ele>636.429947</ele>
        <time>2011-12-30T10:45:33Z</time>
      </trkpt>
      <trkpt lat="43.85887" lon="7.24673">
        <ele>636.429916</ele>
        <time>2011-12-30T10:45:37Z</time>
      </trkpt>
      <trkpt lat="43.85888" lon="7.2466">
        <ele>637.42989</ele>
        <time>2011-12-30T10:45:41Z</time>
      </trkpt>
      <trkpt lat="43.85894" lon="7.24646">
        <ele>638.429867</ele>
        <time>2011-12-30T10:45:48Z</time>
      </trkpt>
      <trkpt lat="43.85902" lon="7.24636">
        <ele>639.429859</ele>
        <time>2011-12-30T10:45:53Z</time>
      </trkpt>
      <trkpt lat="43.85905" lon="7.24633">
        <ele>639.429859</ele>
        <time>2011-12-30T10:45:55Z</time>
      </trkpt>
      <trkpt lat="43.85914" lon="7.24628">
        <ele>641.429863</ele>
        <time>2011-12-30T10:46:01Z</time>
      </trkpt>
      <trkpt lat="43.85928" lon="7.24616">
        <ele>643.429855</ele>
        <time>2011-12-30T10:46:14Z</time>
      </trkpt>
      <trkpt lat="43.85932" lon="7.24605">
        <ele>644.42984</ele>
        <time>2011-12-30T10:46:17Z</time>
      </trkpt>
      <trkpt lat="43.85939" lon="7.24589">
        <ele>646.429817</ele>
        <time>2011-12-30T10:46:21Z</time>
      </trkpt>
      <trkpt lat="43.85944" lon="7.24579">
        <ele>646.429802</ele>
        <time>2011-12-30T10:46:24Z</time>
      </trkpt>
      <trkpt lat="43.85949" lon="7.24567">
        <ele>646.429783</ele>
        <time>2011-12-30T10:46:28Z</time>
      </trkpt>
      <trkpt lat="43.85953" lon="7.24556">
        <ele>645.429764</ele>
        <time>2011-12-30T10:46:34Z</time>
      </trkpt>
      <trkpt lat="43.85956" lon="7.24541">
        <ele>645.429741</ele>
        <time>2011-12-30T10:46:41Z</time>
      </trkpt>
      <trkpt lat="43.85956" lon="7.24537">
        <ele>644.429733</ele>
        <time>2011-12-30T10:46:45Z</time>
      </trkpt>
      <trkpt lat="43.85955" lon="7.24523">
        <ele>644.429703</ele>
        <time>2011-12-30T10:46:47Z</time>
      </trkpt>
      <trkpt lat="43.85951" lon="7.24509">
        <ele>645.429668</ele>
        <time>2011-12-30T10:46:52Z</time>
      </trkpt>
      <trkpt lat="43.85947" lon="7.24503">
        <ele>646.429649</ele>
        <time>2011-12-30T10:46:54Z</time>
      </trkpt>
      <trkpt lat="43.85943" lon="7.24486">
        <ele>650.429604</ele>
        <time>2011-12-30T10:47:03Z</time>
      </trkpt>
      <trkpt lat="43.85946" lon="7.24474">
        <ele>651.429588</ele>
        <time>2011-12-30T10:47:12Z</time>
      </trkpt>
      <trkpt lat="43.85954" lon="7.24468">
        <ele>655.429585</ele>
        <time>2011-12-30T10:47:19Z</time>
      </trkpt>
      <trkpt lat="43.85964" lon="7.24464">
        <ele>659.429588</ele>
        <time>2011-12-30T10:47:26Z</time>
      </trkpt>
      <trkpt lat="43.85973" lon="7.2446">
        <ele>660.429596</ele>
        <time>2011-12-30T10:47:32Z</time>
      </trkpt>
      <trkpt lat="43.85983" lon="7.24454">
        <ele>661.429596</ele>
        <time>2011-12-30T10:47:38Z</time>
      </trkpt>
      <trkpt lat="43.85992" lon="7.24449">
        <ele>663.4296</ele>
        <time>2011-12-30T10:47:44Z</time>
      </trkpt>
      <trkpt lat="43.86001" lon="7.24442">
        <ele>665.429596</ele>
        <time>2011-12-30T10:47:50Z</time>
      </trkpt>
      <trkpt lat="43.86003" lon="7.24441">
        <ele>665.429596</ele>
        <time>2011-12-30T10:47:51Z</time>
      </trkpt>
      <trkpt lat="43.86011" lon="7.24436">
        <ele>665.429596</ele>
        <time>2011-12-30T10:47:56Z</time>
      </trkpt>
      <trkpt lat="43.8602" lon="7.24429">
        <ele>666.429596</ele>
        <time>2011-12-30T10:48:01Z</time>
      </trkpt>
      <trkpt lat="43.86028" lon="7.24421">
        <ele>665.429588</ele>
        <time>2011-12-30T10:48:05Z</time>
      </trkpt>
      <trkpt lat="43.86036" lon="7.24411">
        <ele>666.429581</ele>
        <time>2011-12-30T10:48:10Z</time>
      </trkpt>
      <trkpt lat="43.86044" lon="7.24405">
        <ele>667.429581</ele>
        <time>2011-12-30T10:48:15Z</time>
      </trkpt>
      <trkpt lat="43.86054" lon="7.24404">
        <ele>668.429588</ele>
        <time>2011-12-30T10:48:21Z</time>
      </trkpt>
      <trkpt lat="43.86056" lon="7.24398">
        <ele>668.429581</ele>
        <time>2011-12-30T10:48:28Z</time>
      </trkpt>
      <trkpt lat="43.86065" lon="7.24384">
        <ele>668.429565</ele>
        <time>2011-12-30T10:48:37Z</time>
      </trkpt>
      <trkpt lat="43.86072" lon="7.24375">
        <ele>668.429554</ele>
        <time>2011-12-30T10:48:41Z</time>
      </trkpt>
      <trkpt lat="43.86078" lon="7.24366">
        <ele>668.429543</ele>
        <time>2011-12-30T10:48:45Z</time>
      </trkpt>
      <trkpt lat="43.86087" lon="7.24356">
        <ele>668.429535</ele>
        <time>2011-12-30T10:48:50Z</time>
      </trkpt>
      <trkpt lat="43.86096" lon="7.24351">
        <ele>669.429535</ele>
        <time>2011-12-30T10:48:56Z</time>
      </trkpt>
      <trkpt lat="43.86105" lon="7.24349">
        <ele>671.42955</ele>
        <time>2011-12-30T10:49:04Z</time>
      </trkpt>
      <trkpt lat="43.86115" lon="7.24346">
        <ele>674.429554</ele>
        <time>2011-12-30T10:49:12Z</time>
      </trkpt>
      <trkpt lat="43.86126" lon="7.24345">
        <ele>677.429569</ele>
        <time>2011-12-30T10:49:20Z</time>
      </trkpt>
      <trkpt lat="43.86135" lon="7.24344">
        <ele>681.429581</ele>
        <time>2011-12-30T10:49:26Z</time>
      </trkpt>
      <trkpt lat="43.8615" lon="7.24343">
        <ele>684.429596</ele>
        <time>2011-12-30T10:49:33Z</time>
      </trkpt>
      <trkpt lat="43.86165" lon="7.24335">
        <ele>687.429604</ele>
        <time>2011-12-30T10:49:41Z</time>
      </trkpt>
      <trkpt lat="43.86169" lon="7.2433">
        <ele>688.429596</ele>
        <time>2011-12-30T10:49:44Z</time>
      </trkpt>
      <trkpt lat="43.86176" lon="7.24318">
        <ele>690.429581</ele>
        <time>2011-12-30T10:49:50Z</time>
      </trkpt>
      <trkpt lat="43.86179" lon="7.24304">
        <ele>691.429558</ele>
        <time>2011-12-30T10:49:54Z</time>
      </trkpt>
      <trkpt lat="43.86181" lon="7.24292">
        <ele>691.429535</ele>
        <time>2011-12-30T10:49:58Z</time>
      </trkpt>
      <trkpt lat="43.86181" lon="7.24277">
        <ele>691.429504</ele>
        <time>2011-12-30T10:50:01Z</time>
      </trkpt>
      <trkpt lat="43.86181" lon="7.24264">
        <ele>691.429474</ele>
        <time>2011-12-30T10:50:06Z</time>
      </trkpt>
      <trkpt lat="43.86183" lon="7.24252">
        <ele>691.429451</ele>
        <time>2011-12-30T10:50:12Z</time>
      </trkpt>
      <trkpt lat="43.86186" lon="7.2424">
        <ele>692.429432</ele>
        <time>2011-12-30T10:50:18Z</time>
      </trkpt>
      <trkpt lat="43.86189" lon="7.24235">
        <ele>691.429428</ele>
        <time>2011-12-30T10:50:24Z</time>
      </trkpt>
      <trkpt lat="43.86198" lon="7.2423">
        <ele>696.429428</ele>
        <time>2011-12-30T10:50:33Z</time>
      </trkpt>
      <trkpt lat="43.86197" lon="7.24232">
        <ele>697.429428</ele>
        <time>2011-12-30T10:50:36Z</time>
      </trkpt>
      <trkpt lat="43.86191" lon="7.24242">
        <ele>700.429443</ele>
        <time>2011-12-30T10:50:44Z</time>
      </trkpt>
      <trkpt lat="43.86188" lon="7.24255">
        <ele>699.429466</ele>
        <time>2011-12-30T10:50:50Z</time>
      </trkpt>
      <trkpt lat="43.8619" lon="7.2427">
        <ele>701.429497</ele>
        <time>2011-12-30T10:50:56Z</time>
      </trkpt>
      <trkpt lat="43.86193" lon="7.24283">
        <ele>703.429535</ele>
        <time>2011-12-30T10:51:01Z</time>
      </trkpt>
      <trkpt lat="43.86194" lon="7.24309">
        <ele>704.429581</ele>
        <time>2011-12-30T10:51:10Z</time>
      </trkpt>
      <trkpt lat="43.86193" lon="7.24315">
        <ele>704.429604</ele>
        <time>2011-12-30T10:51:12Z</time>
      </trkpt>
      <trkpt lat="43.86194" lon="7.2433">
        <ele>704.429634</ele>
        <time>2011-12-30T10:51:17Z</time>
      </trkpt>
      <trkpt lat="43.86198" lon="7.24345">
        <ele>702.429665</ele>
        <time>2011-12-30T10:51:22Z</time>
      </trkpt>
      <trkpt lat="43.862" lon="7.24358">
        <ele>704.429695</ele>
        <time>2011-12-30T10:51:27Z</time>
      </trkpt>
      <trkpt lat="43.862" lon="7.24361">
        <ele>704.429707</ele>
        <time>2011-12-30T10:51:28Z</time>
      </trkpt>
      <trkpt lat="43.86199" lon="7.24375">
        <ele>703.429729</ele>
        <time>2011-12-30T10:51:33Z</time>
      </trkpt>
      <trkpt lat="43.86197" lon="7.24388">
        <ele>700.429756</ele>
        <time>2011-12-30T10:51:37Z</time>
      </trkpt>
      <trkpt lat="43.86196" lon="7.24391">
        <ele>700.429756</ele>
        <time>2011-12-30T10:51:38Z</time>
      </trkpt>
      <trkpt lat="43.86193" lon="7.24405">
        <ele>700.429787</ele>
        <time>2011-12-30T10:51:42Z</time>
      </trkpt>
      <trkpt lat="43.86189" lon="7.24419">
        <ele>699.429806</ele>
        <time>2011-12-30T10:51:46Z</time>
      </trkpt>
      <trkpt lat="43.86188" lon="7.24422">
        <ele>699.42981</ele>
        <time>2011-12-30T10:51:47Z</time>
      </trkpt>
      <trkpt lat="43.86186" lon="7.24436">
        <ele>701.42984</ele>
        <time>2011-12-30T10:51:51Z</time>
      </trkpt>
      <trkpt lat="43.86184" lon="7.24451">
        <ele>705.429867</ele>
        <time>2011-12-30T10:51:56Z</time>
      </trkpt>
      <trkpt lat="43.86186" lon="7.24465">
        <ele>708.429897</ele>
        <time>2011-12-30T10:52:02Z</time>
      </trkpt>
      <trkpt lat="43.8619" lon="7.24478">
        <ele>708.429932</ele>
        <time>2011-12-30T10:52:08Z</time>
      </trkpt>
      <trkpt lat="43.86194" lon="7.2449">
        <ele>708.429958</ele>
        <time>2011-12-30T10:52:13Z</time>
      </trkpt>
      <trkpt lat="43.86197" lon="7.24504">
        <ele>708.429993</ele>
        <time>2011-12-30T10:52:17Z</time>
      </trkpt>
      <trkpt lat="43.86198" lon="7.2452">
        <ele>708.430031</ele>
        <time>2011-12-30T10:52:21Z</time>
      </trkpt>
      <trkpt lat="43.86199" lon="7.24534">
        <ele>710.430058</ele>
        <time>2011-12-30T10:52:25Z</time>
      </trkpt>
      <trkpt lat="43.86199" lon="7.24537">
        <ele>710.430069</ele>
        <time>2011-12-30T10:52:26Z</time>
      </trkpt>
      <trkpt lat="43.862" lon="7.24551">
        <ele>711.430092</ele>
        <time>2011-12-30T10:52:30Z</time>
      </trkpt>
      <trkpt lat="43.862" lon="7.24565">
        <ele>712.430126</ele>
        <time>2011-12-30T10:52:33Z</time>
      </trkpt>
      <trkpt lat="43.86201" lon="7.24575">
        <ele>712.430145</ele>
        <time>2011-12-30T10:52:35Z</time>
      </trkpt>
      <trkpt lat="43.86202" lon="7.24589">
        <ele>712.430176</ele>
        <time>2011-12-30T10:52:38Z</time>
      </trkpt>
      <trkpt lat="43.86202" lon="7.24603">
        <ele>712.430206</ele>
        <time>2011-12-30T10:52:41Z</time>
      </trkpt>
      <trkpt lat="43.86202" lon="7.24617">
        <ele>712.430237</ele>
        <time>2011-12-30T10:52:44Z</time>
      </trkpt>
      <trkpt lat="43.86196" lon="7.24631">
        <ele>713.43026</ele>
        <time>2011-12-30T10:52:47Z</time>
      </trkpt>
      <trkpt lat="43.86194" lon="7.24636">
        <ele>713.430264</ele>
        <time>2011-12-30T10:52:48Z</time>
      </trkpt>
      <trkpt lat="43.86185" lon="7.24648">
        <ele>713.430275</ele>
        <time>2011-12-30T10:52:51Z</time>
      </trkpt>
      <trkpt lat="43.86178" lon="7.24655">
        <ele>713.430283</ele>
        <time>2011-12-30T10:52:54Z</time>
      </trkpt>
      <trkpt lat="43.86171" lon="7.2466">
        <ele>714.430283</ele>
        <time>2011-12-30T10:52:57Z</time>
      </trkpt>
      <trkpt lat="43.86165" lon="7.24672">
        <ele>717.430302</ele>
        <time>2011-12-30T10:53:01Z</time>
      </trkpt>
      <trkpt lat="43.86164" lon="7.24675">
        <ele>717.430298</ele>
        <time>2011-12-30T10:53:02Z</time>
      </trkpt>
      <trkpt lat="43.86159" lon="7.24686">
        <ele>720.430321</ele>
        <time>2011-12-30T10:53:07Z</time>
      </trkpt>
      <trkpt lat="43.86164" lon="7.24698">
        <ele>722.430347</ele>
        <time>2011-12-30T10:53:14Z</time>
      </trkpt>
      <trkpt lat="43.86179" lon="7.24702">
        <ele>722.430382</ele>
        <time>2011-12-30T10:53:24Z</time>
      </trkpt>
      <trkpt lat="43.86181" lon="7.24714">
        <ele>722.430405</ele>
        <time>2011-12-30T10:53:51Z</time>
      </trkpt>
      <trkpt lat="43.86177" lon="7.24736">
        <ele>725.430447</ele>
        <time>2011-12-30T10:54:00Z</time>
      </trkpt>
      <trkpt lat="43.86177" lon="7.24749">
        <ele>727.430473</ele>
        <time>2011-12-30T10:54:12Z</time>
      </trkpt>
      <trkpt lat="43.86184" lon="7.24735">
        <ele>729.430454</ele>
        <time>2011-12-30T10:55:53Z</time>
      </trkpt>
      <trkpt lat="43.86185" lon="7.24737">
        <ele>730.430462</ele>
        <time>2011-12-30T10:56:02Z</time>
      </trkpt>
      <trkpt lat="43.86175" lon="7.2475">
        <ele>729.430473</ele>
        <time>2011-12-30T10:57:21Z</time>
      </trkpt>
      <trkpt lat="43.86175" lon="7.24749">
        <ele>730.430473</ele>
        <time>2011-12-30T10:57:24Z</time>
      </trkpt>
      <trkpt lat="43.86181" lon="7.2474">
        <ele>718.430458</ele>
        <time>2011-12-30T10:58:09Z</time>
      </trkpt>
      <trkpt lat="43.86186" lon="7.24757">
        <ele>714.430504</ele>
        <time>2011-12-30T10:58:38Z</time>
      </trkpt>
      <trkpt lat="43.86185" lon="7.24771">
        <ele>714.430534</ele>
        <time>2011-12-30T10:58:46Z</time>
      </trkpt>
      <trkpt lat="43.86186" lon="7.24786">
        <ele>715.430565</ele>
        <time>2011-12-30T10:58:57Z</time>
      </trkpt>
      <trkpt lat="43.86188" lon="7.24799">
        <ele>716.430595</ele>
        <time>2011-12-30T10:59:06Z</time>
      </trkpt>
      <trkpt lat="43.86189" lon="7.24819">
        <ele>718.430634</ele>
        <time>2011-12-30T10:59:19Z</time>
      </trkpt>
      <trkpt lat="43.86191" lon="7.24833">
        <ele>719.430664</ele>
        <time>2011-12-30T10:59:30Z</time>
      </trkpt>
      <trkpt lat="43.86195" lon="7.24844">
        <ele>720.430695</ele>
        <time>2011-12-30T10:59:41Z</time>
      </trkpt>
      <trkpt lat="43.86204" lon="7.24849">
        <ele>720.430717</ele>
        <time>2011-12-30T10:59:54Z</time>
      </trkpt>
      <trkpt lat="43.86211" lon="7.24868">
        <ele>725.430771</ele>
        <time>2011-12-30T11:00:24Z</time>
      </trkpt>
      <trkpt lat="43.86218" lon="7.24878">
        <ele>733.430798</ele>
        <time>2011-12-30T11:00:39Z</time>
      </trkpt>
      <trkpt lat="43.86226" lon="7.24885">
        <ele>738.430824</ele>
        <time>2011-12-30T11:00:54Z</time>
      </trkpt>
      <trkpt lat="43.86233" lon="7.24895">
        <ele>740.430855</ele>
        <time>2011-12-30T11:01:06Z</time>
      </trkpt>
      <trkpt lat="43.86239" lon="7.24905">
        <ele>746.430882</ele>
        <time>2011-12-30T11:01:21Z</time>
      </trkpt>
      <trkpt lat="43.86239" lon="7.24913">
        <ele>746.430897</ele>
        <time>2011-12-30T11:01:35Z</time>
      </trkpt>
      <trkpt lat="43.86245" lon="7.2493">
        <ele>746.430939</ele>
        <time>2011-12-30T11:01:51Z</time>
      </trkpt>
      <trkpt lat="43.86248" lon="7.24942">
        <ele>747.430973</ele>
        <time>2011-12-30T11:02:03Z</time>
      </trkpt>
      <trkpt lat="43.8625" lon="7.24954">
        <ele>748.431</ele>
        <time>2011-12-30T11:02:09Z</time>
      </trkpt>
      <trkpt lat="43.86254" lon="7.24966">
        <ele>748.43103</ele>
        <time>2011-12-30T11:02:16Z</time>
      </trkpt>
      <trkpt lat="43.86263" lon="7.24974">
        <ele>751.431057</ele>
        <time>2011-12-30T11:02:37Z</time>
      </trkpt>
      <trkpt lat="43.86269" lon="7.2499">
        <ele>754.431099</ele>
        <time>2011-12-30T11:02:50Z</time>
      </trkpt>
      <trkpt lat="43.8627" lon="7.24995">
        <ele>754.43111</ele>
        <time>2011-12-30T11:02:54Z</time>
      </trkpt>
      <trkpt lat="43.86274" lon="7.25006">
        <ele>753.431145</ele>
        <time>2011-12-30T11:03:13Z</time>
      </trkpt>
      <trkpt lat="43.86281" lon="7.25015">
        <ele>755.431164</ele>
        <time>2011-12-30T11:03:30Z</time>
      </trkpt>
      <trkpt lat="43.86282" lon="7.25016">
        <ele>755.431171</ele>
        <time>2011-12-30T11:03:33Z</time>
      </trkpt>
      <trkpt lat="43.86285" lon="7.25028">
        <ele>757.431198</ele>
        <time>2011-12-30T11:03:44Z</time>
      </trkpt>
      <trkpt lat="43.86286" lon="7.25029">
        <ele>757.431206</ele>
        <time>2011-12-30T11:03:47Z</time>
      </trkpt>
      <trkpt lat="43.86295" lon="7.2504">
        <ele>761.43124</ele>
        <time>2011-12-30T11:04:04Z</time>
      </trkpt>
      <trkpt lat="43.86296" lon="7.2504">
        <ele>761.43124</ele>
        <time>2011-12-30T11:04:05Z</time>
      </trkpt>
      <trkpt lat="43.86303" lon="7.25049">
        <ele>761.431267</ele>
        <time>2011-12-30T11:04:21Z</time>
      </trkpt>
      <trkpt lat="43.86308" lon="7.2506">
        <ele>765.431297</ele>
        <time>2011-12-30T11:04:38Z</time>
      </trkpt>
      <trkpt lat="43.86308" lon="7.2506">
        <ele>765.431297</ele>
        <time>2011-12-30T11:04:39Z</time>
      </trkpt>
      <trkpt lat="43.86312" lon="7.25072">
        <ele>770.431328</ele>
        <time>2011-12-30T11:04:51Z</time>
      </trkpt>
      <trkpt lat="43.86317" lon="7.25082">
        <ele>771.431358</ele>
        <time>2011-12-30T11:05:08Z</time>
      </trkpt>
      <trkpt lat="43.86322" lon="7.25094">
        <ele>774.431389</ele>
        <time>2011-12-30T11:05:18Z</time>
      </trkpt>
      <trkpt lat="43.86327" lon="7.25106">
        <ele>780.431423</ele>
        <time>2011-12-30T11:05:27Z</time>
      </trkpt>
      <trkpt lat="43.86331" lon="7.25117">
        <ele>785.43145</ele>
        <time>2011-12-30T11:05:52Z</time>
      </trkpt>
      <trkpt lat="43.86338" lon="7.25141">
        <ele>789.431507</ele>
        <time>2011-12-30T11:06:09Z</time>
      </trkpt>
      <trkpt lat="43.86345" lon="7.25154">
        <ele>793.431549</ele>
        <time>2011-12-30T11:06:24Z</time>
      </trkpt>
      <trkpt lat="43.86352" lon="7.25169">
        <ele>797.431587</ele>
        <time>2011-12-30T11:06:55Z</time>
      </trkpt>
      <trkpt lat="43.86358" lon="7.25179">
        <ele>799.43161</ele>
        <time>2011-12-30T11:07:11Z</time>
      </trkpt>
      <trkpt lat="43.86364" lon="7.25195">
        <ele>804.431652</ele>
        <time>2011-12-30T11:07:28Z</time>
      </trkpt>
      <trkpt lat="43.86377" lon="7.25215">
        <ele>807.431717</ele>
        <time>2011-12-30T11:07:52Z</time>
      </trkpt>
      <trkpt lat="43.8638" lon="7.25223">
        <ele>807.431728</ele>
        <time>2011-12-30T11:07:59Z</time>
      </trkpt>
      <trkpt lat="43.86381" lon="7.25237">
        <ele>806.431763</ele>
        <time>2011-12-30T11:08:11Z</time>
      </trkpt>
      <trkpt lat="43.86381" lon="7.25242">
        <ele>806.431774</ele>
        <time>2011-12-30T11:08:14Z</time>
      </trkpt>
      <trkpt lat="43.86383" lon="7.25254">
        <ele>805.431801</ele>
        <time>2011-12-30T11:08:31Z</time>
      </trkpt>
      <trkpt lat="43.86384" lon="7.25256">
        <ele>806.431808</ele>
        <time>2011-12-30T11:08:37Z</time>
      </trkpt>
      <trkpt lat="43.86389" lon="7.25267">
        <ele>807.431839</ele>
        <time>2011-12-30T11:08:45Z</time>
      </trkpt>
      <trkpt lat="43.86394" lon="7.25285">
        <ele>810.431877</ele>
        <time>2011-12-30T11:09:05Z</time>
      </trkpt>
      <trkpt lat="43.86398" lon="7.25296">
        <ele>810.431908</ele>
        <time>2011-12-30T11:09:16Z</time>
      </trkpt>
      <trkpt lat="43.86406" lon="7.25313">
        <ele>814.431953</ele>
        <time>2011-12-30T11:09:31Z</time>
      </trkpt>
      <trkpt lat="43.8641" lon="7.25326">
        <ele>817.431988</ele>
        <time>2011-12-30T11:09:41Z</time>
      </trkpt>
      <trkpt lat="43.86416" lon="7.25341">
        <ele>820.43203</ele>
        <time>2011-12-30T11:09:56Z</time>
      </trkpt>
      <trkpt lat="43.86417" lon="7.25342">
        <ele>820.43203</ele>
        <time>2011-12-30T11:09:58Z</time>
      </trkpt>
      <trkpt lat="43.86422" lon="7.25353">
        <ele>825.43206</ele>
        <time>2011-12-30T11:10:13Z</time>
      </trkpt>
      <trkpt lat="43.8643" lon="7.25362">
        <ele>826.432091</ele>
        <time>2011-12-30T11:10:24Z</time>
      </trkpt>
      <trkpt lat="43.86436" lon="7.25371">
        <ele>828.432114</ele>
        <time>2011-12-30T11:10:37Z</time>
      </trkpt>
      <trkpt lat="43.86442" lon="7.25383">
        <ele>832.432148</ele>
        <time>2011-12-30T11:10:56Z</time>
      </trkpt>
      <trkpt lat="43.86442" lon="7.25383">
        <ele>833.432152</ele>
        <time>2011-12-30T11:10:57Z</time>
      </trkpt>
      <trkpt lat="43.8645" lon="7.25388">
        <ele>835.432167</ele>
        <time>2011-12-30T11:11:22Z</time>
      </trkpt>
      <trkpt lat="43.86452" lon="7.25376">
        <ele>837.432152</ele>
        <time>2011-12-30T11:11:35Z</time>
      </trkpt>
      <trkpt lat="43.86458" lon="7.25386">
        <ele>850.432175</ele>
        <time>2011-12-30T11:12:49Z</time>
      </trkpt>
      <trkpt lat="43.86458" lon="7.254">
        <ele>852.432205</ele>
        <time>2011-12-30T11:12:55Z</time>
      </trkpt>
      <trkpt lat="43.86456" lon="7.25414">
        <ele>852.432236</ele>
        <time>2011-12-30T11:13:01Z</time>
      </trkpt>
      <trkpt lat="43.86455" lon="7.25426">
        <ele>851.432259</ele>
        <time>2011-12-30T11:13:06Z</time>
      </trkpt>
      <trkpt lat="43.86456" lon="7.2544">
        <ele>850.432289</ele>
        <time>2011-12-30T11:13:12Z</time>
      </trkpt>
      <trkpt lat="43.86461" lon="7.25453">
        <ele>850.43232</ele>
        <time>2011-12-30T11:13:18Z</time>
      </trkpt>
      <trkpt lat="43.86467" lon="7.25472">
        <ele>851.432365</ele>
        <time>2011-12-30T11:13:28Z</time>
      </trkpt>
      <trkpt lat="43.8647" lon="7.25484">
        <ele>853.432396</ele>
        <time>2011-12-30T11:13:34Z</time>
      </trkpt>
      <trkpt lat="43.86474" lon="7.25499">
        <ele>854.43243</ele>
        <time>2011-12-30T11:13:41Z</time>
      </trkpt>
      <trkpt lat="43.86476" lon="7.25513">
        <ele>858.432465</ele>
        <time>2011-12-30T11:13:47Z</time>
      </trkpt>
      <trkpt lat="43.86478" lon="7.25526">
        <ele>859.432495</ele>
        <time>2011-12-30T11:13:52Z</time>
      </trkpt>
      <trkpt lat="43.8648" lon="7.2554">
        <ele>859.432526</ele>
        <time>2011-12-30T11:13:58Z</time>
      </trkpt>
      <trkpt lat="43.86482" lon="7.25553">
        <ele>860.432556</ele>
        <time>2011-12-30T11:14:03Z</time>
      </trkpt>
      <trkpt lat="43.86485" lon="7.25565">
        <ele>862.432587</ele>
        <time>2011-12-30T11:14:08Z</time>
      </trkpt>
      <trkpt lat="43.86488" lon="7.25578">
        <ele>862.432617</ele>
        <time>2011-12-30T11:14:13Z</time>
      </trkpt>
      <trkpt lat="43.86491" lon="7.2559">
        <ele>861.432644</ele>
        <time>2011-12-30T11:14:18Z</time>
      </trkpt>
      <trkpt lat="43.86496" lon="7.25601">
        <ele>862.432674</ele>
        <time>2011-12-30T11:14:23Z</time>
      </trkpt>
      <trkpt lat="43.86502" lon="7.25612">
        <ele>863.432709</ele>
        <time>2011-12-30T11:14:28Z</time>
      </trkpt>
      <trkpt lat="43.86508" lon="7.25622">
        <ele>864.432735</ele>
        <time>2011-12-30T11:14:34Z</time>
      </trkpt>
      <trkpt lat="43.86515" lon="7.25631">
        <ele>864.432762</ele>
        <time>2011-12-30T11:14:40Z</time>
      </trkpt>
      <trkpt lat="43.86524" lon="7.25638">
        <ele>865.432789</ele>
        <time>2011-12-30T11:14:46Z</time>
      </trkpt>
      <trkpt lat="43.86533" lon="7.25647">
        <ele>865.432819</ele>
        <time>2011-12-30T11:14:52Z</time>
      </trkpt>
      <trkpt lat="43.86542" lon="7.25657">
        <ele>867.432854</ele>
        <time>2011-12-30T11:14:59Z</time>
      </trkpt>
      <trkpt lat="43.86549" lon="7.25668">
        <ele>868.432884</ele>
        <time>2011-12-30T11:15:05Z</time>
      </trkpt>
      <trkpt lat="43.86553" lon="7.2568">
        <ele>870.432915</ele>
        <time>2011-12-30T11:15:10Z</time>
      </trkpt>
      <trkpt lat="43.86555" lon="7.25692">
        <ele>870.432945</ele>
        <time>2011-12-30T11:15:15Z</time>
      </trkpt>
      <trkpt lat="43.86557" lon="7.25705">
        <ele>870.432972</ele>
        <time>2011-12-30T11:15:20Z</time>
      </trkpt>
      <trkpt lat="43.8656" lon="7.25719">
        <ele>871.433006</ele>
        <time>2011-12-30T11:15:25Z</time>
      </trkpt>
      <trkpt lat="43.86566" lon="7.25729">
        <ele>872.433037</ele>
        <time>2011-12-30T11:15:30Z</time>
      </trkpt>
      <trkpt lat="43.86575" lon="7.25715">
        <ele>876.433018</ele>
        <time>2011-12-30T11:15:43Z</time>
      </trkpt>
      <trkpt lat="43.86572" lon="7.25701">
        <ele>878.432983</ele>
        <time>2011-12-30T11:15:48Z</time>
      </trkpt>
      <trkpt lat="43.86572" lon="7.25687">
        <ele>880.432957</ele>
        <time>2011-12-30T11:15:53Z</time>
      </trkpt>
      <trkpt lat="43.86572" lon="7.2568">
        <ele>880.432938</ele>
        <time>2011-12-30T11:15:55Z</time>
      </trkpt>
      <trkpt lat="43.86569" lon="7.25662">
        <ele>880.432899</ele>
        <time>2011-12-30T11:16:01Z</time>
      </trkpt>
      <trkpt lat="43.86568" lon="7.25649">
        <ele>880.432873</ele>
        <time>2011-12-30T11:16:06Z</time>
      </trkpt>
      <trkpt lat="43.86565" lon="7.25637">
        <ele>881.432846</ele>
        <time>2011-12-30T11:16:11Z</time>
      </trkpt>
      <trkpt lat="43.8656" lon="7.25621">
        <ele>881.4328</ele>
        <time>2011-12-30T11:16:17Z</time>
      </trkpt>
      <trkpt lat="43.86556" lon="7.25604">
        <ele>881.432766</ele>
        <time>2011-12-30T11:16:23Z</time>
      </trkpt>
      <trkpt lat="43.86556" lon="7.25601">
        <ele>882.432755</ele>
        <time>2011-12-30T11:16:25Z</time>
      </trkpt>
      <trkpt lat="43.86555" lon="7.25587">
        <ele>883.432732</ele>
        <time>2011-12-30T11:16:29Z</time>
      </trkpt>
      <trkpt lat="43.86556" lon="7.2557">
        <ele>884.432693</ele>
        <time>2011-12-30T11:16:32Z</time>
      </trkpt>
      <trkpt lat="43.86558" lon="7.25553">
        <ele>885.432659</ele>
        <time>2011-12-30T11:16:35Z</time>
      </trkpt>
      <trkpt lat="43.8656" lon="7.25538">
        <ele>886.432632</ele>
        <time>2011-12-30T11:16:38Z</time>
      </trkpt>
      <trkpt lat="43.86561" lon="7.25525">
        <ele>887.43261</ele>
        <time>2011-12-30T11:16:41Z</time>
      </trkpt>
      <trkpt lat="43.86562" lon="7.2551">
        <ele>888.432579</ele>
        <time>2011-12-30T11:16:45Z</time>
      </trkpt>
      <trkpt lat="43.86563" lon="7.25497">
        <ele>889.432549</ele>
        <time>2011-12-30T11:16:49Z</time>
      </trkpt>
      <trkpt lat="43.86564" lon="7.25482">
        <ele>889.432522</ele>
        <time>2011-12-30T11:16:54Z</time>
      </trkpt>
      <trkpt lat="43.86563" lon="7.25479">
        <ele>890.432514</ele>
        <time>2011-12-30T11:16:56Z</time>
      </trkpt>
      <trkpt lat="43.86562" lon="7.25466">
        <ele>890.432484</ele>
        <time>2011-12-30T11:17:00Z</time>
      </trkpt>
      <trkpt lat="43.8656" lon="7.25453">
        <ele>893.432457</ele>
        <time>2011-12-30T11:17:08Z</time>
      </trkpt>
      <trkpt lat="43.86559" lon="7.25438">
        <ele>895.432423</ele>
        <time>2011-12-30T11:17:14Z</time>
      </trkpt>
      <trkpt lat="43.86558" lon="7.25429">
        <ele>896.432404</ele>
        <time>2011-12-30T11:17:18Z</time>
      </trkpt>
      <trkpt lat="43.86557" lon="7.25416">
        <ele>896.432373</ele>
        <time>2011-12-30T11:17:22Z</time>
      </trkpt>
      <trkpt lat="43.86556" lon="7.25412">
        <ele>896.432365</ele>
        <time>2011-12-30T11:17:24Z</time>
      </trkpt>
      <trkpt lat="43.86553" lon="7.25397">
        <ele>896.432327</ele>
        <time>2011-12-30T11:17:28Z</time>
      </trkpt>
      <trkpt lat="43.86549" lon="7.25384">
        <ele>897.432297</ele>
        <time>2011-12-30T11:17:33Z</time>
      </trkpt>
      <trkpt lat="43.86546" lon="7.2537">
        <ele>899.432266</ele>
        <time>2011-12-30T11:17:38Z</time>
      </trkpt>
      <trkpt lat="43.86545" lon="7.25349">
        <ele>900.43222</ele>
        <time>2011-12-30T11:17:45Z</time>
      </trkpt>
      <trkpt lat="43.86543" lon="7.25336">
        <ele>901.43219</ele>
        <time>2011-12-30T11:17:51Z</time>
      </trkpt>
      <trkpt lat="43.8654" lon="7.25312">
        <ele>904.432137</ele>
        <time>2011-12-30T11:17:58Z</time>
      </trkpt>
      <trkpt lat="43.86541" lon="7.25311">
        <ele>906.432137</ele>
        <time>2011-12-30T11:17:59Z</time>
      </trkpt>
      <trkpt lat="43.86543" lon="7.25324">
        <ele>912.432167</ele>
        <time>2011-12-30T11:18:06Z</time>
      </trkpt>
      <trkpt lat="43.86543" lon="7.25337">
        <ele>913.43219</ele>
        <time>2011-12-30T11:18:10Z</time>
      </trkpt>
      <trkpt lat="43.86543" lon="7.2535">
        <ele>914.43222</ele>
        <time>2011-12-30T11:18:14Z</time>
      </trkpt>
      <trkpt lat="43.86544" lon="7.25366">
        <ele>915.432259</ele>
        <time>2011-12-30T11:18:19Z</time>
      </trkpt>
      <trkpt lat="43.86546" lon="7.2538">
        <ele>916.432289</ele>
        <time>2011-12-30T11:18:24Z</time>
      </trkpt>
      <trkpt lat="43.86551" lon="7.25393">
        <ele>916.43232</ele>
        <time>2011-12-30T11:18:29Z</time>
      </trkpt>
      <trkpt lat="43.86557" lon="7.25404">
        <ele>916.43235</ele>
        <time>2011-12-30T11:18:34Z</time>
      </trkpt>
      <trkpt lat="43.86563" lon="7.25415">
        <ele>917.432381</ele>
        <time>2011-12-30T11:18:39Z</time>
      </trkpt>
      <trkpt lat="43.8657" lon="7.25426">
        <ele>916.432411</ele>
        <time>2011-12-30T11:18:44Z</time>
      </trkpt>
      <trkpt lat="43.86574" lon="7.25439">
        <ele>916.432449</ele>
        <time>2011-12-30T11:18:49Z</time>
      </trkpt>
      <trkpt lat="43.86579" lon="7.2545">
        <ele>917.432476</ele>
        <time>2011-12-30T11:18:54Z</time>
      </trkpt>
      <trkpt lat="43.86585" lon="7.25461">
        <ele>917.43251</ele>
        <time>2011-12-30T11:19:00Z</time>
      </trkpt>
      <trkpt lat="43.86592" lon="7.2547">
        <ele>918.432533</ele>
        <time>2011-12-30T11:19:05Z</time>
      </trkpt>
      <trkpt lat="43.86597" lon="7.25481">
        <ele>919.432564</ele>
        <time>2011-12-30T11:19:10Z</time>
      </trkpt>
      <trkpt lat="43.86598" lon="7.25483">
        <ele>919.432571</ele>
        <time>2011-12-30T11:19:11Z</time>
      </trkpt>
      <trkpt lat="43.86604" lon="7.25496">
        <ele>920.432606</ele>
        <time>2011-12-30T11:19:16Z</time>
      </trkpt>
      <trkpt lat="43.86608" lon="7.25507">
        <ele>920.432632</ele>
        <time>2011-12-30T11:19:20Z</time>
      </trkpt>
      <trkpt lat="43.86612" lon="7.2552">
        <ele>920.432663</ele>
        <time>2011-12-30T11:19:24Z</time>
      </trkpt>
      <trkpt lat="43.86616" lon="7.25532">
        <ele>922.432697</ele>
        <time>2011-12-30T11:19:28Z</time>
      </trkpt>
      <trkpt lat="43.8662" lon="7.25546">
        <ele>922.432732</ele>
        <time>2011-12-30T11:19:33Z</time>
      </trkpt>
      <trkpt lat="43.86624" lon="7.25558">
        <ele>923.432762</ele>
        <time>2011-12-30T11:19:37Z</time>
      </trkpt>
      <trkpt lat="43.8663" lon="7.25571">
        <ele>924.432793</ele>
        <time>2011-12-30T11:19:42Z</time>
      </trkpt>
      <trkpt lat="43.86635" lon="7.25583">
        <ele>922.432827</ele>
        <time>2011-12-30T11:19:47Z</time>
      </trkpt>
      <trkpt lat="43.86635" lon="7.25585">
        <ele>922.432835</ele>
        <time>2011-12-30T11:19:48Z</time>
      </trkpt>
      <trkpt lat="43.86641" lon="7.25598">
        <ele>923.432869</ele>
        <time>2011-12-30T11:19:54Z</time>
      </trkpt>
      <trkpt lat="43.86646" lon="7.25611">
        <ele>924.432899</ele>
        <time>2011-12-30T11:20:00Z</time>
      </trkpt>
      <trkpt lat="43.86651" lon="7.25622">
        <ele>924.43293</ele>
        <time>2011-12-30T11:20:05Z</time>
      </trkpt>
      <trkpt lat="43.86655" lon="7.25635">
        <ele>925.432961</ele>
        <time>2011-12-30T11:20:10Z</time>
      </trkpt>
      <trkpt lat="43.8666" lon="7.25648">
        <ele>927.432991</ele>
        <time>2011-12-30T11:20:15Z</time>
      </trkpt>
      <trkpt lat="43.86665" lon="7.25661">
        <ele>928.433029</ele>
        <time>2011-12-30T11:20:20Z</time>
      </trkpt>
      <trkpt lat="43.86671" lon="7.25673">
        <ele>929.433064</ele>
        <time>2011-12-30T11:20:25Z</time>
      </trkpt>
      <trkpt lat="43.86678" lon="7.25685">
        <ele>930.433098</ele>
        <time>2011-12-30T11:20:30Z</time>
      </trkpt>
      <trkpt lat="43.86684" lon="7.25694">
        <ele>930.433128</ele>
        <time>2011-12-30T11:20:34Z</time>
      </trkpt>
      <trkpt lat="43.86692" lon="7.25704">
        <ele>930.433155</ele>
        <time>2011-12-30T11:20:38Z</time>
      </trkpt>
      <trkpt lat="43.86698" lon="7.25714">
        <ele>929.433182</ele>
        <time>2011-12-30T11:20:42Z</time>
      </trkpt>
      <trkpt lat="43.86704" lon="7.25725">
        <ele>928.43322</ele>
        <time>2011-12-30T11:20:46Z</time>
      </trkpt>
      <trkpt lat="43.8671" lon="7.25737">
        <ele>928.43325</ele>
        <time>2011-12-30T11:20:50Z</time>
      </trkpt>
      <trkpt lat="43.86713" lon="7.25749">
        <ele>930.433281</ele>
        <time>2011-12-30T11:20:54Z</time>
      </trkpt>
      <trkpt lat="43.86716" lon="7.25761">
        <ele>931.433304</ele>
        <time>2011-12-30T11:20:58Z</time>
      </trkpt>
      <trkpt lat="43.8672" lon="7.25776">
        <ele>934.433346</ele>
        <time>2011-12-30T11:21:03Z</time>
      </trkpt>
      <trkpt lat="43.86725" lon="7.2579">
        <ele>936.43338</ele>
        <time>2011-12-30T11:21:08Z</time>
      </trkpt>
      <trkpt lat="43.8673" lon="7.25803">
        <ele>937.433414</ele>
        <time>2011-12-30T11:21:13Z</time>
      </trkpt>
      <trkpt lat="43.86736" lon="7.25817">
        <ele>939.433449</ele>
        <time>2011-12-30T11:21:18Z</time>
      </trkpt>
      <trkpt lat="43.86741" lon="7.25829">
        <ele>940.433479</ele>
        <time>2011-12-30T11:21:23Z</time>
      </trkpt>
      <trkpt lat="43.86746" lon="7.25842">
        <ele>941.433514</ele>
        <time>2011-12-30T11:21:28Z</time>
      </trkpt>
      <trkpt lat="43.86753" lon="7.25854">
        <ele>941.433548</ele>
        <time>2011-12-30T11:21:33Z</time>
      </trkpt>
      <trkpt lat="43.86761" lon="7.25862">
        <ele>942.433578</ele>
        <time>2011-12-30T11:21:38Z</time>
      </trkpt>
      <trkpt lat="43.8677" lon="7.25869">
        <ele>943.433601</ele>
        <time>2011-12-30T11:21:43Z</time>
      </trkpt>
      <trkpt lat="43.8678" lon="7.25875">
        <ele>943.433632</ele>
        <time>2011-12-30T11:21:48Z</time>
      </trkpt>
      <trkpt lat="43.86789" lon="7.25883">
        <ele>945.433659</ele>
        <time>2011-12-30T11:21:53Z</time>
      </trkpt>
      <trkpt lat="43.86797" lon="7.25889">
        <ele>946.433685</ele>
        <time>2011-12-30T11:21:58Z</time>
      </trkpt>
      <trkpt lat="43.86807" lon="7.25893">
        <ele>946.433704</ele>
        <time>2011-12-30T11:22:03Z</time>
      </trkpt>
      <trkpt lat="43.86816" lon="7.25895">
        <ele>946.433723</ele>
        <time>2011-12-30T11:22:07Z</time>
      </trkpt>
      <trkpt lat="43.86826" lon="7.25901">
        <ele>947.433746</ele>
        <time>2011-12-30T11:22:12Z</time>
      </trkpt>
      <trkpt lat="43.86833" lon="7.25912">
        <ele>949.433777</ele>
        <time>2011-12-30T11:22:17Z</time>
      </trkpt>
      <trkpt lat="43.86838" lon="7.25926">
        <ele>950.433815</ele>
        <time>2011-12-30T11:22:22Z</time>
      </trkpt>
      <trkpt lat="43.86839" lon="7.2594">
        <ele>951.433846</ele>
        <time>2011-12-30T11:22:27Z</time>
      </trkpt>
      <trkpt lat="43.86834" lon="7.25952">
        <ele>952.433861</ele>
        <time>2011-12-30T11:22:31Z</time>
      </trkpt>
      <trkpt lat="43.86827" lon="7.25964">
        <ele>952.433876</ele>
        <time>2011-12-30T11:22:35Z</time>
      </trkpt>
      <trkpt lat="43.86819" lon="7.25974">
        <ele>953.433891</ele>
        <time>2011-12-30T11:22:39Z</time>
      </trkpt>
      <trkpt lat="43.86811" lon="7.25984">
        <ele>954.433899</ele>
        <time>2011-12-30T11:22:43Z</time>
      </trkpt>
      <trkpt lat="43.86804" lon="7.25993">
        <ele>954.433907</ele>
        <time>2011-12-30T11:22:47Z</time>
      </trkpt>
      <trkpt lat="43.86798" lon="7.26004">
        <ele>956.433922</ele>
        <time>2011-12-30T11:22:51Z</time>
      </trkpt>
      <trkpt lat="43.86795" lon="7.26016">
        <ele>960.433945</ele>
        <time>2011-12-30T11:22:56Z</time>
      </trkpt>
      <trkpt lat="43.86805" lon="7.26018">
        <ele>961.433964</ele>
        <time>2011-12-30T11:23:03Z</time>
      </trkpt>
      <trkpt lat="43.86813" lon="7.26009">
        <ele>962.433952</ele>
        <time>2011-12-30T11:23:07Z</time>
      </trkpt>
      <trkpt lat="43.86821" lon="7.26">
        <ele>964.433945</ele>
        <time>2011-12-30T11:23:11Z</time>
      </trkpt>
      <trkpt lat="43.86829" lon="7.25988">
        <ele>966.433933</ele>
        <time>2011-12-30T11:23:16Z</time>
      </trkpt>
      <trkpt lat="43.86837" lon="7.25974">
        <ele>968.43391</ele>
        <time>2011-12-30T11:23:21Z</time>
      </trkpt>
      <trkpt lat="43.86842" lon="7.25963">
        <ele>970.433899</ele>
        <time>2011-12-30T11:23:25Z</time>
      </trkpt>
      <trkpt lat="43.8685" lon="7.25953">
        <ele>973.433884</ele>
        <time>2011-12-30T11:23:30Z</time>
      </trkpt>
      <trkpt lat="43.86858" lon="7.25942">
        <ele>975.433876</ele>
        <time>2011-12-30T11:23:35Z</time>
      </trkpt>
      <trkpt lat="43.86859" lon="7.25927">
        <ele>979.433846</ele>
        <time>2011-12-30T11:23:41Z</time>
      </trkpt>
      <trkpt lat="43.8686" lon="7.25914">
        <ele>981.433823</ele>
        <time>2011-12-30T11:23:46Z</time>
      </trkpt>
      <trkpt lat="43.8686" lon="7.25907">
        <ele>982.433807</ele>
        <time>2011-12-30T11:23:48Z</time>
      </trkpt>
      <trkpt lat="43.86859" lon="7.25893">
        <ele>984.433777</ele>
        <time>2011-12-30T11:23:53Z</time>
      </trkpt>
      <trkpt lat="43.86854" lon="7.25877">
        <ele>986.433739</ele>
        <time>2011-12-30T11:23:57Z</time>
      </trkpt>
      <trkpt lat="43.8685" lon="7.25865">
        <ele>987.433701</ele>
        <time>2011-12-30T11:24:00Z</time>
      </trkpt>
      <trkpt lat="43.86845" lon="7.2585">
        <ele>990.43367</ele>
        <time>2011-12-30T11:24:03Z</time>
      </trkpt>
      <trkpt lat="43.8684" lon="7.25838">
        <ele>992.433636</ele>
        <time>2011-12-30T11:24:06Z</time>
      </trkpt>
      <trkpt lat="43.86835" lon="7.25823">
        <ele>994.433598</ele>
        <time>2011-12-30T11:24:10Z</time>
      </trkpt>
      <trkpt lat="43.86831" lon="7.25812">
        <ele>995.433571</ele>
        <time>2011-12-30T11:24:14Z</time>
      </trkpt>
      <trkpt lat="43.86827" lon="7.258">
        <ele>995.43354</ele>
        <time>2011-12-30T11:24:20Z</time>
      </trkpt>
      <trkpt lat="43.86824" lon="7.25788">
        <ele>996.43351</ele>
        <time>2011-12-30T11:24:24Z</time>
      </trkpt>
      <trkpt lat="43.8682" lon="7.25769">
        <ele>997.433464</ele>
        <time>2011-12-30T11:24:29Z</time>
      </trkpt>
      <trkpt lat="43.86817" lon="7.25755">
        <ele>999.433434</ele>
        <time>2011-12-30T11:24:33Z</time>
      </trkpt>
      <trkpt lat="43.86816" lon="7.2575">
        <ele>999.433418</ele>
        <time>2011-12-30T11:24:34Z</time>
      </trkpt>
      <trkpt lat="43.86812" lon="7.25735">
        <ele>1000.433384</ele>
        <time>2011-12-30T11:24:38Z</time>
      </trkpt>
      <trkpt lat="43.86811" lon="7.25732">
        <ele>1000.43338</ele>
        <time>2011-12-30T11:24:39Z</time>
      </trkpt>
      <trkpt lat="43.86808" lon="7.25718">
        <ele>1001.433342</ele>
        <time>2011-12-30T11:24:43Z</time>
      </trkpt>
      <trkpt lat="43.86806" lon="7.2571">
        <ele>1001.433327</ele>
        <time>2011-12-30T11:24:45Z</time>
      </trkpt>
      <trkpt lat="43.868" lon="7.25696">
        <ele>1003.433289</ele>
        <time>2011-12-30T11:24:49Z</time>
      </trkpt>
      <trkpt lat="43.86796" lon="7.25685">
        <ele>1003.433258</ele>
        <time>2011-12-30T11:24:52Z</time>
      </trkpt>
      <trkpt lat="43.86792" lon="7.25674">
        <ele>1004.433231</ele>
        <time>2011-12-30T11:24:55Z</time>
      </trkpt>
      <trkpt lat="43.86788" lon="7.2566">
        <ele>1007.433197</ele>
        <time>2011-12-30T11:25:00Z</time>
      </trkpt>
      <trkpt lat="43.86785" lon="7.25646">
        <ele>1008.433167</ele>
        <time>2011-12-30T11:25:05Z</time>
      </trkpt>
      <trkpt lat="43.86782" lon="7.25634">
        <ele>1010.433136</ele>
        <time>2011-12-30T11:25:09Z</time>
      </trkpt>
      <trkpt lat="43.86778" lon="7.25621">
        <ele>1012.433102</ele>
        <time>2011-12-30T11:25:15Z</time>
      </trkpt>
      <trkpt lat="43.86773" lon="7.2561">
        <ele>1013.433067</ele>
        <time>2011-12-30T11:25:18Z</time>
      </trkpt>
      <trkpt lat="43.86769" lon="7.25598">
        <ele>1014.433044</ele>
        <time>2011-12-30T11:25:22Z</time>
      </trkpt>
      <trkpt lat="43.86769" lon="7.25598">
        <ele>1014.433044</ele>
        <time>2011-12-30T11:25:24Z</time>
      </trkpt>
      <trkpt lat="43.86766" lon="7.25585">
        <ele>1015.433014</ele>
        <time>2011-12-30T11:25:27Z</time>
      </trkpt>
      <trkpt lat="43.86759" lon="7.2557">
        <ele>1016.432976</ele>
        <time>2011-12-30T11:25:35Z</time>
      </trkpt>
      <trkpt lat="43.86754" lon="7.25556">
        <ele>1017.432934</ele>
        <time>2011-12-30T11:25:43Z</time>
      </trkpt>
      <trkpt lat="43.86757" lon="7.2557">
        <ele>1020.432968</ele>
        <time>2011-12-30T11:25:54Z</time>
      </trkpt>
      <trkpt lat="43.86762" lon="7.25583">
        <ele>1019.433006</ele>
        <time>2011-12-30T11:25:59Z</time>
      </trkpt>
      <trkpt lat="43.86767" lon="7.25596">
        <ele>1018.433033</ele>
        <time>2011-12-30T11:26:04Z</time>
      </trkpt>
      <trkpt lat="43.86771" lon="7.25609">
        <ele>1016.433067</ele>
        <time>2011-12-30T11:26:09Z</time>
      </trkpt>
      <trkpt lat="43.86776" lon="7.25622">
        <ele>1016.433105</ele>
        <time>2011-12-30T11:26:14Z</time>
      </trkpt>
      <trkpt lat="43.86781" lon="7.25632">
        <ele>1016.433128</ele>
        <time>2011-12-30T11:26:18Z</time>
      </trkpt>
      <trkpt lat="43.86787" lon="7.25642">
        <ele>1016.433159</ele>
        <time>2011-12-30T11:26:22Z</time>
      </trkpt>
      <trkpt lat="43.86795" lon="7.25652">
        <ele>1016.433189</ele>
        <time>2011-12-30T11:26:27Z</time>
      </trkpt>
      <trkpt lat="43.86802" lon="7.25662">
        <ele>1017.43322</ele>
        <time>2011-12-30T11:26:33Z</time>
      </trkpt>
      <trkpt lat="43.86809" lon="7.25673">
        <ele>1018.433258</ele>
        <time>2011-12-30T11:26:39Z</time>
      </trkpt>
      <trkpt lat="43.86814" lon="7.25684">
        <ele>1017.433281</ele>
        <time>2011-12-30T11:26:44Z</time>
      </trkpt>
      <trkpt lat="43.86821" lon="7.25695">
        <ele>1017.433315</ele>
        <time>2011-12-30T11:26:50Z</time>
      </trkpt>
      <trkpt lat="43.86828" lon="7.25705">
        <ele>1018.433342</ele>
        <time>2011-12-30T11:26:56Z</time>
      </trkpt>
      <trkpt lat="43.86835" lon="7.25714">
        <ele>1018.433372</ele>
        <time>2011-12-30T11:27:02Z</time>
      </trkpt>
      <trkpt lat="43.86842" lon="7.25723">
        <ele>1019.433403</ele>
        <time>2011-12-30T11:27:07Z</time>
      </trkpt>
      <trkpt lat="43.86849" lon="7.25733">
        <ele>1020.433434</ele>
        <time>2011-12-30T11:27:12Z</time>
      </trkpt>
      <trkpt lat="43.86857" lon="7.25743">
        <ele>1020.433464</ele>
        <time>2011-12-30T11:27:17Z</time>
      </trkpt>
      <trkpt lat="43.86863" lon="7.25753">
        <ele>1021.433487</ele>
        <time>2011-12-30T11:27:21Z</time>
      </trkpt>
      <trkpt lat="43.8687" lon="7.25764">
        <ele>1021.433529</ele>
        <time>2011-12-30T11:27:26Z</time>
      </trkpt>
      <trkpt lat="43.86877" lon="7.25775">
        <ele>1023.433556</ele>
        <time>2011-12-30T11:27:31Z</time>
      </trkpt>
      <trkpt lat="43.86885" lon="7.25785">
        <ele>1024.433586</ele>
        <time>2011-12-30T11:27:36Z</time>
      </trkpt>
      <trkpt lat="43.86892" lon="7.25794">
        <ele>1025.433617</ele>
        <time>2011-12-30T11:27:41Z</time>
      </trkpt>
      <trkpt lat="43.86899" lon="7.25802">
        <ele>1026.43364</ele>
        <time>2011-12-30T11:27:46Z</time>
      </trkpt>
      <trkpt lat="43.86907" lon="7.25811">
        <ele>1027.43367</ele>
        <time>2011-12-30T11:27:52Z</time>
      </trkpt>
      <trkpt lat="43.86914" lon="7.25819">
        <ele>1027.433701</ele>
        <time>2011-12-30T11:27:57Z</time>
      </trkpt>
      <trkpt lat="43.86922" lon="7.25829">
        <ele>1028.433731</ele>
        <time>2011-12-30T11:28:03Z</time>
      </trkpt>
      <trkpt lat="43.86929" lon="7.25837">
        <ele>1030.433754</ele>
        <time>2011-12-30T11:28:09Z</time>
      </trkpt>
      <trkpt lat="43.86936" lon="7.25845">
        <ele>1030.433781</ele>
        <time>2011-12-30T11:28:15Z</time>
      </trkpt>
      <trkpt lat="43.86944" lon="7.25852">
        <ele>1031.433807</ele>
        <time>2011-12-30T11:28:21Z</time>
      </trkpt>
      <trkpt lat="43.8695" lon="7.25862">
        <ele>1032.433834</ele>
        <time>2011-12-30T11:28:27Z</time>
      </trkpt>
      <trkpt lat="43.86957" lon="7.25872">
        <ele>1035.433868</ele>
        <time>2011-12-30T11:28:33Z</time>
      </trkpt>
      <trkpt lat="43.86963" lon="7.25883">
        <ele>1035.433899</ele>
        <time>2011-12-30T11:28:39Z</time>
      </trkpt>
      <trkpt lat="43.8697" lon="7.25893">
        <ele>1036.433929</ele>
        <time>2011-12-30T11:28:45Z</time>
      </trkpt>
      <trkpt lat="43.86978" lon="7.25902">
        <ele>1037.43396</ele>
        <time>2011-12-30T11:28:51Z</time>
      </trkpt>
      <trkpt lat="43.86986" lon="7.2591">
        <ele>1037.433987</ele>
        <time>2011-12-30T11:28:57Z</time>
      </trkpt>
      <trkpt lat="43.86995" lon="7.25916">
        <ele>1041.43401</ele>
        <time>2011-12-30T11:29:04Z</time>
      </trkpt>
      <trkpt lat="43.87003" lon="7.25923">
        <ele>1041.434036</ele>
        <time>2011-12-30T11:29:10Z</time>
      </trkpt>
      <trkpt lat="43.87011" lon="7.25929">
        <ele>1040.434059</ele>
        <time>2011-12-30T11:29:15Z</time>
      </trkpt>
      <trkpt lat="43.87019" lon="7.25935">
        <ele>1040.434082</ele>
        <time>2011-12-30T11:29:27Z</time>
      </trkpt>
      <trkpt lat="43.87028" lon="7.25939">
        <ele>1043.434105</ele>
        <time>2011-12-30T11:29:42Z</time>
      </trkpt>
      <trkpt lat="43.87037" lon="7.25944">
        <ele>1047.434128</ele>
        <time>2011-12-30T11:30:05Z</time>
      </trkpt>
      <trkpt lat="43.87048" lon="7.25942">
        <ele>1051.434132</ele>
        <time>2011-12-30T11:30:27Z</time>
      </trkpt>
      <trkpt lat="43.87056" lon="7.25934">
        <ele>1054.434128</ele>
        <time>2011-12-30T11:30:41Z</time>
      </trkpt>
      <trkpt lat="43.87065" lon="7.25933">
        <ele>1056.434143</ele>
        <time>2011-12-30T11:30:53Z</time>
      </trkpt>
      <trkpt lat="43.87074" lon="7.25936">
        <ele>1061.434158</ele>
        <time>2011-12-30T11:31:18Z</time>
      </trkpt>
      <trkpt lat="43.87092" lon="7.25939">
        <ele>1072.434189</ele>
        <time>2011-12-30T11:31:53Z</time>
      </trkpt>
      <trkpt lat="43.87103" lon="7.25941">
        <ele>1073.434212</ele>
        <time>2011-12-30T11:32:03Z</time>
      </trkpt>
      <trkpt lat="43.87114" lon="7.25943">
        <ele>1076.434227</ele>
        <time>2011-12-30T11:32:14Z</time>
      </trkpt>
      <trkpt lat="43.87118" lon="7.25956">
        <ele>1081.434258</ele>
        <time>2011-12-30T11:32:29Z</time>
      </trkpt>
      <trkpt lat="43.87126" lon="7.25966">
        <ele>1084.434292</ele>
        <time>2011-12-30T11:32:45Z</time>
      </trkpt>
      <trkpt lat="43.87135" lon="7.25978">
        <ele>1092.434334</ele>
        <time>2011-12-30T11:33:03Z</time>
      </trkpt>
      <trkpt lat="43.87141" lon="7.26012">
        <ele>1095.434406</ele>
        <time>2011-12-30T11:33:22Z</time>
      </trkpt>
      <trkpt lat="43.87135" lon="7.26032">
        <ele>1098.434441</ele>
        <time>2011-12-30T11:33:34Z</time>
      </trkpt>
      <trkpt lat="43.87134" lon="7.26034">
        <ele>1098.434448</ele>
        <time>2011-12-30T11:33:35Z</time>
      </trkpt>
      <trkpt lat="43.8713" lon="7.26045">
        <ele>1101.434464</ele>
        <time>2011-12-30T11:33:43Z</time>
      </trkpt>
      <trkpt lat="43.87127" lon="7.26048">
        <ele>1101.434464</ele>
        <time>2011-12-30T11:33:45Z</time>
      </trkpt>
      <trkpt lat="43.8712" lon="7.2606">
        <ele>1104.434479</ele>
        <time>2011-12-30T11:33:53Z</time>
      </trkpt>
      <trkpt lat="43.87101" lon="7.26082">
        <ele>1110.434494</ele>
        <time>2011-12-30T11:34:09Z</time>
      </trkpt>
      <trkpt lat="43.87081" lon="7.26122">
        <ele>1112.434555</ele>
        <time>2011-12-30T11:34:22Z</time>
      </trkpt>
      <trkpt lat="43.87077" lon="7.26157">
        <ele>1114.43462</ele>
        <time>2011-12-30T11:34:29Z</time>
      </trkpt>
      <trkpt lat="43.87075" lon="7.26174">
        <ele>1114.434654</ele>
        <time>2011-12-30T11:34:33Z</time>
      </trkpt>
      <trkpt lat="43.87072" lon="7.26193">
        <ele>1114.434685</ele>
        <time>2011-12-30T11:34:39Z</time>
      </trkpt>
      <trkpt lat="43.87073" lon="7.26206">
        <ele>1116.434715</ele>
        <time>2011-12-30T11:34:46Z</time>
      </trkpt>
      <trkpt lat="43.87076" lon="7.26221">
        <ele>1118.43475</ele>
        <time>2011-12-30T11:34:52Z</time>
      </trkpt>
      <trkpt lat="43.87081" lon="7.26247">
        <ele>1119.434807</ele>
        <time>2011-12-30T11:35:00Z</time>
      </trkpt>
      <trkpt lat="43.87084" lon="7.26265">
        <ele>1120.434853</ele>
        <time>2011-12-30T11:35:04Z</time>
      </trkpt>
      <trkpt lat="43.87088" lon="7.26284">
        <ele>1121.434895</ele>
        <time>2011-12-30T11:35:09Z</time>
      </trkpt>
      <trkpt lat="43.8709" lon="7.26306">
        <ele>1121.434944</ele>
        <time>2011-12-30T11:35:16Z</time>
      </trkpt>
      <trkpt lat="43.8709" lon="7.26319">
        <ele>1122.434971</ele>
        <time>2011-12-30T11:35:20Z</time>
      </trkpt>
      <trkpt lat="43.8709" lon="7.26334">
        <ele>1123.435001</ele>
        <time>2011-12-30T11:35:25Z</time>
      </trkpt>
      <trkpt lat="43.87089" lon="7.26348">
        <ele>1123.435028</ele>
        <time>2011-12-30T11:35:29Z</time>
      </trkpt>
      <trkpt lat="43.87089" lon="7.26363">
        <ele>1124.435062</ele>
        <time>2011-12-30T11:35:33Z</time>
      </trkpt>
      <trkpt lat="43.8709" lon="7.26377">
        <ele>1125.435093</ele>
        <time>2011-12-30T11:35:37Z</time>
      </trkpt>
      <trkpt lat="43.87092" lon="7.2639">
        <ele>1126.435123</ele>
        <time>2011-12-30T11:35:41Z</time>
      </trkpt>
      <trkpt lat="43.87093" lon="7.26394">
        <ele>1126.435135</ele>
        <time>2011-12-30T11:35:44Z</time>
      </trkpt>
      <trkpt lat="43.87096" lon="7.26407">
        <ele>1127.435162</ele>
        <time>2011-12-30T11:35:46Z</time>
      </trkpt>
      <trkpt lat="43.87103" lon="7.26426">
        <ele>1129.435211</ele>
        <time>2011-12-30T11:35:52Z</time>
      </trkpt>
      <trkpt lat="43.87106" lon="7.26438">
        <ele>1129.435242</ele>
        <time>2011-12-30T11:35:56Z</time>
      </trkpt>
      <trkpt lat="43.87109" lon="7.26452">
        <ele>1130.435272</ele>
        <time>2011-12-30T11:36:00Z</time>
      </trkpt>
      <trkpt lat="43.8711" lon="7.26466">
        <ele>1130.435303</ele>
        <time>2011-12-30T11:36:04Z</time>
      </trkpt>
      <trkpt lat="43.8711" lon="7.2647">
        <ele>1131.43531</ele>
        <time>2011-12-30T11:36:05Z</time>
      </trkpt>
      <trkpt lat="43.87106" lon="7.26482">
        <ele>1132.435333</ele>
        <time>2011-12-30T11:36:10Z</time>
      </trkpt>
      <trkpt lat="43.87099" lon="7.26492">
        <ele>1133.435341</ele>
        <time>2011-12-30T11:36:16Z</time>
      </trkpt>
      <trkpt lat="43.87089" lon="7.26498">
        <ele>1133.435341</ele>
        <time>2011-12-30T11:36:20Z</time>
      </trkpt>
      <trkpt lat="43.87087" lon="7.265">
        <ele>1133.435341</ele>
        <time>2011-12-30T11:36:21Z</time>
      </trkpt>
      <trkpt lat="43.87077" lon="7.26506">
        <ele>1134.435337</ele>
        <time>2011-12-30T11:36:25Z</time>
      </trkpt>
      <trkpt lat="43.87068" lon="7.2651">
        <ele>1133.435333</ele>
        <time>2011-12-30T11:36:29Z</time>
      </trkpt>
      <trkpt lat="43.87057" lon="7.26511">
        <ele>1131.435326</ele>
        <time>2011-12-30T11:36:34Z</time>
      </trkpt>
      <trkpt lat="43.87055" lon="7.26511">
        <ele>1130.435318</ele>
        <time>2011-12-30T11:36:35Z</time>
      </trkpt>
      <trkpt lat="43.87058" lon="7.26523">
        <ele>1114.435349</ele>
        <time>2011-12-30T11:36:58Z</time>
      </trkpt>
      <trkpt lat="43.87047" lon="7.26528">
        <ele>1109.435345</ele>
        <time>2011-12-30T11:41:50Z</time>
      </trkpt>
      <trkpt lat="43.87035" lon="7.26529">
        <ele>1110.435326</ele>
        <time>2011-12-30T11:41:53Z</time>
      </trkpt>
      <trkpt lat="43.87022" lon="7.26532">
        <ele>1111.435318</ele>
        <time>2011-12-30T11:41:56Z</time>
      </trkpt>
      <trkpt lat="43.87013" lon="7.26537">
        <ele>1111.435318</ele>
        <time>2011-12-30T11:41:58Z</time>
      </trkpt>
      <trkpt lat="43.87003" lon="7.26542">
        <ele>1111.43531</ele>
        <time>2011-12-30T11:42:00Z</time>
      </trkpt>
      <trkpt lat="43.86993" lon="7.26548">
        <ele>1112.43531</ele>
        <time>2011-12-30T11:42:02Z</time>
      </trkpt>
      <trkpt lat="43.86982" lon="7.26553">
        <ele>1112.435307</ele>
        <time>2011-12-30T11:42:04Z</time>
      </trkpt>
      <trkpt lat="43.86968" lon="7.26554">
        <ele>1112.435287</ele>
        <time>2011-12-30T11:42:06Z</time>
      </trkpt>
      <trkpt lat="43.86953" lon="7.2655">
        <ele>1112.435257</ele>
        <time>2011-12-30T11:42:08Z</time>
      </trkpt>
      <trkpt lat="43.86937" lon="7.26545">
        <ele>1112.435226</ele>
        <time>2011-12-30T11:42:10Z</time>
      </trkpt>
      <trkpt lat="43.86923" lon="7.26544">
        <ele>1113.435211</ele>
        <time>2011-12-30T11:42:12Z</time>
      </trkpt>
      <trkpt lat="43.86913" lon="7.26553">
        <ele>1113.435215</ele>
        <time>2011-12-30T11:42:14Z</time>
      </trkpt>
      <trkpt lat="43.86904" lon="7.26566">
        <ele>1114.435226</ele>
        <time>2011-12-30T11:42:16Z</time>
      </trkpt>
      <trkpt lat="43.86897" lon="7.26582">
        <ele>1114.435249</ele>
        <time>2011-12-30T11:42:18Z</time>
      </trkpt>
      <trkpt lat="43.86889" lon="7.26599">
        <ele>1114.435272</ele>
        <time>2011-12-30T11:42:20Z</time>
      </trkpt>
      <trkpt lat="43.8688" lon="7.26618">
        <ele>1114.435303</ele>
        <time>2011-12-30T11:42:22Z</time>
      </trkpt>
      <trkpt lat="43.86869" lon="7.26635">
        <ele>1114.435326</ele>
        <time>2011-12-30T11:42:24Z</time>
      </trkpt>
      <trkpt lat="43.86856" lon="7.26648">
        <ele>1114.435333</ele>
        <time>2011-12-30T11:42:26Z</time>
      </trkpt>
      <trkpt lat="43.86841" lon="7.2665">
        <ele>1114.435314</ele>
        <time>2011-12-30T11:42:28Z</time>
      </trkpt>
      <trkpt lat="43.86826" lon="7.2665">
        <ele>1114.435295</ele>
        <time>2011-12-30T11:42:30Z</time>
      </trkpt>
      <trkpt lat="43.86811" lon="7.26645">
        <ele>1115.435261</ele>
        <time>2011-12-30T11:42:32Z</time>
      </trkpt>
      <trkpt lat="43.86797" lon="7.26639">
        <ele>1115.435234</ele>
        <time>2011-12-30T11:42:34Z</time>
      </trkpt>
      <trkpt lat="43.86786" lon="7.26633">
        <ele>1114.435204</ele>
        <time>2011-12-30T11:42:36Z</time>
      </trkpt>
      <trkpt lat="43.86778" lon="7.26628">
        <ele>1114.435181</ele>
        <time>2011-12-30T11:42:37Z</time>
      </trkpt>
      <trkpt lat="43.86766" lon="7.26619">
        <ele>1114.43515</ele>
        <time>2011-12-30T11:42:39Z</time>
      </trkpt>
      <trkpt lat="43.86752" lon="7.26613">
        <ele>1114.43512</ele>
        <time>2011-12-30T11:42:41Z</time>
      </trkpt>
      <trkpt lat="43.8674" lon="7.26609">
        <ele>1115.435089</ele>
        <time>2011-12-30T11:42:43Z</time>
      </trkpt>
      <trkpt lat="43.86727" lon="7.26605">
        <ele>1114.435066</ele>
        <time>2011-12-30T11:42:45Z</time>
      </trkpt>
      <trkpt lat="43.86714" lon="7.26602">
        <ele>1115.435043</ele>
        <time>2011-12-30T11:42:47Z</time>
      </trkpt>
      <trkpt lat="43.86701" lon="7.26601">
        <ele>1115.43502</ele>
        <time>2011-12-30T11:42:49Z</time>
      </trkpt>
      <trkpt lat="43.86688" lon="7.26601">
        <ele>1115.435005</ele>
        <time>2011-12-30T11:42:51Z</time>
      </trkpt>
      <trkpt lat="43.86676" lon="7.26602">
        <ele>1114.43499</ele>
        <time>2011-12-30T11:42:53Z</time>
      </trkpt>
      <trkpt lat="43.86662" lon="7.26604">
        <ele>1114.434975</ele>
        <time>2011-12-30T11:42:55Z</time>
      </trkpt>
      <trkpt lat="43.86649" lon="7.26607">
        <ele>1114.434959</ele>
        <time>2011-12-30T11:42:57Z</time>
      </trkpt>
      <trkpt lat="43.86635" lon="7.26609">
        <ele>1113.434948</ele>
        <time>2011-12-30T11:42:59Z</time>
      </trkpt>
      <trkpt lat="43.86621" lon="7.2661">
        <ele>1113.434929</ele>
        <time>2011-12-30T11:43:01Z</time>
      </trkpt>
      <trkpt lat="43.86607" lon="7.26611">
        <ele>1113.434917</ele>
        <time>2011-12-30T11:43:03Z</time>
      </trkpt>
      <trkpt lat="43.86593" lon="7.26612">
        <ele>1112.434898</ele>
        <time>2011-12-30T11:43:05Z</time>
      </trkpt>
      <trkpt lat="43.8658" lon="7.26612">
        <ele>1113.434883</ele>
        <time>2011-12-30T11:43:07Z</time>
      </trkpt>
      <trkpt lat="43.86565" lon="7.26614">
        <ele>1113.434864</ele>
        <time>2011-12-30T11:43:09Z</time>
      </trkpt>
      <trkpt lat="43.86552" lon="7.26614">
        <ele>1114.434845</ele>
        <time>2011-12-30T11:43:11Z</time>
      </trkpt>
      <trkpt lat="43.86537" lon="7.26614">
        <ele>1115.434822</ele>
        <time>2011-12-30T11:43:13Z</time>
      </trkpt>
      <trkpt lat="43.86522" lon="7.26613">
        <ele>1115.434803</ele>
        <time>2011-12-30T11:43:15Z</time>
      </trkpt>
      <trkpt lat="43.86505" lon="7.2661">
        <ele>1116.434776</ele>
        <time>2011-12-30T11:43:17Z</time>
      </trkpt>
      <trkpt lat="43.86488" lon="7.26605">
        <ele>1116.434738</ele>
        <time>2011-12-30T11:43:19Z</time>
      </trkpt>
      <trkpt lat="43.86473" lon="7.26602">
        <ele>1116.434715</ele>
        <time>2011-12-30T11:43:21Z</time>
      </trkpt>
      <trkpt lat="43.86464" lon="7.26597">
        <ele>1116.434685</ele>
        <time>2011-12-30T11:43:22Z</time>
      </trkpt>
      <trkpt lat="43.86455" lon="7.26593">
        <ele>1117.434669</ele>
        <time>2011-12-30T11:43:23Z</time>
      </trkpt>
      <trkpt lat="43.86446" lon="7.26589">
        <ele>1117.434647</ele>
        <time>2011-12-30T11:43:24Z</time>
      </trkpt>
      <trkpt lat="43.86438" lon="7.26586">
        <ele>1117.434631</ele>
        <time>2011-12-30T11:43:25Z</time>
      </trkpt>
      <trkpt lat="43.86421" lon="7.2658">
        <ele>1117.434593</ele>
        <time>2011-12-30T11:43:27Z</time>
      </trkpt>
      <trkpt lat="43.86405" lon="7.26575">
        <ele>1117.434563</ele>
        <time>2011-12-30T11:43:29Z</time>
      </trkpt>
      <trkpt lat="43.86388" lon="7.26572">
        <ele>1117.434536</ele>
        <time>2011-12-30T11:43:31Z</time>
      </trkpt>
      <trkpt lat="43.86371" lon="7.26571">
        <ele>1117.434509</ele>
        <time>2011-12-30T11:43:33Z</time>
      </trkpt>
      <trkpt lat="43.86354" lon="7.26571">
        <ele>1117.434483</ele>
        <time>2011-12-30T11:43:35Z</time>
      </trkpt>
      <trkpt lat="43.86337" lon="7.26572">
        <ele>1118.434464</ele>
        <time>2011-12-30T11:43:37Z</time>
      </trkpt>
      <trkpt lat="43.8632" lon="7.26574">
        <ele>1117.434448</ele>
        <time>2011-12-30T11:43:39Z</time>
      </trkpt>
      <trkpt lat="43.86302" lon="7.26578">
        <ele>1117.434429</ele>
        <time>2011-12-30T11:43:41Z</time>
      </trkpt>
      <trkpt lat="43.86293" lon="7.2658">
        <ele>1117.434422</ele>
        <time>2011-12-30T11:43:42Z</time>
      </trkpt>
      <trkpt lat="43.86284" lon="7.26582">
        <ele>1117.434414</ele>
        <time>2011-12-30T11:43:43Z</time>
      </trkpt>
      <trkpt lat="43.86274" lon="7.26584">
        <ele>1116.434402</ele>
        <time>2011-12-30T11:43:44Z</time>
      </trkpt>
      <trkpt lat="43.86264" lon="7.26586">
        <ele>1116.434395</ele>
        <time>2011-12-30T11:43:45Z</time>
      </trkpt>
      <trkpt lat="43.86253" lon="7.26588">
        <ele>1116.43438</ele>
        <time>2011-12-30T11:43:46Z</time>
      </trkpt>
      <trkpt lat="43.86241" lon="7.2659">
        <ele>1115.434368</ele>
        <time>2011-12-30T11:43:47Z</time>
      </trkpt>
      <trkpt lat="43.86229" lon="7.26592">
        <ele>1115.434364</ele>
        <time>2011-12-30T11:43:48Z</time>
      </trkpt>
      <trkpt lat="43.86217" lon="7.26596">
        <ele>1114.434349</ele>
        <time>2011-12-30T11:43:49Z</time>
      </trkpt>
      <trkpt lat="43.86205" lon="7.26599">
        <ele>1114.434341</ele>
        <time>2011-12-30T11:43:50Z</time>
      </trkpt>
      <trkpt lat="43.86194" lon="7.26603">
        <ele>1113.43433</ele>
        <time>2011-12-30T11:43:51Z</time>
      </trkpt>
      <trkpt lat="43.86182" lon="7.26607">
        <ele>1113.434326</ele>
        <time>2011-12-30T11:43:52Z</time>
      </trkpt>
      <trkpt lat="43.86172" lon="7.26612">
        <ele>1113.434322</ele>
        <time>2011-12-30T11:43:53Z</time>
      </trkpt>
      <trkpt lat="43.86161" lon="7.26617">
        <ele>1112.434319</ele>
        <time>2011-12-30T11:43:54Z</time>
      </trkpt>
      <trkpt lat="43.86152" lon="7.26622">
        <ele>1112.434311</ele>
        <time>2011-12-30T11:43:55Z</time>
      </trkpt>
      <trkpt lat="43.86142" lon="7.26628">
        <ele>1112.434311</ele>
        <time>2011-12-30T11:43:56Z</time>
      </trkpt>
      <trkpt lat="43.86134" lon="7.26633">
        <ele>1112.434315</ele>
        <time>2011-12-30T11:43:57Z</time>
      </trkpt>
      <trkpt lat="43.86119" lon="7.26645">
        <ele>1112.434319</ele>
        <time>2011-12-30T11:43:59Z</time>
      </trkpt>
      <trkpt lat="43.8611" lon="7.26656">
        <ele>1111.434326</ele>
        <time>2011-12-30T11:44:01Z</time>
      </trkpt>
      <trkpt lat="43.86104" lon="7.26668">
        <ele>1110.434341</ele>
        <time>2011-12-30T11:44:03Z</time>
      </trkpt>
      <trkpt lat="43.861" lon="7.26681">
        <ele>1108.434364</ele>
        <time>2011-12-30T11:44:06Z</time>
      </trkpt>
      <trkpt lat="43.86092" lon="7.26697">
        <ele>1104.434387</ele>
        <time>2011-12-30T11:44:14Z</time>
      </trkpt>
      <trkpt lat="43.86064" lon="7.2671">
        <ele>1102.434376</ele>
        <time>2011-12-30T11:44:37Z</time>
      </trkpt>
      <trkpt lat="43.86037" lon="7.2672">
        <ele>1103.434361</ele>
        <time>2011-12-30T11:44:58Z</time>
      </trkpt>
      <trkpt lat="43.8602" lon="7.26722">
        <ele>1101.434341</ele>
        <time>2011-12-30T11:45:12Z</time>
      </trkpt>
      <trkpt lat="43.86006" lon="7.26724">
        <ele>1103.434322</ele>
        <time>2011-12-30T11:45:23Z</time>
      </trkpt>
      <trkpt lat="43.85978" lon="7.26736">
        <ele>1101.434311</ele>
        <time>2011-12-30T11:45:46Z</time>
      </trkpt>
      <trkpt lat="43.85955" lon="7.26757">
        <ele>1099.434326</ele>
        <time>2011-12-30T11:46:07Z</time>
      </trkpt>
      <trkpt lat="43.85955" lon="7.26757">
        <ele>1099.434326</ele>
        <time>2011-12-30T11:46:09Z</time>
      </trkpt>
      <trkpt lat="43.85946" lon="7.26762">
        <ele>1101.434326</ele>
        <time>2011-12-30T11:46:15Z</time>
      </trkpt>
      <trkpt lat="43.85929" lon="7.26766">
        <ele>1099.434311</ele>
        <time>2011-12-30T11:46:29Z</time>
      </trkpt>
      <trkpt lat="43.85921" lon="7.2676">
        <ele>1101.434288</ele>
        <time>2011-12-30T11:46:37Z</time>
      </trkpt>
      <trkpt lat="43.85905" lon="7.26737">
        <ele>1106.434212</ele>
        <time>2011-12-30T11:46:55Z</time>
      </trkpt>
      <trkpt lat="43.85893" lon="7.26732">
        <ele>1107.434189</ele>
        <time>2011-12-30T11:47:02Z</time>
      </trkpt>
      <trkpt lat="43.85883" lon="7.26729">
        <ele>1109.434166</ele>
        <time>2011-12-30T11:47:07Z</time>
      </trkpt>
      <trkpt lat="43.85872" lon="7.26729">
        <ele>1109.434155</ele>
        <time>2011-12-30T11:47:13Z</time>
      </trkpt>
      <trkpt lat="43.85865" lon="7.26733">
        <ele>1109.434151</ele>
        <time>2011-12-30T11:47:18Z</time>
      </trkpt>
      <trkpt lat="43.85857" lon="7.26742">
        <ele>1107.434158</ele>
        <time>2011-12-30T11:47:23Z</time>
      </trkpt>
      <trkpt lat="43.85849" lon="7.26753">
        <ele>1106.43417</ele>
        <time>2011-12-30T11:47:29Z</time>
      </trkpt>
      <trkpt lat="43.8584" lon="7.26759">
        <ele>1107.434174</ele>
        <time>2011-12-30T11:47:35Z</time>
      </trkpt>
      <trkpt lat="43.85831" lon="7.26766">
        <ele>1109.434177</ele>
        <time>2011-12-30T11:47:42Z</time>
      </trkpt>
      <trkpt lat="43.85822" lon="7.26772">
        <ele>1111.434174</ele>
        <time>2011-12-30T11:47:49Z</time>
      </trkpt>
      <trkpt lat="43.85813" lon="7.26777">
        <ele>1112.434174</ele>
        <time>2011-12-30T11:47:56Z</time>
      </trkpt>
      <trkpt lat="43.85804" lon="7.26782">
        <ele>1112.43417</ele>
        <time>2011-12-30T11:48:06Z</time>
      </trkpt>
      <trkpt lat="43.85794" lon="7.26782">
        <ele>1113.434158</ele>
        <time>2011-12-30T11:48:14Z</time>
      </trkpt>
      <trkpt lat="43.85785" lon="7.26783">
        <ele>1114.434151</ele>
        <time>2011-12-30T11:48:20Z</time>
      </trkpt>
      <trkpt lat="43.85771" lon="7.26788">
        <ele>1115.434135</ele>
        <time>2011-12-30T11:48:30Z</time>
      </trkpt>
      <trkpt lat="43.85761" lon="7.26793">
        <ele>1116.434135</ele>
        <time>2011-12-30T11:48:36Z</time>
      </trkpt>
      <trkpt lat="43.85751" lon="7.26799">
        <ele>1117.434135</ele>
        <time>2011-12-30T11:48:42Z</time>
      </trkpt>
      <trkpt lat="43.85742" lon="7.26804">
        <ele>1115.434135</ele>
        <time>2011-12-30T11:48:47Z</time>
      </trkpt>
      <trkpt lat="43.85734" lon="7.26808">
        <ele>1116.434132</ele>
        <time>2011-12-30T11:48:52Z</time>
      </trkpt>
      <trkpt lat="43.85722" lon="7.26813">
        <ele>1116.43412</ele>
        <time>2011-12-30T11:49:00Z</time>
      </trkpt>
      <trkpt lat="43.85713" lon="7.26818">
        <ele>1119.43412</ele>
        <time>2011-12-30T11:49:09Z</time>
      </trkpt>
      <trkpt lat="43.857" lon="7.26823">
        <ele>1121.434113</ele>
        <time>2011-12-30T11:49:22Z</time>
      </trkpt>
      <trkpt lat="43.85684" lon="7.26824">
        <ele>1123.434097</ele>
        <time>2011-12-30T11:49:33Z</time>
      </trkpt>
      <trkpt lat="43.85674" lon="7.26824">
        <ele>1124.434078</ele>
        <time>2011-12-30T11:49:39Z</time>
      </trkpt>
      <trkpt lat="43.85663" lon="7.26826">
        <ele>1124.434071</ele>
        <time>2011-12-30T11:49:46Z</time>
      </trkpt>
      <trkpt lat="43.85663" lon="7.26826">
        <ele>1124.434071</ele>
        <time>2011-12-30T11:49:47Z</time>
      </trkpt>
      <trkpt lat="43.85653" lon="7.26827">
        <ele>1124.434059</ele>
        <time>2011-12-30T11:49:51Z</time>
      </trkpt>
      <trkpt lat="43.8564" lon="7.26829">
        <ele>1126.434044</ele>
        <time>2011-12-30T11:49:59Z</time>
      </trkpt>
      <trkpt lat="43.85608" lon="7.26828">
        <ele>1129.433998</ele>
        <time>2011-12-30T11:50:16Z</time>
      </trkpt>
      <trkpt lat="43.85591" lon="7.26829">
        <ele>1128.433979</ele>
        <time>2011-12-30T11:50:25Z</time>
      </trkpt>
      <trkpt lat="43.8558" lon="7.26831">
        <ele>1129.433968</ele>
        <time>2011-12-30T11:50:32Z</time>
      </trkpt>
      <trkpt lat="43.85571" lon="7.26834">
        <ele>1129.43396</ele>
        <time>2011-12-30T11:50:38Z</time>
      </trkpt>
      <trkpt lat="43.85561" lon="7.26837">
        <ele>1129.433952</ele>
        <time>2011-12-30T11:50:44Z</time>
      </trkpt>
      <trkpt lat="43.85552" lon="7.26845">
        <ele>1129.433956</ele>
        <time>2011-12-30T11:50:54Z</time>
      </trkpt>
      <trkpt lat="43.85537" lon="7.26846">
        <ele>1132.433941</ele>
        <time>2011-12-30T11:51:06Z</time>
      </trkpt>
      <trkpt lat="43.85535" lon="7.26846">
        <ele>1132.433937</ele>
        <time>2011-12-30T11:51:07Z</time>
      </trkpt>
      <trkpt lat="43.85526" lon="7.26845">
        <ele>1137.433922</ele>
        <time>2011-12-30T11:51:13Z</time>
      </trkpt>
      <trkpt lat="43.85516" lon="7.26846">
        <ele>1138.433914</ele>
        <time>2011-12-30T11:51:19Z</time>
      </trkpt>
      <trkpt lat="43.85506" lon="7.2685">
        <ele>1140.433907</ele>
        <time>2011-12-30T11:51:28Z</time>
      </trkpt>
      <trkpt lat="43.85497" lon="7.26854">
        <ele>1141.433899</ele>
        <time>2011-12-30T11:51:36Z</time>
      </trkpt>
      <trkpt lat="43.85488" lon="7.26859">
        <ele>1142.433899</ele>
        <time>2011-12-30T11:51:43Z</time>
      </trkpt>
      <trkpt lat="43.85479" lon="7.26867">
        <ele>1143.433907</ele>
        <time>2011-12-30T11:51:49Z</time>
      </trkpt>
      <trkpt lat="43.85465" lon="7.26877">
        <ele>1144.433907</ele>
        <time>2011-12-30T11:51:58Z</time>
      </trkpt>
      <trkpt lat="43.85457" lon="7.26883">
        <ele>1145.433907</ele>
        <time>2011-12-30T11:52:05Z</time>
      </trkpt>
      <trkpt lat="43.85447" lon="7.26887">
        <ele>1149.433899</ele>
        <time>2011-12-30T11:52:14Z</time>
      </trkpt>
      <trkpt lat="43.85438" lon="7.2689">
        <ele>1150.433899</ele>
        <time>2011-12-30T11:52:21Z</time>
      </trkpt>
      <trkpt lat="43.85423" lon="7.26897">
        <ele>1151.433887</ele>
        <time>2011-12-30T11:52:33Z</time>
      </trkpt>
      <trkpt lat="43.85421" lon="7.26898">
        <ele>1151.433891</ele>
        <time>2011-12-30T11:52:36Z</time>
      </trkpt>
      <trkpt lat="43.85411" lon="7.26901">
        <ele>1153.433876</ele>
        <time>2011-12-30T11:52:39Z</time>
      </trkpt>
      <trkpt lat="43.85401" lon="7.26903">
        <ele>1154.433868</ele>
        <time>2011-12-30T11:52:44Z</time>
      </trkpt>
      <trkpt lat="43.85398" lon="7.26903">
        <ele>1154.433868</ele>
        <time>2011-12-30T11:52:45Z</time>
      </trkpt>
      <trkpt lat="43.85388" lon="7.26905">
        <ele>1154.433861</ele>
        <time>2011-12-30T11:52:50Z</time>
      </trkpt>
      <trkpt lat="43.85377" lon="7.26908">
        <ele>1154.433849</ele>
        <time>2011-12-30T11:52:55Z</time>
      </trkpt>
      <trkpt lat="43.85368" lon="7.26913">
        <ele>1154.433846</ele>
        <time>2011-12-30T11:53:00Z</time>
      </trkpt>
      <trkpt lat="43.85359" lon="7.2692">
        <ele>1154.433849</ele>
        <time>2011-12-30T11:53:05Z</time>
      </trkpt>
      <trkpt lat="43.85352" lon="7.26928">
        <ele>1155.433853</ele>
        <time>2011-12-30T11:53:10Z</time>
      </trkpt>
      <trkpt lat="43.8534" lon="7.26934">
        <ele>1157.433853</ele>
        <time>2011-12-30T11:53:17Z</time>
      </trkpt>
      <trkpt lat="43.85331" lon="7.26936">
        <ele>1157.433846</ele>
        <time>2011-12-30T11:53:23Z</time>
      </trkpt>
      <trkpt lat="43.85319" lon="7.26938">
        <ele>1157.433834</ele>
        <time>2011-12-30T11:53:30Z</time>
      </trkpt>
      <trkpt lat="43.8531" lon="7.26945">
        <ele>1159.43383</ele>
        <time>2011-12-30T11:53:37Z</time>
      </trkpt>
      <trkpt lat="43.85303" lon="7.26953">
        <ele>1160.433842</ele>
        <time>2011-12-30T11:53:43Z</time>
      </trkpt>
      <trkpt lat="43.85296" lon="7.26962">
        <ele>1161.433853</ele>
        <time>2011-12-30T11:53:49Z</time>
      </trkpt>
      <trkpt lat="43.85288" lon="7.26972">
        <ele>1161.433861</ele>
        <time>2011-12-30T11:53:56Z</time>
      </trkpt>
      <trkpt lat="43.85278" lon="7.26978">
        <ele>1164.433861</ele>
        <time>2011-12-30T11:54:05Z</time>
      </trkpt>
      <trkpt lat="43.85269" lon="7.2699">
        <ele>1165.433868</ele>
        <time>2011-12-30T11:54:12Z</time>
      </trkpt>
      <trkpt lat="43.85264" lon="7.27012">
        <ele>1168.43391</ele>
        <time>2011-12-30T11:54:24Z</time>
      </trkpt>
      <trkpt lat="43.8526" lon="7.27037">
        <ele>1169.43396</ele>
        <time>2011-12-30T11:54:34Z</time>
      </trkpt>
      <trkpt lat="43.85258" lon="7.27063">
        <ele>1169.434006</ele>
        <time>2011-12-30T11:54:44Z</time>
      </trkpt>
      <trkpt lat="43.85257" lon="7.27076">
        <ele>1170.434032</ele>
        <time>2011-12-30T11:54:49Z</time>
      </trkpt>
      <trkpt lat="43.85258" lon="7.27089">
        <ele>1171.434059</ele>
        <time>2011-12-30T11:54:54Z</time>
      </trkpt>
      <trkpt lat="43.85259" lon="7.27102">
        <ele>1171.43409</ele>
        <time>2011-12-30T11:54:59Z</time>
      </trkpt>
      <trkpt lat="43.85259" lon="7.27113">
        <ele>1172.434116</ele>
        <time>2011-12-30T11:55:05Z</time>
      </trkpt>
      <trkpt lat="43.85258" lon="7.27127">
        <ele>1175.434143</ele>
        <time>2011-12-30T11:55:09Z</time>
      </trkpt>
      <trkpt lat="43.85256" lon="7.27145">
        <ele>1176.434174</ele>
        <time>2011-12-30T11:55:16Z</time>
      </trkpt>
      <trkpt lat="43.85254" lon="7.27157">
        <ele>1176.434196</ele>
        <time>2011-12-30T11:55:21Z</time>
      </trkpt>
      <trkpt lat="43.8525" lon="7.27171">
        <ele>1176.434219</ele>
        <time>2011-12-30T11:55:28Z</time>
      </trkpt>
      <trkpt lat="43.85245" lon="7.27183">
        <ele>1178.434238</ele>
        <time>2011-12-30T11:55:34Z</time>
      </trkpt>
      <trkpt lat="43.85241" lon="7.27195">
        <ele>1180.434258</ele>
        <time>2011-12-30T11:55:41Z</time>
      </trkpt>
      <trkpt lat="43.85239" lon="7.27199">
        <ele>1181.434265</ele>
        <time>2011-12-30T11:55:43Z</time>
      </trkpt>
      <trkpt lat="43.85229" lon="7.27222">
        <ele>1183.434299</ele>
        <time>2011-12-30T11:55:54Z</time>
      </trkpt>
      <trkpt lat="43.85223" lon="7.27234">
        <ele>1184.434315</ele>
        <time>2011-12-30T11:56:00Z</time>
      </trkpt>
      <trkpt lat="43.85217" lon="7.27245">
        <ele>1184.43433</ele>
        <time>2011-12-30T11:56:06Z</time>
      </trkpt>
      <trkpt lat="43.85209" lon="7.27252">
        <ele>1184.434334</ele>
        <time>2011-12-30T11:56:10Z</time>
      </trkpt>
      <trkpt lat="43.85198" lon="7.27263">
        <ele>1185.434341</ele>
        <time>2011-12-30T11:56:19Z</time>
      </trkpt>
      <trkpt lat="43.85189" lon="7.27273">
        <ele>1186.434345</ele>
        <time>2011-12-30T11:56:26Z</time>
      </trkpt>
      <trkpt lat="43.85184" lon="7.27284">
        <ele>1188.434364</ele>
        <time>2011-12-30T11:56:31Z</time>
      </trkpt>
      <trkpt lat="43.85205" lon="7.27291">
        <ele>1191.43441</ele>
        <time>2011-12-30T11:57:00Z</time>
      </trkpt>
      <trkpt lat="43.85228" lon="7.27278">
        <ele>1191.43441</ele>
        <time>2011-12-30T11:57:09Z</time>
      </trkpt>
      <trkpt lat="43.85233" lon="7.27275">
        <ele>1191.434414</ele>
        <time>2011-12-30T11:57:11Z</time>
      </trkpt>
      <trkpt lat="43.85241" lon="7.27271">
        <ele>1191.434414</ele>
        <time>2011-12-30T11:57:15Z</time>
      </trkpt>
      <trkpt lat="43.85266" lon="7.27253">
        <ele>1192.43441</ele>
        <time>2011-12-30T11:57:39Z</time>
      </trkpt>
      <trkpt lat="43.85287" lon="7.27228">
        <ele>1192.434387</ele>
        <time>2011-12-30T11:57:56Z</time>
      </trkpt>
      <trkpt lat="43.8531" lon="7.27206">
        <ele>1194.434376</ele>
        <time>2011-12-30T11:58:20Z</time>
      </trkpt>
      <trkpt lat="43.85333" lon="7.27184">
        <ele>1194.434364</ele>
        <time>2011-12-30T11:58:34Z</time>
      </trkpt>
      <trkpt lat="43.85345" lon="7.27174">
        <ele>1194.434357</ele>
        <time>2011-12-30T11:58:37Z</time>
      </trkpt>
      <trkpt lat="43.85353" lon="7.27166">
        <ele>1194.434349</ele>
        <time>2011-12-30T11:58:40Z</time>
      </trkpt>
      <trkpt lat="43.85378" lon="7.27143">
        <ele>1195.434341</ele>
        <time>2011-12-30T11:58:53Z</time>
      </trkpt>
      <trkpt lat="43.85408" lon="7.27135">
        <ele>1198.434361</ele>
        <time>2011-12-30T11:59:14Z</time>
      </trkpt>
      <trkpt lat="43.85418" lon="7.27129">
        <ele>1198.434364</ele>
        <time>2011-12-30T11:59:16Z</time>
      </trkpt>
      <trkpt lat="43.85429" lon="7.27122">
        <ele>1199.434368</ele>
        <time>2011-12-30T11:59:19Z</time>
      </trkpt>
      <trkpt lat="43.85439" lon="7.27115">
        <ele>1199.434364</ele>
        <time>2011-12-30T11:59:22Z</time>
      </trkpt>
      <trkpt lat="43.8545" lon="7.27108">
        <ele>1201.434364</ele>
        <time>2011-12-30T11:59:25Z</time>
      </trkpt>
      <trkpt lat="43.85459" lon="7.27104">
        <ele>1204.434368</ele>
        <time>2011-12-30T11:59:32Z</time>
      </trkpt>
      <trkpt lat="43.85469" lon="7.2711">
        <ele>1205.434391</ele>
        <time>2011-12-30T11:59:44Z</time>
      </trkpt>
      <trkpt lat="43.85497" lon="7.27115">
        <ele>1207.434441</ele>
        <time>2011-12-30T12:00:09Z</time>
      </trkpt>
      <trkpt lat="43.85525" lon="7.27118">
        <ele>1209.434486</ele>
        <time>2011-12-30T12:00:28Z</time>
      </trkpt>
      <trkpt lat="43.85553" lon="7.27118">
        <ele>1211.434521</ele>
        <time>2011-12-30T12:00:50Z</time>
      </trkpt>
      <trkpt lat="43.85582" lon="7.27117">
        <ele>1214.434563</ele>
        <time>2011-12-30T12:01:08Z</time>
      </trkpt>
      <trkpt lat="43.85611" lon="7.2712">
        <ele>1215.434608</ele>
        <time>2011-12-30T12:01:20Z</time>
      </trkpt>
      <trkpt lat="43.8564" lon="7.27122">
        <ele>1217.43465</ele>
        <time>2011-12-30T12:01:35Z</time>
      </trkpt>
      <trkpt lat="43.85668" lon="7.2712">
        <ele>1220.434685</ele>
        <time>2011-12-30T12:01:53Z</time>
      </trkpt>
      <trkpt lat="43.85696" lon="7.27122">
        <ele>1222.434723</ele>
        <time>2011-12-30T12:02:09Z</time>
      </trkpt>
      <trkpt lat="43.8572" lon="7.27121">
        <ele>1225.434761</ele>
        <time>2011-12-30T12:02:20Z</time>
      </trkpt>
      <trkpt lat="43.8573" lon="7.27119">
        <ele>1225.434769</ele>
        <time>2011-12-30T12:02:24Z</time>
      </trkpt>
      <trkpt lat="43.85754" lon="7.27115">
        <ele>1228.434795</ele>
        <time>2011-12-30T12:02:31Z</time>
      </trkpt>
      <trkpt lat="43.85764" lon="7.27113">
        <ele>1229.434807</ele>
        <time>2011-12-30T12:02:35Z</time>
      </trkpt>
      <trkpt lat="43.85776" lon="7.27111">
        <ele>1230.434814</ele>
        <time>2011-12-30T12:02:40Z</time>
      </trkpt>
      <trkpt lat="43.85785" lon="7.27111">
        <ele>1230.434822</ele>
        <time>2011-12-30T12:02:45Z</time>
      </trkpt>
      <trkpt lat="43.85797" lon="7.2711">
        <ele>1232.434837</ele>
        <time>2011-12-30T12:02:53Z</time>
      </trkpt>
      <trkpt lat="43.85808" lon="7.2711">
        <ele>1233.434853</ele>
        <time>2011-12-30T12:02:58Z</time>
      </trkpt>
      <trkpt lat="43.8582" lon="7.27111">
        <ele>1235.434875</ele>
        <time>2011-12-30T12:03:03Z</time>
      </trkpt>
      <trkpt lat="43.85831" lon="7.27113">
        <ele>1236.434891</ele>
        <time>2011-12-30T12:03:08Z</time>
      </trkpt>
      <trkpt lat="43.85847" lon="7.27115">
        <ele>1236.434914</ele>
        <time>2011-12-30T12:03:15Z</time>
      </trkpt>
      <trkpt lat="43.85856" lon="7.27118">
        <ele>1238.434937</ele>
        <time>2011-12-30T12:03:20Z</time>
      </trkpt>
      <trkpt lat="43.85881" lon="7.27135">
        <ele>1240.435005</ele>
        <time>2011-12-30T12:04:01Z</time>
      </trkpt>
      <trkpt lat="43.85907" lon="7.27151">
        <ele>1241.435074</ele>
        <time>2011-12-30T12:04:22Z</time>
      </trkpt>
      <trkpt lat="43.85922" lon="7.27158">
        <ele>1244.435112</ele>
        <time>2011-12-30T12:04:29Z</time>
      </trkpt>
      <trkpt lat="43.85931" lon="7.27163">
        <ele>1244.435135</ele>
        <time>2011-12-30T12:04:35Z</time>
      </trkpt>
      <trkpt lat="43.85952" lon="7.27187">
        <ele>1248.435215</ele>
        <time>2011-12-30T12:04:59Z</time>
      </trkpt>
      <trkpt lat="43.85953" lon="7.27226">
        <ele>1250.435295</ele>
        <time>2011-12-30T12:05:20Z</time>
      </trkpt>
      <trkpt lat="43.85968" lon="7.27258">
        <ele>1252.435383</ele>
        <time>2011-12-30T12:05:37Z</time>
      </trkpt>
      <trkpt lat="43.8597" lon="7.27272">
        <ele>1255.43541</ele>
        <time>2011-12-30T12:05:48Z</time>
      </trkpt>
      <trkpt lat="43.85968" lon="7.27276">
        <ele>1255.435417</ele>
        <time>2011-12-30T12:05:50Z</time>
      </trkpt>
      <trkpt lat="43.85967" lon="7.27277">
        <ele>1255.435425</ele>
        <time>2011-12-30T12:05:51Z</time>
      </trkpt>
      <trkpt lat="43.85966" lon="7.2728">
        <ele>1256.435425</ele>
        <time>2011-12-30T12:05:52Z</time>
      </trkpt>
      <trkpt lat="43.85965" lon="7.27282">
        <ele>1256.435425</ele>
        <time>2011-12-30T12:05:53Z</time>
      </trkpt>
      <trkpt lat="43.85961" lon="7.27301">
        <ele>1260.435459</ele>
        <time>2011-12-30T12:05:58Z</time>
      </trkpt>
      <trkpt lat="43.85963" lon="7.27314">
        <ele>1263.43549</ele>
        <time>2011-12-30T12:06:02Z</time>
      </trkpt>
      <trkpt lat="43.85963" lon="7.27314">
        <ele>1263.43549</ele>
        <time>2011-12-30T12:06:04Z</time>
      </trkpt>
      <trkpt lat="43.8599" lon="7.27318">
        <ele>1266.435535</ele>
        <time>2011-12-30T12:06:27Z</time>
      </trkpt>
      <trkpt lat="43.86021" lon="7.27298">
        <ele>1268.435539</ele>
        <time>2011-12-30T12:06:44Z</time>
      </trkpt>
      <trkpt lat="43.8605" lon="7.27286">
        <ele>1270.435547</ele>
        <time>2011-12-30T12:07:05Z</time>
      </trkpt>
      <trkpt lat="43.8607" lon="7.27253">
        <ele>1272.435509</ele>
        <time>2011-12-30T12:07:32Z</time>
      </trkpt>
      <trkpt lat="43.8607" lon="7.27239">
        <ele>1273.435482</ele>
        <time>2011-12-30T12:07:37Z</time>
      </trkpt>
      <trkpt lat="43.86077" lon="7.27207">
        <ele>1284.435425</ele>
        <time>2011-12-30T12:08:13Z</time>
      </trkpt>
      <trkpt lat="43.86094" lon="7.27197">
        <ele>1285.435429</ele>
        <time>2011-12-30T12:08:22Z</time>
      </trkpt>
      <trkpt lat="43.86101" lon="7.27195">
        <ele>1285.435432</ele>
        <time>2011-12-30T12:08:24Z</time>
      </trkpt>
      <trkpt lat="43.86111" lon="7.27189">
        <ele>1286.435432</ele>
        <time>2011-12-30T12:08:28Z</time>
      </trkpt>
      <trkpt lat="43.86124" lon="7.27183">
        <ele>1287.435436</ele>
        <time>2011-12-30T12:08:35Z</time>
      </trkpt>
      <trkpt lat="43.86128" lon="7.27182">
        <ele>1288.43544</ele>
        <time>2011-12-30T12:08:37Z</time>
      </trkpt>
      <trkpt lat="43.86144" lon="7.27178">
        <ele>1294.435455</ele>
        <time>2011-12-30T12:08:59Z</time>
      </trkpt>
      <trkpt lat="43.8617" lon="7.2717">
        <ele>1299.435478</ele>
        <time>2011-12-30T12:09:32Z</time>
      </trkpt>
      <trkpt lat="43.86197" lon="7.27163">
        <ele>1301.435493</ele>
        <time>2011-12-30T12:09:51Z</time>
      </trkpt>
      <trkpt lat="43.86214" lon="7.27156">
        <ele>1302.435505</ele>
        <time>2011-12-30T12:10:00Z</time>
      </trkpt>
      <trkpt lat="43.86224" lon="7.27152">
        <ele>1303.435509</ele>
        <time>2011-12-30T12:10:05Z</time>
      </trkpt>
      <trkpt lat="43.86237" lon="7.27145">
        <ele>1304.435513</ele>
        <time>2011-12-30T12:10:13Z</time>
      </trkpt>
      <trkpt lat="43.86272" lon="7.27134">
        <ele>1308.435539</ele>
        <time>2011-12-30T12:10:51Z</time>
      </trkpt>
      <trkpt lat="43.86299" lon="7.27132">
        <ele>1309.435574</ele>
        <time>2011-12-30T12:11:13Z</time>
      </trkpt>
      <trkpt lat="43.86327" lon="7.27134">
        <ele>1310.435612</ele>
        <time>2011-12-30T12:11:37Z</time>
      </trkpt>
      <trkpt lat="43.86339" lon="7.27133">
        <ele>1310.435631</ele>
        <time>2011-12-30T12:11:44Z</time>
      </trkpt>
      <trkpt lat="43.86348" lon="7.27134">
        <ele>1311.435646</ele>
        <time>2011-12-30T12:11:50Z</time>
      </trkpt>
      <trkpt lat="43.86358" lon="7.27137">
        <ele>1311.435661</ele>
        <time>2011-12-30T12:12:00Z</time>
      </trkpt>
      <trkpt lat="43.86385" lon="7.27148">
        <ele>1312.435722</ele>
        <time>2011-12-30T12:12:25Z</time>
      </trkpt>
      <trkpt lat="43.86413" lon="7.27153">
        <ele>1312.435768</ele>
        <time>2011-12-30T12:12:48Z</time>
      </trkpt>
      <trkpt lat="43.8644" lon="7.27153">
        <ele>1314.435806</ele>
        <time>2011-12-30T12:13:19Z</time>
      </trkpt>
      <trkpt lat="43.86467" lon="7.27152">
        <ele>1316.435844</ele>
        <time>2011-12-30T12:13:39Z</time>
      </trkpt>
      <trkpt lat="43.86497" lon="7.27147">
        <ele>1321.435875</ele>
        <time>2011-12-30T12:14:01Z</time>
      </trkpt>
      <trkpt lat="43.86524" lon="7.27148">
        <ele>1322.435913</ele>
        <time>2011-12-30T12:14:20Z</time>
      </trkpt>
      <trkpt lat="43.86552" lon="7.27149">
        <ele>1325.435951</ele>
        <time>2011-12-30T12:14:43Z</time>
      </trkpt>
      <trkpt lat="43.86579" lon="7.27154">
        <ele>1329.435997</ele>
        <time>2011-12-30T12:15:08Z</time>
      </trkpt>
      <trkpt lat="43.86604" lon="7.27144">
        <ele>1332.436012</ele>
        <time>2011-12-30T12:16:08Z</time>
      </trkpt>
      <trkpt lat="43.86626" lon="7.27165">
        <ele>1335.436089</ele>
        <time>2011-12-30T12:18:08Z</time>
      </trkpt>
      <trkpt lat="43.86654" lon="7.27159">
        <ele>1337.436111</ele>
        <time>2011-12-30T12:18:35Z</time>
      </trkpt>
      <trkpt lat="43.86682" lon="7.27156">
        <ele>1340.436142</ele>
        <time>2011-12-30T12:18:57Z</time>
      </trkpt>
      <trkpt lat="43.86727" lon="7.27159">
        <ele>1341.436211</ele>
        <time>2011-12-30T12:19:42Z</time>
      </trkpt>
      <trkpt lat="43.86727" lon="7.27159">
        <ele>1341.436211</ele>
        <time>2011-12-30T12:19:49Z</time>
      </trkpt>
      <trkpt lat="43.86757" lon="7.27151">
        <ele>1342.436234</ele>
        <time>2011-12-30T12:19:54Z</time>
      </trkpt>
      <trkpt lat="43.86785" lon="7.27146">
        <ele>1344.436264</ele>
        <time>2011-12-30T12:20:12Z</time>
      </trkpt>
      <trkpt lat="43.86806" lon="7.27158">
        <ele>1348.436317</ele>
        <time>2011-12-30T12:20:27Z</time>
      </trkpt>
      <trkpt lat="43.86815" lon="7.27166">
        <ele>1350.436344</ele>
        <time>2011-12-30T12:20:32Z</time>
      </trkpt>
      <trkpt lat="43.86847" lon="7.27181">
        <ele>1354.43642</ele>
        <time>2011-12-30T12:20:57Z</time>
      </trkpt>
      <trkpt lat="43.86874" lon="7.27184">
        <ele>1360.436462</ele>
        <time>2011-12-30T12:21:16Z</time>
      </trkpt>
      <trkpt lat="43.86902" lon="7.27185">
        <ele>1364.436501</ele>
        <time>2011-12-30T12:21:30Z</time>
      </trkpt>
      <trkpt lat="43.8693" lon="7.27188">
        <ele>1366.436546</ele>
        <time>2011-12-30T12:21:51Z</time>
      </trkpt>
      <trkpt lat="43.86957" lon="7.27197">
        <ele>1367.436604</ele>
        <time>2011-12-30T12:22:03Z</time>
      </trkpt>
      <trkpt lat="43.86983" lon="7.27213">
        <ele>1368.436672</ele>
        <time>2011-12-30T12:22:11Z</time>
      </trkpt>
      <trkpt lat="43.87004" lon="7.27237">
        <ele>1371.436752</ele>
        <time>2011-12-30T12:22:20Z</time>
      </trkpt>
      <trkpt lat="43.87017" lon="7.2727">
        <ele>1374.436836</ele>
        <time>2011-12-30T12:22:38Z</time>
      </trkpt>
      <trkpt lat="43.86997" lon="7.27261">
        <ele>1377.43679</ele>
        <time>2011-12-30T12:23:09Z</time>
      </trkpt>
      <trkpt lat="43.86975" lon="7.27237">
        <ele>1381.436714</ele>
        <time>2011-12-30T12:23:20Z</time>
      </trkpt>
      <trkpt lat="43.86963" lon="7.27234">
        <ele>1383.436684</ele>
        <time>2011-12-30T12:23:24Z</time>
      </trkpt>
      <trkpt lat="43.8695" lon="7.27234">
        <ele>1386.436668</ele>
        <time>2011-12-30T12:23:29Z</time>
      </trkpt>
      <trkpt lat="43.86932" lon="7.27238">
        <ele>1389.436653</ele>
        <time>2011-12-30T12:23:37Z</time>
      </trkpt>
      <trkpt lat="43.86922" lon="7.27242">
        <ele>1388.436646</ele>
        <time>2011-12-30T12:23:42Z</time>
      </trkpt>
      <trkpt lat="43.86891" lon="7.27251">
        <ele>1391.436626</ele>
        <time>2011-12-30T12:24:05Z</time>
      </trkpt>
      <trkpt lat="43.86868" lon="7.27248">
        <ele>1393.436588</ele>
        <time>2011-12-30T12:24:21Z</time>
      </trkpt>
      <trkpt lat="43.86855" lon="7.27246">
        <ele>1394.436562</ele>
        <time>2011-12-30T12:24:27Z</time>
      </trkpt>
      <trkpt lat="43.86823" lon="7.27253">
        <ele>1397.436535</ele>
        <time>2011-12-30T12:24:48Z</time>
      </trkpt>
      <trkpt lat="43.86814" lon="7.27256">
        <ele>1397.436531</ele>
        <time>2011-12-30T12:24:52Z</time>
      </trkpt>
      <trkpt lat="43.86804" lon="7.27259">
        <ele>1398.436523</ele>
        <time>2011-12-30T12:24:59Z</time>
      </trkpt>
      <trkpt lat="43.8678" lon="7.27255">
        <ele>1412.436481</ele>
        <time>2011-12-30T12:27:53Z</time>
      </trkpt>
      <trkpt lat="43.85554" lon="7.27258">
        <ele>890.434814</ele>
        <time>2011-12-30T13:46:51Z</time>
      </trkpt>
      <trkpt lat="43.85554" lon="7.27258">
        <ele>890.434814</ele>
        <time>2011-12-30T13:46:53Z</time>
      </trkpt>
      <trkpt lat="43.8551" lon="7.27189">
        <ele>1135.434616</ele>
        <time>2011-12-30T13:46:57Z</time>
      </trkpt>
      <trkpt lat="43.8551" lon="7.27189">
        <ele>1135.434616</ele>
        <time>2011-12-30T13:47:01Z</time>
      </trkpt>
      <trkpt lat="43.85489" lon="7.27214">
        <ele>1141.434639</ele>
        <time>2011-12-30T13:47:14Z</time>
      </trkpt>
      <trkpt lat="43.85462" lon="7.27215">
        <ele>1142.434601</ele>
        <time>2011-12-30T13:47:28Z</time>
      </trkpt>
      <trkpt lat="43.8544" lon="7.27191">
        <ele>1143.434525</ele>
        <time>2011-12-30T13:47:38Z</time>
      </trkpt>
      <trkpt lat="43.85419" lon="7.27175">
        <ele>1145.43446</ele>
        <time>2011-12-30T13:47:49Z</time>
      </trkpt>
      <trkpt lat="43.85408" lon="7.27171">
        <ele>1145.434433</ele>
        <time>2011-12-30T13:47:51Z</time>
      </trkpt>
      <trkpt lat="43.85402" lon="7.2717">
        <ele>1146.434422</ele>
        <time>2011-12-30T13:47:52Z</time>
      </trkpt>
      <trkpt lat="43.85402" lon="7.2717">
        <ele>1146.434422</ele>
        <time>2011-12-30T13:47:53Z</time>
      </trkpt>
      <trkpt lat="43.85391" lon="7.27167">
        <ele>1146.434406</ele>
        <time>2011-12-30T13:47:54Z</time>
      </trkpt>
      <trkpt lat="43.85386" lon="7.27166">
        <ele>1146.434395</ele>
        <time>2011-12-30T13:47:55Z</time>
      </trkpt>
      <trkpt lat="43.85376" lon="7.27165">
        <ele>1146.43438</ele>
        <time>2011-12-30T13:47:56Z</time>
      </trkpt>
      <trkpt lat="43.85364" lon="7.27164">
        <ele>1146.434364</ele>
        <time>2011-12-30T13:48:00Z</time>
      </trkpt>
      <trkpt lat="43.85351" lon="7.27167">
        <ele>1146.434349</ele>
        <time>2011-12-30T13:48:02Z</time>
      </trkpt>
      <trkpt lat="43.85341" lon="7.27169">
        <ele>1147.434341</ele>
        <time>2011-12-30T13:48:06Z</time>
      </trkpt>
      <trkpt lat="43.85329" lon="7.27174">
        <ele>1147.434334</ele>
        <time>2011-12-30T13:48:08Z</time>
      </trkpt>
      <trkpt lat="43.85315" lon="7.27182">
        <ele>1148.434334</ele>
        <time>2011-12-30T13:48:10Z</time>
      </trkpt>
      <trkpt lat="43.85303" lon="7.27189">
        <ele>1149.434334</ele>
        <time>2011-12-30T13:48:12Z</time>
      </trkpt>
      <trkpt lat="43.85292" lon="7.27195">
        <ele>1150.43433</ele>
        <time>2011-12-30T13:48:14Z</time>
      </trkpt>
      <trkpt lat="43.85279" lon="7.27203">
        <ele>1151.434326</ele>
        <time>2011-12-30T13:48:16Z</time>
      </trkpt>
      <trkpt lat="43.85265" lon="7.2721">
        <ele>1152.434319</ele>
        <time>2011-12-30T13:48:18Z</time>
      </trkpt>
      <trkpt lat="43.85252" lon="7.27218">
        <ele>1153.434322</ele>
        <time>2011-12-30T13:48:20Z</time>
      </trkpt>
      <trkpt lat="43.85238" lon="7.27227">
        <ele>1153.434319</ele>
        <time>2011-12-30T13:48:22Z</time>
      </trkpt>
      <trkpt lat="43.85223" lon="7.27239">
        <ele>1154.434326</ele>
        <time>2011-12-30T13:48:24Z</time>
      </trkpt>
      <trkpt lat="43.8521" lon="7.27252">
        <ele>1154.434334</ele>
        <time>2011-12-30T13:48:26Z</time>
      </trkpt>
      <trkpt lat="43.852" lon="7.2727">
        <ele>1155.434361</ele>
        <time>2011-12-30T13:48:28Z</time>
      </trkpt>
      <trkpt lat="43.85189" lon="7.27283">
        <ele>1156.434372</ele>
        <time>2011-12-30T13:48:30Z</time>
      </trkpt>
      <trkpt lat="43.85181" lon="7.27292">
        <ele>1157.43438</ele>
        <time>2011-12-30T13:48:32Z</time>
      </trkpt>
      <trkpt lat="43.85173" lon="7.273">
        <ele>1157.43438</ele>
        <time>2011-12-30T13:48:34Z</time>
      </trkpt>
      <trkpt lat="43.85164" lon="7.27303">
        <ele>1157.434376</ele>
        <time>2011-12-30T13:48:37Z</time>
      </trkpt>
      <trkpt lat="43.85152" lon="7.27305">
        <ele>1158.434364</ele>
        <time>2011-12-30T13:48:40Z</time>
      </trkpt>
      <trkpt lat="43.85142" lon="7.27307">
        <ele>1159.434357</ele>
        <time>2011-12-30T13:48:42Z</time>
      </trkpt>
      <trkpt lat="43.85133" lon="7.2731">
        <ele>1159.434349</ele>
        <time>2011-12-30T13:48:44Z</time>
      </trkpt>
      <trkpt lat="43.85099" lon="7.27296">
        <ele>1163.434277</ele>
        <time>2011-12-30T13:49:02Z</time>
      </trkpt>
      <trkpt lat="43.85071" lon="7.27294">
        <ele>1165.434235</ele>
        <time>2011-12-30T13:49:13Z</time>
      </trkpt>
      <trkpt lat="43.85043" lon="7.27296">
        <ele>1161.434196</ele>
        <time>2011-12-30T13:49:34Z</time>
      </trkpt>
      <trkpt lat="43.85043" lon="7.27296">
        <ele>1161.434196</ele>
        <time>2011-12-30T13:50:54Z</time>
      </trkpt>
      <trkpt lat="43.85049" lon="7.27286">
        <ele>1155.434185</ele>
        <time>2011-12-30T13:50:56Z</time>
      </trkpt>
      <trkpt lat="43.85035" lon="7.27278">
        <ele>1158.434147</ele>
        <time>2011-12-30T13:51:36Z</time>
      </trkpt>
      <trkpt lat="43.85024" lon="7.27276">
        <ele>1159.434132</ele>
        <time>2011-12-30T13:51:38Z</time>
      </trkpt>
      <trkpt lat="43.85013" lon="7.27275">
        <ele>1159.434113</ele>
        <time>2011-12-30T13:51:41Z</time>
      </trkpt>
      <trkpt lat="43.85002" lon="7.2728">
        <ele>1159.434105</ele>
        <time>2011-12-30T13:51:46Z</time>
      </trkpt>
      <trkpt lat="43.8497" lon="7.27298">
        <ele>1157.434101</ele>
        <time>2011-12-30T13:52:10Z</time>
      </trkpt>
      <trkpt lat="43.8497" lon="7.27298">
        <ele>1157.434101</ele>
        <time>2011-12-30T13:52:22Z</time>
      </trkpt>
      <trkpt lat="43.84964" lon="7.27288">
        <ele>1156.434074</ele>
        <time>2011-12-30T13:53:42Z</time>
      </trkpt>
      <trkpt lat="43.84953" lon="7.27287">
        <ele>1156.434059</ele>
        <time>2011-12-30T13:53:46Z</time>
      </trkpt>
      <trkpt lat="43.84933" lon="7.2728">
        <ele>1158.434013</ele>
        <time>2011-12-30T13:53:55Z</time>
      </trkpt>
      <trkpt lat="43.84923" lon="7.27277">
        <ele>1158.43399</ele>
        <time>2011-12-30T13:53:58Z</time>
      </trkpt>
      <trkpt lat="43.84919" lon="7.27276">
        <ele>1158.433987</ele>
        <time>2011-12-30T13:53:59Z</time>
      </trkpt>
      <trkpt lat="43.84909" lon="7.27273">
        <ele>1158.433971</ele>
        <time>2011-12-30T13:54:02Z</time>
      </trkpt>
      <trkpt lat="43.84898" lon="7.27272">
        <ele>1158.433952</ele>
        <time>2011-12-30T13:54:07Z</time>
      </trkpt>
      <trkpt lat="43.84896" lon="7.27272">
        <ele>1159.433949</ele>
        <time>2011-12-30T13:54:11Z</time>
      </trkpt>
      <trkpt lat="43.84896" lon="7.27287">
        <ele>1154.433979</ele>
        <time>2011-12-30T13:54:41Z</time>
      </trkpt>
      <trkpt lat="43.84896" lon="7.27287">
        <ele>1154.433975</ele>
        <time>2011-12-30T13:54:42Z</time>
      </trkpt>
      <trkpt lat="43.84886" lon="7.2728">
        <ele>1151.433949</ele>
        <time>2011-12-30T13:55:01Z</time>
      </trkpt>
      <trkpt lat="43.84877" lon="7.27274">
        <ele>1151.433922</ele>
        <time>2011-12-30T13:55:06Z</time>
      </trkpt>
      <trkpt lat="43.8487" lon="7.27272">
        <ele>1150.433914</ele>
        <time>2011-12-30T13:55:08Z</time>
      </trkpt>
      <trkpt lat="43.8486" lon="7.27271">
        <ele>1150.433891</ele>
        <time>2011-12-30T13:55:11Z</time>
      </trkpt>
      <trkpt lat="43.84856" lon="7.27271">
        <ele>1150.433887</ele>
        <time>2011-12-30T13:55:12Z</time>
      </trkpt>
      <trkpt lat="43.84846" lon="7.2727">
        <ele>1149.433876</ele>
        <time>2011-12-30T13:55:15Z</time>
      </trkpt>
      <trkpt lat="43.84836" lon="7.27271">
        <ele>1149.433868</ele>
        <time>2011-12-30T13:55:18Z</time>
      </trkpt>
      <trkpt lat="43.84833" lon="7.27271">
        <ele>1149.433861</ele>
        <time>2011-12-30T13:55:19Z</time>
      </trkpt>
      <trkpt lat="43.848" lon="7.27267">
        <ele>1145.433807</ele>
        <time>2011-12-30T13:56:04Z</time>
      </trkpt>
      <trkpt lat="43.84791" lon="7.27265">
        <ele>1144.433788</ele>
        <time>2011-12-30T13:56:07Z</time>
      </trkpt>
      <trkpt lat="43.84773" lon="7.27261">
        <ele>1143.433754</ele>
        <time>2011-12-30T13:56:14Z</time>
      </trkpt>
      <trkpt lat="43.84761" lon="7.27261">
        <ele>1143.433739</ele>
        <time>2011-12-30T13:56:19Z</time>
      </trkpt>
      <trkpt lat="43.84756" lon="7.27259">
        <ele>1143.433727</ele>
        <time>2011-12-30T13:56:21Z</time>
      </trkpt>
      <trkpt lat="43.84744" lon="7.2726">
        <ele>1143.433716</ele>
        <time>2011-12-30T13:56:29Z</time>
      </trkpt>
      <trkpt lat="43.84735" lon="7.27256">
        <ele>1142.433701</ele>
        <time>2011-12-30T13:56:34Z</time>
      </trkpt>
      <trkpt lat="43.84733" lon="7.27256">
        <ele>1142.433689</ele>
        <time>2011-12-30T13:56:36Z</time>
      </trkpt>
      <trkpt lat="43.84721" lon="7.27254">
        <ele>1141.433678</ele>
        <time>2011-12-30T13:56:38Z</time>
      </trkpt>
      <trkpt lat="43.84708" lon="7.27253">
        <ele>1141.433651</ele>
        <time>2011-12-30T13:56:41Z</time>
      </trkpt>
      <trkpt lat="43.84699" lon="7.27251">
        <ele>1140.433636</ele>
        <time>2011-12-30T13:56:44Z</time>
      </trkpt>
      <trkpt lat="43.8469" lon="7.27247">
        <ele>1140.433617</ele>
        <time>2011-12-30T13:56:48Z</time>
      </trkpt>
      <trkpt lat="43.84676" lon="7.27253">
        <ele>1139.433609</ele>
        <time>2011-12-30T13:56:58Z</time>
      </trkpt>
      <trkpt lat="43.84675" lon="7.27256">
        <ele>1139.433613</ele>
        <time>2011-12-30T13:56:59Z</time>
      </trkpt>
      <trkpt lat="43.8467" lon="7.27267">
        <ele>1137.433628</ele>
        <time>2011-12-30T13:57:11Z</time>
      </trkpt>
      <trkpt lat="43.84679" lon="7.27266">
        <ele>1126.43364</ele>
        <time>2011-12-30T13:57:33Z</time>
      </trkpt>
      <trkpt lat="43.84661" lon="7.27263">
        <ele>1094.433609</ele>
        <time>2011-12-30T14:01:33Z</time>
      </trkpt>
      <trkpt lat="43.84659" lon="7.27264">
        <ele>1094.433609</ele>
        <time>2011-12-30T14:01:35Z</time>
      </trkpt>
      <trkpt lat="43.84659" lon="7.27264">
        <ele>1094.433609</ele>
        <time>2011-12-30T14:01:36Z</time>
      </trkpt>
      <trkpt lat="43.84659" lon="7.27264">
        <ele>1094.433609</ele>
        <time>2011-12-30T14:01:37Z</time>
      </trkpt>
      <trkpt lat="43.8465" lon="7.27271">
        <ele>1094.433609</ele>
        <time>2011-12-30T14:01:40Z</time>
      </trkpt>
      <trkpt lat="43.84642" lon="7.27278">
        <ele>1092.433613</ele>
        <time>2011-12-30T14:02:15Z</time>
      </trkpt>
      <trkpt lat="43.8464" lon="7.27277">
        <ele>1092.433609</ele>
        <time>2011-12-30T14:02:20Z</time>
      </trkpt>
      <trkpt lat="43.84621" lon="7.27279">
        <ele>1093.433586</ele>
        <time>2011-12-30T14:02:34Z</time>
      </trkpt>
      <trkpt lat="43.84609" lon="7.27278">
        <ele>1093.433567</ele>
        <time>2011-12-30T14:02:38Z</time>
      </trkpt>
      <trkpt lat="43.84599" lon="7.27275">
        <ele>1093.433548</ele>
        <time>2011-12-30T14:02:42Z</time>
      </trkpt>
      <trkpt lat="43.84591" lon="7.27268">
        <ele>1093.433525</ele>
        <time>2011-12-30T14:02:46Z</time>
      </trkpt>
      <trkpt lat="43.84585" lon="7.27257">
        <ele>1093.433495</ele>
        <time>2011-12-30T14:02:48Z</time>
      </trkpt>
      <trkpt lat="43.8458" lon="7.27245">
        <ele>1092.433464</ele>
        <time>2011-12-30T14:02:51Z</time>
      </trkpt>
      <trkpt lat="43.84558" lon="7.27213">
        <ele>1088.433365</ele>
        <time>2011-12-30T14:03:19Z</time>
      </trkpt>
      <trkpt lat="43.84558" lon="7.27213">
        <ele>1088.433365</ele>
        <time>2011-12-30T14:03:21Z</time>
      </trkpt>
      <trkpt lat="43.84532" lon="7.27197">
        <ele>1094.433292</ele>
        <time>2011-12-30T14:03:46Z</time>
      </trkpt>
      <trkpt lat="43.84505" lon="7.27201">
        <ele>1093.43327</ele>
        <time>2011-12-30T14:03:57Z</time>
      </trkpt>
      <trkpt lat="43.84476" lon="7.27206">
        <ele>1094.433235</ele>
        <time>2011-12-30T14:04:06Z</time>
      </trkpt>
      <trkpt lat="43.84457" lon="7.27205">
        <ele>1096.433212</ele>
        <time>2011-12-30T14:04:12Z</time>
      </trkpt>
      <trkpt lat="43.84447" lon="7.27202">
        <ele>1097.433189</ele>
        <time>2011-12-30T14:04:14Z</time>
      </trkpt>
      <trkpt lat="43.84436" lon="7.27199">
        <ele>1098.43317</ele>
        <time>2011-12-30T14:04:16Z</time>
      </trkpt>
      <trkpt lat="43.84405" lon="7.27201">
        <ele>1106.433132</ele>
        <time>2011-12-30T14:04:27Z</time>
      </trkpt>
      <trkpt lat="43.84395" lon="7.27202">
        <ele>1108.433121</ele>
        <time>2011-12-30T14:04:31Z</time>
      </trkpt>
      <trkpt lat="43.84382" lon="7.2721">
        <ele>1108.433121</ele>
        <time>2011-12-30T14:04:39Z</time>
      </trkpt>
      <trkpt lat="43.84372" lon="7.27214">
        <ele>1107.433113</ele>
        <time>2011-12-30T14:04:43Z</time>
      </trkpt>
      <trkpt lat="43.84356" lon="7.27219">
        <ele>1106.433098</ele>
        <time>2011-12-30T14:04:48Z</time>
      </trkpt>
      <trkpt lat="43.84343" lon="7.27224">
        <ele>1105.433098</ele>
        <time>2011-12-30T14:04:52Z</time>
      </trkpt>
      <trkpt lat="43.84336" lon="7.27231">
        <ele>1102.433098</ele>
        <time>2011-12-30T14:04:58Z</time>
      </trkpt>
      <trkpt lat="43.84326" lon="7.27235">
        <ele>1098.43309</ele>
        <time>2011-12-30T14:05:04Z</time>
      </trkpt>
      <trkpt lat="43.84315" lon="7.27241">
        <ele>1095.43309</ele>
        <time>2011-12-30T14:05:10Z</time>
      </trkpt>
      <trkpt lat="43.84312" lon="7.27244">
        <ele>1094.43309</ele>
        <time>2011-12-30T14:05:12Z</time>
      </trkpt>
      <trkpt lat="43.84305" lon="7.27252">
        <ele>1092.433098</ele>
        <time>2011-12-30T14:05:16Z</time>
      </trkpt>
      <trkpt lat="43.84295" lon="7.27264">
        <ele>1091.433113</ele>
        <time>2011-12-30T14:05:22Z</time>
      </trkpt>
      <trkpt lat="43.84286" lon="7.27277">
        <ele>1090.433128</ele>
        <time>2011-12-30T14:05:31Z</time>
      </trkpt>
      <trkpt lat="43.84281" lon="7.27292">
        <ele>1088.433151</ele>
        <time>2011-12-30T14:05:40Z</time>
      </trkpt>
      <trkpt lat="43.84273" lon="7.27303">
        <ele>1086.433163</ele>
        <time>2011-12-30T14:05:46Z</time>
      </trkpt>
      <trkpt lat="43.84268" lon="7.2731">
        <ele>1084.43317</ele>
        <time>2011-12-30T14:05:52Z</time>
      </trkpt>
      <trkpt lat="43.84261" lon="7.27321">
        <ele>1078.433186</ele>
        <time>2011-12-30T14:05:58Z</time>
      </trkpt>
      <trkpt lat="43.84254" lon="7.27333">
        <ele>1074.433201</ele>
        <time>2011-12-30T14:06:02Z</time>
      </trkpt>
      <trkpt lat="43.84253" lon="7.27335">
        <ele>1074.433205</ele>
        <time>2011-12-30T14:06:03Z</time>
      </trkpt>
      <trkpt lat="43.84245" lon="7.27342">
        <ele>1069.433205</ele>
        <time>2011-12-30T14:06:08Z</time>
      </trkpt>
      <trkpt lat="43.84239" lon="7.27352">
        <ele>1059.433216</ele>
        <time>2011-12-30T14:06:35Z</time>
      </trkpt>
      <trkpt lat="43.84234" lon="7.27363">
        <ele>1054.433235</ele>
        <time>2011-12-30T14:06:56Z</time>
      </trkpt>
      <trkpt lat="43.84235" lon="7.27367">
        <ele>1051.433243</ele>
        <time>2011-12-30T14:07:22Z</time>
      </trkpt>
      <trkpt lat="43.84232" lon="7.27355">
        <ele>1048.433212</ele>
        <time>2011-12-30T14:07:52Z</time>
      </trkpt>
      <trkpt lat="43.84206" lon="7.27344">
        <ele>1044.433159</ele>
        <time>2011-12-30T14:08:18Z</time>
      </trkpt>
      <trkpt lat="43.84195" lon="7.27339">
        <ele>1043.433128</ele>
        <time>2011-12-30T14:08:23Z</time>
      </trkpt>
      <trkpt lat="43.84187" lon="7.27333">
        <ele>1040.433105</ele>
        <time>2011-12-30T14:08:27Z</time>
      </trkpt>
      <trkpt lat="43.84185" lon="7.27332">
        <ele>1040.433105</ele>
        <time>2011-12-30T14:08:28Z</time>
      </trkpt>
      <trkpt lat="43.84175" lon="7.2733">
        <ele>1038.433083</ele>
        <time>2011-12-30T14:08:33Z</time>
      </trkpt>
      <trkpt lat="43.84175" lon="7.2733">
        <ele>1038.433083</ele>
        <time>2011-12-30T14:08:34Z</time>
      </trkpt>
      <trkpt lat="43.8416" lon="7.27333">
        <ele>1037.433071</ele>
        <time>2011-12-30T14:08:40Z</time>
      </trkpt>
      <trkpt lat="43.84148" lon="7.27336">
        <ele>1032.43306</ele>
        <time>2011-12-30T14:08:48Z</time>
      </trkpt>
      <trkpt lat="43.8414" lon="7.27323">
        <ele>1025.433022</ele>
        <time>2011-12-30T14:09:26Z</time>
      </trkpt>
      <trkpt lat="43.84131" lon="7.27317">
        <ele>1025.432999</ele>
        <time>2011-12-30T14:09:29Z</time>
      </trkpt>
      <trkpt lat="43.84122" lon="7.27312">
        <ele>1025.432976</ele>
        <time>2011-12-30T14:09:32Z</time>
      </trkpt>
      <trkpt lat="43.84112" lon="7.27308">
        <ele>1025.432953</ele>
        <time>2011-12-30T14:09:35Z</time>
      </trkpt>
      <trkpt lat="43.84101" lon="7.27305">
        <ele>1023.43293</ele>
        <time>2011-12-30T14:09:39Z</time>
      </trkpt>
      <trkpt lat="43.8408" lon="7.27305">
        <ele>1020.432899</ele>
        <time>2011-12-30T14:09:45Z</time>
      </trkpt>
      <trkpt lat="43.84056" lon="7.27311">
        <ele>1017.432884</ele>
        <time>2011-12-30T14:09:51Z</time>
      </trkpt>
      <trkpt lat="43.84047" lon="7.27313">
        <ele>1016.432873</ele>
        <time>2011-12-30T14:09:53Z</time>
      </trkpt>
      <trkpt lat="43.84037" lon="7.27315">
        <ele>1016.432869</ele>
        <time>2011-12-30T14:09:56Z</time>
      </trkpt>
      <trkpt lat="43.84034" lon="7.27316">
        <ele>1016.432861</ele>
        <time>2011-12-30T14:09:59Z</time>
      </trkpt>
      <trkpt lat="43.84006" lon="7.27322">
        <ele>1014.432838</ele>
        <time>2011-12-30T14:10:09Z</time>
      </trkpt>
      <trkpt lat="43.83995" lon="7.27324">
        <ele>1013.432823</ele>
        <time>2011-12-30T14:10:15Z</time>
      </trkpt>
      <trkpt lat="43.83973" lon="7.27327">
        <ele>1012.432804</ele>
        <time>2011-12-30T14:10:25Z</time>
      </trkpt>
      <trkpt lat="43.8397" lon="7.27328">
        <ele>1011.4328</ele>
        <time>2011-12-30T14:10:26Z</time>
      </trkpt>
      <trkpt lat="43.83945" lon="7.27342">
        <ele>1002.432793</ele>
        <time>2011-12-30T14:10:48Z</time>
      </trkpt>
      <trkpt lat="43.83923" lon="7.27352">
        <ele>1002.432785</ele>
        <time>2011-12-30T14:11:01Z</time>
      </trkpt>
      <trkpt lat="43.83894" lon="7.27366">
        <ele>996.432777</ele>
        <time>2011-12-30T14:11:12Z</time>
      </trkpt>
      <trkpt lat="43.83882" lon="7.27369">
        <ele>993.432766</ele>
        <time>2011-12-30T14:11:22Z</time>
      </trkpt>
      <trkpt lat="43.83879" lon="7.27374">
        <ele>989.43277</ele>
        <time>2011-12-30T14:11:30Z</time>
      </trkpt>
      <trkpt lat="43.8387" lon="7.27368">
        <ele>959.432747</ele>
        <time>2011-12-30T14:12:22Z</time>
      </trkpt>
      <trkpt lat="43.83867" lon="7.27363">
        <ele>958.432735</ele>
        <time>2011-12-30T14:12:24Z</time>
      </trkpt>
      <trkpt lat="43.8386" lon="7.27355">
        <ele>953.432709</ele>
        <time>2011-12-30T14:12:36Z</time>
      </trkpt>
      <trkpt lat="43.83847" lon="7.27369">
        <ele>948.432716</ele>
        <time>2011-12-30T14:13:01Z</time>
      </trkpt>
      <trkpt lat="43.83843" lon="7.27369">
        <ele>947.432716</ele>
        <time>2011-12-30T14:13:13Z</time>
      </trkpt>
      <trkpt lat="43.8384" lon="7.27354">
        <ele>941.432678</ele>
        <time>2011-12-30T14:13:43Z</time>
      </trkpt>
      <trkpt lat="43.8384" lon="7.27354">
        <ele>941.432678</ele>
        <time>2011-12-30T14:13:44Z</time>
      </trkpt>
      <trkpt lat="43.8385" lon="7.27356">
        <ele>930.432693</ele>
        <time>2011-12-30T14:14:29Z</time>
      </trkpt>
      <trkpt lat="43.8384" lon="7.27359">
        <ele>925.43269</ele>
        <time>2011-12-30T14:14:50Z</time>
      </trkpt>
      <trkpt lat="43.83845" lon="7.27337">
        <ele>920.432648</ele>
        <time>2011-12-30T14:27:42Z</time>
      </trkpt>
      <trkpt lat="43.83844" lon="7.27322">
        <ele>919.432617</ele>
        <time>2011-12-30T14:27:45Z</time>
      </trkpt>
      <trkpt lat="43.83844" lon="7.27307">
        <ele>918.432583</ele>
        <time>2011-12-30T14:27:49Z</time>
      </trkpt>
      <trkpt lat="43.83845" lon="7.27297">
        <ele>917.432568</ele>
        <time>2011-12-30T14:27:51Z</time>
      </trkpt>
      <trkpt lat="43.83847" lon="7.27265">
        <ele>916.432503</ele>
        <time>2011-12-30T14:28:01Z</time>
      </trkpt>
      <trkpt lat="43.83847" lon="7.27252">
        <ele>915.432472</ele>
        <time>2011-12-30T14:28:04Z</time>
      </trkpt>
      <trkpt lat="43.83847" lon="7.27247">
        <ele>914.432465</ele>
        <time>2011-12-30T14:28:06Z</time>
      </trkpt>
      <trkpt lat="43.83848" lon="7.27232">
        <ele>911.432434</ele>
        <time>2011-12-30T14:28:11Z</time>
      </trkpt>
      <trkpt lat="43.83846" lon="7.27207">
        <ele>909.432381</ele>
        <time>2011-12-30T14:28:41Z</time>
      </trkpt>
      <trkpt lat="43.83858" lon="7.2719">
        <ele>908.432362</ele>
        <time>2011-12-30T14:28:46Z</time>
      </trkpt>
      <trkpt lat="43.83868" lon="7.27178">
        <ele>908.43235</ele>
        <time>2011-12-30T14:28:49Z</time>
      </trkpt>
      <trkpt lat="43.83876" lon="7.27169">
        <ele>908.432343</ele>
        <time>2011-12-30T14:28:51Z</time>
      </trkpt>
      <trkpt lat="43.83886" lon="7.27158">
        <ele>908.432335</ele>
        <time>2011-12-30T14:28:56Z</time>
      </trkpt>
      <trkpt lat="43.83894" lon="7.27149">
        <ele>908.432323</ele>
        <time>2011-12-30T14:28:59Z</time>
      </trkpt>
      <trkpt lat="43.83904" lon="7.27138">
        <ele>907.432316</ele>
        <time>2011-12-30T14:29:02Z</time>
      </trkpt>
      <trkpt lat="43.83906" lon="7.27136">
        <ele>907.432312</ele>
        <time>2011-12-30T14:29:03Z</time>
      </trkpt>
      <trkpt lat="43.83915" lon="7.27125">
        <ele>905.432304</ele>
        <time>2011-12-30T14:29:09Z</time>
      </trkpt>
      <trkpt lat="43.83921" lon="7.27113">
        <ele>898.432289</ele>
        <time>2011-12-30T14:29:16Z</time>
      </trkpt>
      <trkpt lat="43.83928" lon="7.27103">
        <ele>896.432278</ele>
        <time>2011-12-30T14:29:24Z</time>
      </trkpt>
      <trkpt lat="43.83927" lon="7.27091">
        <ele>895.432251</ele>
        <time>2011-12-30T14:29:34Z</time>
      </trkpt>
      <trkpt lat="43.83918" lon="7.27092">
        <ele>895.432243</ele>
        <time>2011-12-30T14:29:37Z</time>
      </trkpt>
      <trkpt lat="43.83914" lon="7.27094">
        <ele>896.432236</ele>
        <time>2011-12-30T14:29:38Z</time>
      </trkpt>
      <trkpt lat="43.83903" lon="7.27097">
        <ele>896.432228</ele>
        <time>2011-12-30T14:29:40Z</time>
      </trkpt>
      <trkpt lat="43.83893" lon="7.271">
        <ele>897.43222</ele>
        <time>2011-12-30T14:29:42Z</time>
      </trkpt>
      <trkpt lat="43.83883" lon="7.27104">
        <ele>899.432217</ele>
        <time>2011-12-30T14:29:44Z</time>
      </trkpt>
      <trkpt lat="43.83873" lon="7.27108">
        <ele>900.432213</ele>
        <time>2011-12-30T14:29:46Z</time>
      </trkpt>
      <trkpt lat="43.83863" lon="7.27111">
        <ele>902.432205</ele>
        <time>2011-12-30T14:29:49Z</time>
      </trkpt>
      <trkpt lat="43.83851" lon="7.27106">
        <ele>902.432178</ele>
        <time>2011-12-30T14:29:52Z</time>
      </trkpt>
      <trkpt lat="43.83843" lon="7.27102">
        <ele>902.432159</ele>
        <time>2011-12-30T14:29:55Z</time>
      </trkpt>
      <trkpt lat="43.83821" lon="7.27106">
        <ele>892.432137</ele>
        <time>2011-12-30T14:30:16Z</time>
      </trkpt>
      <trkpt lat="43.83812" lon="7.27105">
        <ele>877.432121</ele>
        <time>2011-12-30T14:30:42Z</time>
      </trkpt>
      <trkpt lat="43.83805" lon="7.27095">
        <ele>877.432091</ele>
        <time>2011-12-30T14:30:49Z</time>
      </trkpt>
      <trkpt lat="43.83791" lon="7.27086">
        <ele>880.432056</ele>
        <time>2011-12-30T14:30:58Z</time>
      </trkpt>
      <trkpt lat="43.83778" lon="7.27083">
        <ele>882.43203</ele>
        <time>2011-12-30T14:31:04Z</time>
      </trkpt>
      <trkpt lat="43.83768" lon="7.27081">
        <ele>883.432014</ele>
        <time>2011-12-30T14:31:09Z</time>
      </trkpt>
      <trkpt lat="43.83759" lon="7.2708">
        <ele>885.431999</ele>
        <time>2011-12-30T14:31:15Z</time>
      </trkpt>
      <trkpt lat="43.83748" lon="7.27081">
        <ele>888.431984</ele>
        <time>2011-12-30T14:31:23Z</time>
      </trkpt>
      <trkpt lat="43.83738" lon="7.27084">
        <ele>892.431976</ele>
        <time>2011-12-30T14:31:33Z</time>
      </trkpt>
      <trkpt lat="43.83728" lon="7.27088">
        <ele>894.431976</ele>
        <time>2011-12-30T14:31:39Z</time>
      </trkpt>
      <trkpt lat="43.83719" lon="7.27093">
        <ele>894.431969</ele>
        <time>2011-12-30T14:31:47Z</time>
      </trkpt>
      <trkpt lat="43.83706" lon="7.27096">
        <ele>895.431961</ele>
        <time>2011-12-30T14:31:57Z</time>
      </trkpt>
      <trkpt lat="43.83697" lon="7.27097">
        <ele>895.431946</ele>
        <time>2011-12-30T14:32:07Z</time>
      </trkpt>
      <trkpt lat="43.83687" lon="7.27099">
        <ele>897.431938</ele>
        <time>2011-12-30T14:32:16Z</time>
      </trkpt>
      <trkpt lat="43.83677" lon="7.27102">
        <ele>899.431934</ele>
        <time>2011-12-30T14:32:24Z</time>
      </trkpt>
      <trkpt lat="43.83666" lon="7.27105">
        <ele>901.431923</ele>
        <time>2011-12-30T14:32:33Z</time>
      </trkpt>
      <trkpt lat="43.83658" lon="7.2711">
        <ele>902.431923</ele>
        <time>2011-12-30T14:32:44Z</time>
      </trkpt>
      <trkpt lat="43.83667" lon="7.27107">
        <ele>898.431927</ele>
        <time>2011-12-30T14:33:32Z</time>
      </trkpt>
      <trkpt lat="43.83668" lon="7.27107">
        <ele>898.431927</ele>
        <time>2011-12-30T14:33:38Z</time>
      </trkpt>
      <trkpt lat="43.83677" lon="7.27109">
        <ele>898.431942</ele>
        <time>2011-12-30T14:33:53Z</time>
      </trkpt>
      <trkpt lat="43.83693" lon="7.27107">
        <ele>897.431961</ele>
        <time>2011-12-30T14:34:01Z</time>
      </trkpt>
      <trkpt lat="43.83702" lon="7.27107">
        <ele>897.431976</ele>
        <time>2011-12-30T14:34:16Z</time>
      </trkpt>
      <trkpt lat="43.83713" lon="7.27099">
        <ele>896.431973</ele>
        <time>2011-12-30T14:34:21Z</time>
      </trkpt>
      <trkpt lat="43.83725" lon="7.27096">
        <ele>896.431984</ele>
        <time>2011-12-30T14:34:26Z</time>
      </trkpt>
      <trkpt lat="43.83735" lon="7.27095">
        <ele>896.431992</ele>
        <time>2011-12-30T14:34:30Z</time>
      </trkpt>
      <trkpt lat="43.83744" lon="7.27095">
        <ele>896.432007</ele>
        <time>2011-12-30T14:34:34Z</time>
      </trkpt>
      <trkpt lat="43.83754" lon="7.27094">
        <ele>895.432022</ele>
        <time>2011-12-30T14:34:38Z</time>
      </trkpt>
      <trkpt lat="43.83771" lon="7.27095">
        <ele>894.432045</ele>
        <time>2011-12-30T14:34:44Z</time>
      </trkpt>
      <trkpt lat="43.83782" lon="7.27098">
        <ele>894.432068</ele>
        <time>2011-12-30T14:34:47Z</time>
      </trkpt>
      <trkpt lat="43.83792" lon="7.27104">
        <ele>892.432091</ele>
        <time>2011-12-30T14:34:52Z</time>
      </trkpt>
      <trkpt lat="43.83796" lon="7.27107">
        <ele>891.432102</ele>
        <time>2011-12-30T14:34:54Z</time>
      </trkpt>
      <trkpt lat="43.83808" lon="7.27117">
        <ele>891.432144</ele>
        <time>2011-12-30T14:35:00Z</time>
      </trkpt>
      <trkpt lat="43.83817" lon="7.27124">
        <ele>892.432167</ele>
        <time>2011-12-30T14:35:03Z</time>
      </trkpt>
      <trkpt lat="43.83827" lon="7.27129">
        <ele>892.43219</ele>
        <time>2011-12-30T14:35:06Z</time>
      </trkpt>
      <trkpt lat="43.83836" lon="7.27129">
        <ele>892.432205</ele>
        <time>2011-12-30T14:35:08Z</time>
      </trkpt>
      <trkpt lat="43.83848" lon="7.27131">
        <ele>893.432224</ele>
        <time>2011-12-30T14:35:11Z</time>
      </trkpt>
      <trkpt lat="43.8386" lon="7.27131">
        <ele>896.432243</ele>
        <time>2011-12-30T14:35:15Z</time>
      </trkpt>
      <trkpt lat="43.83877" lon="7.27129">
        <ele>897.432259</ele>
        <time>2011-12-30T14:35:25Z</time>
      </trkpt>
      <trkpt lat="43.83887" lon="7.27125">
        <ele>896.432266</ele>
        <time>2011-12-30T14:35:30Z</time>
      </trkpt>
      <trkpt lat="43.83889" lon="7.27124">
        <ele>896.432262</ele>
        <time>2011-12-30T14:35:38Z</time>
      </trkpt>
      <trkpt lat="43.83899" lon="7.27119">
        <ele>896.432274</ele>
        <time>2011-12-30T14:35:42Z</time>
      </trkpt>
      <trkpt lat="43.83925" lon="7.27108">
        <ele>895.432281</ele>
        <time>2011-12-30T14:35:54Z</time>
      </trkpt>
      <trkpt lat="43.8395" lon="7.27088">
        <ele>889.432274</ele>
        <time>2011-12-30T14:36:37Z</time>
      </trkpt>
      <trkpt lat="43.83958" lon="7.27082">
        <ele>888.432274</ele>
        <time>2011-12-30T14:36:41Z</time>
      </trkpt>
      <trkpt lat="43.83966" lon="7.27077">
        <ele>888.432278</ele>
        <time>2011-12-30T14:36:45Z</time>
      </trkpt>
      <trkpt lat="43.83974" lon="7.27068">
        <ele>887.432266</ele>
        <time>2011-12-30T14:36:50Z</time>
      </trkpt>
      <trkpt lat="43.8398" lon="7.27057">
        <ele>886.432251</ele>
        <time>2011-12-30T14:36:58Z</time>
      </trkpt>
      <trkpt lat="43.83989" lon="7.27047">
        <ele>885.432243</ele>
        <time>2011-12-30T14:37:05Z</time>
      </trkpt>
      <trkpt lat="43.83995" lon="7.27038">
        <ele>885.432228</ele>
        <time>2011-12-30T14:37:09Z</time>
      </trkpt>
      <trkpt lat="43.84003" lon="7.27024">
        <ele>885.432213</ele>
        <time>2011-12-30T14:37:16Z</time>
      </trkpt>
      <trkpt lat="43.84011" lon="7.27008">
        <ele>885.432194</ele>
        <time>2011-12-30T14:37:21Z</time>
      </trkpt>
      <trkpt lat="43.84017" lon="7.26997">
        <ele>885.432178</ele>
        <time>2011-12-30T14:37:25Z</time>
      </trkpt>
      <trkpt lat="43.84024" lon="7.26984">
        <ele>885.432159</ele>
        <time>2011-12-30T14:37:30Z</time>
      </trkpt>
      <trkpt lat="43.84032" lon="7.2697">
        <ele>885.432144</ele>
        <time>2011-12-30T14:37:34Z</time>
      </trkpt>
      <trkpt lat="43.84038" lon="7.26961">
        <ele>885.432137</ele>
        <time>2011-12-30T14:37:37Z</time>
      </trkpt>
      <trkpt lat="43.84045" lon="7.26951">
        <ele>884.432121</ele>
        <time>2011-12-30T14:37:40Z</time>
      </trkpt>
      <trkpt lat="43.84053" lon="7.26938">
        <ele>883.432106</ele>
        <time>2011-12-30T14:37:44Z</time>
      </trkpt>
      <trkpt lat="43.8406" lon="7.26928">
        <ele>883.432091</ele>
        <time>2011-12-30T14:37:48Z</time>
      </trkpt>
      <trkpt lat="43.8406" lon="7.26929">
        <ele>883.432091</ele>
        <time>2011-12-30T14:37:49Z</time>
      </trkpt>
      <trkpt lat="43.84067" lon="7.26921">
        <ele>882.432091</ele>
        <time>2011-12-30T14:37:52Z</time>
      </trkpt>
      <trkpt lat="43.84076" lon="7.26912">
        <ele>882.432079</ele>
        <time>2011-12-30T14:37:55Z</time>
      </trkpt>
      <trkpt lat="43.84086" lon="7.26902">
        <ele>881.432076</ele>
        <time>2011-12-30T14:37:58Z</time>
      </trkpt>
      <trkpt lat="43.84095" lon="7.26893">
        <ele>880.432068</ele>
        <time>2011-12-30T14:38:02Z</time>
      </trkpt>
      <trkpt lat="43.84102" lon="7.26884">
        <ele>879.43206</ele>
        <time>2011-12-30T14:38:06Z</time>
      </trkpt>
      <trkpt lat="43.84115" lon="7.26871">
        <ele>875.432049</ele>
        <time>2011-12-30T14:38:11Z</time>
      </trkpt>
      <trkpt lat="43.84118" lon="7.26868">
        <ele>874.432045</ele>
        <time>2011-12-30T14:38:12Z</time>
      </trkpt>
      <trkpt lat="43.84127" lon="7.26858">
        <ele>871.432037</ele>
        <time>2011-12-30T14:38:15Z</time>
      </trkpt>
      <trkpt lat="43.84135" lon="7.26849">
        <ele>868.43203</ele>
        <time>2011-12-30T14:38:18Z</time>
      </trkpt>
      <trkpt lat="43.84137" lon="7.26846">
        <ele>867.43203</ele>
        <time>2011-12-30T14:38:19Z</time>
      </trkpt>
      <trkpt lat="43.84146" lon="7.26835">
        <ele>866.432014</ele>
        <time>2011-12-30T14:38:23Z</time>
      </trkpt>
      <trkpt lat="43.84154" lon="7.26826">
        <ele>865.432007</ele>
        <time>2011-12-30T14:38:29Z</time>
      </trkpt>
      <trkpt lat="43.84161" lon="7.26818">
        <ele>864.432003</ele>
        <time>2011-12-30T14:38:32Z</time>
      </trkpt>
      <trkpt lat="43.84161" lon="7.26818">
        <ele>864.432003</ele>
        <time>2011-12-30T14:38:36Z</time>
      </trkpt>
      <trkpt lat="43.84169" lon="7.2681">
        <ele>863.431992</ele>
        <time>2011-12-30T14:38:37Z</time>
      </trkpt>
      <trkpt lat="43.8418" lon="7.26796">
        <ele>861.43198</ele>
        <time>2011-12-30T14:38:47Z</time>
      </trkpt>
      <trkpt lat="43.84188" lon="7.26786">
        <ele>861.431969</ele>
        <time>2011-12-30T14:38:51Z</time>
      </trkpt>
      <trkpt lat="43.84215" lon="7.26755">
        <ele>857.431946</ele>
        <time>2011-12-30T14:39:01Z</time>
      </trkpt>
      <trkpt lat="43.84224" lon="7.26747">
        <ele>856.431938</ele>
        <time>2011-12-30T14:39:04Z</time>
      </trkpt>
      <trkpt lat="43.84233" lon="7.26739">
        <ele>853.431934</ele>
        <time>2011-12-30T14:39:07Z</time>
      </trkpt>
      <trkpt lat="43.84233" lon="7.26739">
        <ele>853.431934</ele>
        <time>2011-12-30T14:39:08Z</time>
      </trkpt>
      <trkpt lat="43.84242" lon="7.26731">
        <ele>850.431934</ele>
        <time>2011-12-30T14:39:11Z</time>
      </trkpt>
      <trkpt lat="43.84251" lon="7.26724">
        <ele>849.431931</ele>
        <time>2011-12-30T14:39:16Z</time>
      </trkpt>
      <trkpt lat="43.84256" lon="7.26721">
        <ele>849.431931</ele>
        <time>2011-12-30T14:39:18Z</time>
      </trkpt>
      <trkpt lat="43.84266" lon="7.26715">
        <ele>849.431931</ele>
        <time>2011-12-30T14:39:22Z</time>
      </trkpt>
      <trkpt lat="43.84277" lon="7.26708">
        <ele>848.431931</ele>
        <time>2011-12-30T14:39:25Z</time>
      </trkpt>
      <trkpt lat="43.84287" lon="7.26702">
        <ele>848.431931</ele>
        <time>2011-12-30T14:39:28Z</time>
      </trkpt>
      <trkpt lat="43.8429" lon="7.267">
        <ele>847.431931</ele>
        <time>2011-12-30T14:39:29Z</time>
      </trkpt>
      <trkpt lat="43.843" lon="7.26695">
        <ele>847.431938</ele>
        <time>2011-12-30T14:39:32Z</time>
      </trkpt>
      <trkpt lat="43.84313" lon="7.26688">
        <ele>847.431938</ele>
        <time>2011-12-30T14:39:35Z</time>
      </trkpt>
      <trkpt lat="43.84321" lon="7.26682">
        <ele>846.431938</ele>
        <time>2011-12-30T14:39:37Z</time>
      </trkpt>
      <trkpt lat="43.84329" lon="7.26677">
        <ele>845.431938</ele>
        <time>2011-12-30T14:39:40Z</time>
      </trkpt>
      <trkpt lat="43.84339" lon="7.26673">
        <ele>845.431942</ele>
        <time>2011-12-30T14:39:43Z</time>
      </trkpt>
      <trkpt lat="43.84348" lon="7.2667">
        <ele>844.431946</ele>
        <time>2011-12-30T14:39:46Z</time>
      </trkpt>
      <trkpt lat="43.84357" lon="7.26666">
        <ele>842.431953</ele>
        <time>2011-12-30T14:39:52Z</time>
      </trkpt>
      <trkpt lat="43.84367" lon="7.26663">
        <ele>841.431957</ele>
        <time>2011-12-30T14:39:56Z</time>
      </trkpt>
      <trkpt lat="43.84379" lon="7.26648">
        <ele>839.43195</ele>
        <time>2011-12-30T14:40:03Z</time>
      </trkpt>
      <trkpt lat="43.84379" lon="7.26635">
        <ele>839.431919</ele>
        <time>2011-12-30T14:40:06Z</time>
      </trkpt>
      <trkpt lat="43.84375" lon="7.26619">
        <ele>838.431881</ele>
        <time>2011-12-30T14:40:09Z</time>
      </trkpt>
      <trkpt lat="43.84369" lon="7.26605">
        <ele>837.431847</ele>
        <time>2011-12-30T14:40:12Z</time>
      </trkpt>
      <trkpt lat="43.84366" lon="7.26593">
        <ele>837.431816</ele>
        <time>2011-12-30T14:40:14Z</time>
      </trkpt>
      <trkpt lat="43.84362" lon="7.26576">
        <ele>836.431774</ele>
        <time>2011-12-30T14:40:17Z</time>
      </trkpt>
      <trkpt lat="43.84359" lon="7.2656">
        <ele>836.43174</ele>
        <time>2011-12-30T14:40:20Z</time>
      </trkpt>
      <trkpt lat="43.8436" lon="7.26545">
        <ele>834.431705</ele>
        <time>2011-12-30T14:40:24Z</time>
      </trkpt>
      <trkpt lat="43.84365" lon="7.26533">
        <ele>833.431686</ele>
        <time>2011-12-30T14:40:27Z</time>
      </trkpt>
      <trkpt lat="43.84373" lon="7.26522">
        <ele>832.431679</ele>
        <time>2011-12-30T14:40:31Z</time>
      </trkpt>
      <trkpt lat="43.8438" lon="7.26512">
        <ele>830.431664</ele>
        <time>2011-12-30T14:40:34Z</time>
      </trkpt>
      <trkpt lat="43.84386" lon="7.26502">
        <ele>828.431652</ele>
        <time>2011-12-30T14:40:36Z</time>
      </trkpt>
      <trkpt lat="43.84393" lon="7.26491">
        <ele>826.431637</ele>
        <time>2011-12-30T14:40:38Z</time>
      </trkpt>
      <trkpt lat="43.84403" lon="7.26477">
        <ele>823.431625</ele>
        <time>2011-12-30T14:40:41Z</time>
      </trkpt>
      <trkpt lat="43.84412" lon="7.26465">
        <ele>822.43161</ele>
        <time>2011-12-30T14:40:44Z</time>
      </trkpt>
      <trkpt lat="43.84422" lon="7.26456">
        <ele>820.431602</ele>
        <time>2011-12-30T14:40:47Z</time>
      </trkpt>
      <trkpt lat="43.84432" lon="7.26448">
        <ele>819.431602</ele>
        <time>2011-12-30T14:40:50Z</time>
      </trkpt>
      <trkpt lat="43.84438" lon="7.26441">
        <ele>817.431595</ele>
        <time>2011-12-30T14:40:52Z</time>
      </trkpt>
      <trkpt lat="43.84445" lon="7.26431">
        <ele>815.431587</ele>
        <time>2011-12-30T14:40:56Z</time>
      </trkpt>
      <trkpt lat="43.84452" lon="7.26421">
        <ele>813.431572</ele>
        <time>2011-12-30T14:40:59Z</time>
      </trkpt>
      <trkpt lat="43.84458" lon="7.2641">
        <ele>811.431557</ele>
        <time>2011-12-30T14:41:02Z</time>
      </trkpt>
      <trkpt lat="43.84464" lon="7.264">
        <ele>810.431549</ele>
        <time>2011-12-30T14:41:05Z</time>
      </trkpt>
      <trkpt lat="43.84472" lon="7.26391">
        <ele>810.431538</ele>
        <time>2011-12-30T14:41:08Z</time>
      </trkpt>
      <trkpt lat="43.84479" lon="7.26384">
        <ele>809.431538</ele>
        <time>2011-12-30T14:41:11Z</time>
      </trkpt>
      <trkpt lat="43.84489" lon="7.26373">
        <ele>807.431526</ele>
        <time>2011-12-30T14:41:28Z</time>
      </trkpt>
      <trkpt lat="43.84519" lon="7.26354">
        <ele>794.431526</ele>
        <time>2011-12-30T14:43:15Z</time>
      </trkpt>
      <trkpt lat="43.84524" lon="7.2635">
        <ele>793.431519</ele>
        <time>2011-12-30T14:43:17Z</time>
      </trkpt>
      <trkpt lat="43.84534" lon="7.26337">
        <ele>793.431511</ele>
        <time>2011-12-30T14:43:21Z</time>
      </trkpt>
      <trkpt lat="43.84542" lon="7.26324">
        <ele>792.431496</ele>
        <time>2011-12-30T14:43:24Z</time>
      </trkpt>
      <trkpt lat="43.84551" lon="7.2631">
        <ele>791.43148</ele>
        <time>2011-12-30T14:43:27Z</time>
      </trkpt>
      <trkpt lat="43.84557" lon="7.26297">
        <ele>789.431461</ele>
        <time>2011-12-30T14:43:30Z</time>
      </trkpt>
      <trkpt lat="43.84559" lon="7.26293">
        <ele>789.431458</ele>
        <time>2011-12-30T14:43:31Z</time>
      </trkpt>
      <trkpt lat="43.84563" lon="7.26278">
        <ele>789.431427</ele>
        <time>2011-12-30T14:43:35Z</time>
      </trkpt>
      <trkpt lat="43.84567" lon="7.26263">
        <ele>789.431404</ele>
        <time>2011-12-30T14:43:39Z</time>
      </trkpt>
      <trkpt lat="43.84571" lon="7.26248">
        <ele>788.431377</ele>
        <time>2011-12-30T14:43:42Z</time>
      </trkpt>
      <trkpt lat="43.84572" lon="7.26243">
        <ele>788.431366</ele>
        <time>2011-12-30T14:43:43Z</time>
      </trkpt>
      <trkpt lat="43.84576" lon="7.26227">
        <ele>789.431339</ele>
        <time>2011-12-30T14:43:46Z</time>
      </trkpt>
      <trkpt lat="43.8458" lon="7.26212">
        <ele>789.431313</ele>
        <time>2011-12-30T14:43:49Z</time>
      </trkpt>
      <trkpt lat="43.84583" lon="7.26199">
        <ele>788.431293</ele>
        <time>2011-12-30T14:43:52Z</time>
      </trkpt>
      <trkpt lat="43.84588" lon="7.26188">
        <ele>788.431278</ele>
        <time>2011-12-30T14:43:55Z</time>
      </trkpt>
      <trkpt lat="43.84597" lon="7.26176">
        <ele>784.431267</ele>
        <time>2011-12-30T14:43:59Z</time>
      </trkpt>
      <trkpt lat="43.84606" lon="7.26147">
        <ele>775.431213</ele>
        <time>2011-12-30T14:44:09Z</time>
      </trkpt>
      <trkpt lat="43.84604" lon="7.26135">
        <ele>772.43119</ele>
        <time>2011-12-30T14:44:14Z</time>
      </trkpt>
      <trkpt lat="43.84599" lon="7.26125">
        <ele>767.43116</ele>
        <time>2011-12-30T14:44:20Z</time>
      </trkpt>
      <trkpt lat="43.84592" lon="7.26116">
        <ele>765.431129</ele>
        <time>2011-12-30T14:44:29Z</time>
      </trkpt>
      <trkpt lat="43.84582" lon="7.26113">
        <ele>764.43111</ele>
        <time>2011-12-30T14:44:37Z</time>
      </trkpt>
      <trkpt lat="43.84568" lon="7.26107">
        <ele>765.43108</ele>
        <time>2011-12-30T14:44:48Z</time>
      </trkpt>
      <trkpt lat="43.84558" lon="7.26103">
        <ele>765.431057</ele>
        <time>2011-12-30T14:44:54Z</time>
      </trkpt>
      <trkpt lat="43.84546" lon="7.26099">
        <ele>765.431034</ele>
        <time>2011-12-30T14:45:01Z</time>
      </trkpt>
      <trkpt lat="43.84533" lon="7.26092">
        <ele>766.431</ele>
        <time>2011-12-30T14:45:12Z</time>
      </trkpt>
      <trkpt lat="43.84524" lon="7.26085">
        <ele>767.430977</ele>
        <time>2011-12-30T14:45:18Z</time>
      </trkpt>
      <trkpt lat="43.84513" lon="7.26077">
        <ele>767.430946</ele>
        <time>2011-12-30T14:45:23Z</time>
      </trkpt>
      <trkpt lat="43.84503" lon="7.26073">
        <ele>768.430916</ele>
        <time>2011-12-30T14:45:27Z</time>
      </trkpt>
      <trkpt lat="43.84495" lon="7.26071">
        <ele>769.430904</ele>
        <time>2011-12-30T14:45:30Z</time>
      </trkpt>
      <trkpt lat="43.84486" lon="7.2607">
        <ele>770.430893</ele>
        <time>2011-12-30T14:45:33Z</time>
      </trkpt>
      <trkpt lat="43.84483" lon="7.26069">
        <ele>770.430885</ele>
        <time>2011-12-30T14:45:34Z</time>
      </trkpt>
      <trkpt lat="43.84472" lon="7.26066">
        <ele>770.430866</ele>
        <time>2011-12-30T14:45:37Z</time>
      </trkpt>
      <trkpt lat="43.84462" lon="7.26063">
        <ele>770.43084</ele>
        <time>2011-12-30T14:45:40Z</time>
      </trkpt>
      <trkpt lat="43.8445" lon="7.26061">
        <ele>771.430824</ele>
        <time>2011-12-30T14:45:43Z</time>
      </trkpt>
      <trkpt lat="43.8444" lon="7.2606">
        <ele>771.430805</ele>
        <time>2011-12-30T14:45:46Z</time>
      </trkpt>
      <trkpt lat="43.84431" lon="7.26058">
        <ele>771.430786</ele>
        <time>2011-12-30T14:45:50Z</time>
      </trkpt>
      <trkpt lat="43.84429" lon="7.26057">
        <ele>771.430786</ele>
        <time>2011-12-30T14:45:51Z</time>
      </trkpt>
      <trkpt lat="43.84416" lon="7.26059">
        <ele>773.430771</ele>
        <time>2011-12-30T14:46:18Z</time>
      </trkpt>
      <trkpt lat="43.84405" lon="7.26058">
        <ele>774.430752</ele>
        <time>2011-12-30T14:46:21Z</time>
      </trkpt>
      <trkpt lat="43.84391" lon="7.26055">
        <ele>775.430733</ele>
        <time>2011-12-30T14:46:24Z</time>
      </trkpt>
      <trkpt lat="43.84381" lon="7.26053">
        <ele>776.430714</ele>
        <time>2011-12-30T14:46:26Z</time>
      </trkpt>
      <trkpt lat="43.84371" lon="7.26052">
        <ele>777.430695</ele>
        <time>2011-12-30T14:46:28Z</time>
      </trkpt>
      <trkpt lat="43.84361" lon="7.2605">
        <ele>777.430679</ele>
        <time>2011-12-30T14:46:30Z</time>
      </trkpt>
      <trkpt lat="43.84347" lon="7.26049">
        <ele>778.430656</ele>
        <time>2011-12-30T14:46:33Z</time>
      </trkpt>
      <trkpt lat="43.8433" lon="7.2605">
        <ele>779.430634</ele>
        <time>2011-12-30T14:46:36Z</time>
      </trkpt>
      <trkpt lat="43.84316" lon="7.26052">
        <ele>779.430618</ele>
        <time>2011-12-30T14:46:38Z</time>
      </trkpt>
      <trkpt lat="43.84305" lon="7.26054">
        <ele>779.430611</ele>
        <time>2011-12-30T14:46:40Z</time>
      </trkpt>
      <trkpt lat="43.84295" lon="7.26058">
        <ele>779.430603</ele>
        <time>2011-12-30T14:46:43Z</time>
      </trkpt>
      <trkpt lat="43.84282" lon="7.26064">
        <ele>779.430599</ele>
        <time>2011-12-30T14:46:46Z</time>
      </trkpt>
      <trkpt lat="43.84271" lon="7.2607">
        <ele>778.430595</ele>
        <time>2011-12-30T14:46:48Z</time>
      </trkpt>
      <trkpt lat="43.84261" lon="7.26074">
        <ele>777.430592</ele>
        <time>2011-12-30T14:46:50Z</time>
      </trkpt>
      <trkpt lat="43.84251" lon="7.26078">
        <ele>777.430588</ele>
        <time>2011-12-30T14:46:52Z</time>
      </trkpt>
      <trkpt lat="43.84238" lon="7.26079">
        <ele>777.430573</ele>
        <time>2011-12-30T14:46:54Z</time>
      </trkpt>
      <trkpt lat="43.84229" lon="7.2608">
        <ele>776.430557</ele>
        <time>2011-12-30T14:46:56Z</time>
      </trkpt>
      <trkpt lat="43.84219" lon="7.26081">
        <ele>775.43055</ele>
        <time>2011-12-30T14:46:58Z</time>
      </trkpt>
      <trkpt lat="43.84209" lon="7.26083">
        <ele>774.430542</ele>
        <time>2011-12-30T14:47:00Z</time>
      </trkpt>
      <trkpt lat="43.84197" lon="7.26086">
        <ele>773.430527</ele>
        <time>2011-12-30T14:47:02Z</time>
      </trkpt>
      <trkpt lat="43.84186" lon="7.26089">
        <ele>771.430519</ele>
        <time>2011-12-30T14:47:04Z</time>
      </trkpt>
      <trkpt lat="43.8418" lon="7.2609">
        <ele>770.430511</ele>
        <time>2011-12-30T14:47:05Z</time>
      </trkpt>
      <trkpt lat="43.84171" lon="7.26092">
        <ele>769.430504</ele>
        <time>2011-12-30T14:47:07Z</time>
      </trkpt>
      <trkpt lat="43.84154" lon="7.261">
        <ele>768.430496</ele>
        <time>2011-12-30T14:47:15Z</time>
      </trkpt>
      <trkpt lat="43.84143" lon="7.26107">
        <ele>765.430496</ele>
        <time>2011-12-30T14:47:22Z</time>
      </trkpt>
      <trkpt lat="43.84135" lon="7.26114">
        <ele>750.430504</ele>
        <time>2011-12-30T14:47:34Z</time>
      </trkpt>
      <trkpt lat="43.84126" lon="7.26114">
        <ele>740.430489</ele>
        <time>2011-12-30T14:48:18Z</time>
      </trkpt>
      <trkpt lat="43.84115" lon="7.26106">
        <ele>736.430458</ele>
        <time>2011-12-30T14:49:26Z</time>
      </trkpt>
      <trkpt lat="43.84105" lon="7.26102">
        <ele>736.430435</ele>
        <time>2011-12-30T14:49:29Z</time>
      </trkpt>
      <trkpt lat="43.841" lon="7.26101">
        <ele>736.430428</ele>
        <time>2011-12-30T14:49:30Z</time>
      </trkpt>
      <trkpt lat="43.8409" lon="7.261">
        <ele>735.430408</ele>
        <time>2011-12-30T14:49:32Z</time>
      </trkpt>
      <trkpt lat="43.84078" lon="7.26099">
        <ele>734.430393</ele>
        <time>2011-12-30T14:49:34Z</time>
      </trkpt>
      <trkpt lat="43.84068" lon="7.26099">
        <ele>733.430382</ele>
        <time>2011-12-30T14:49:36Z</time>
      </trkpt>
      <trkpt lat="43.84054" lon="7.26098">
        <ele>732.430359</ele>
        <time>2011-12-30T14:49:39Z</time>
      </trkpt>
      <trkpt lat="43.84044" lon="7.26098">
        <ele>731.430344</ele>
        <time>2011-12-30T14:49:41Z</time>
      </trkpt>
      <trkpt lat="43.84035" lon="7.26097">
        <ele>730.430328</ele>
        <time>2011-12-30T14:49:43Z</time>
      </trkpt>
      <trkpt lat="43.84022" lon="7.26094">
        <ele>728.430305</ele>
        <time>2011-12-30T14:49:45Z</time>
      </trkpt>
      <trkpt lat="43.84001" lon="7.26084">
        <ele>724.430256</ele>
        <time>2011-12-30T14:50:02Z</time>
      </trkpt>
      <trkpt lat="43.8399" lon="7.26083">
        <ele>710.430241</ele>
        <time>2011-12-30T14:51:24Z</time>
      </trkpt>
      <trkpt lat="43.83983" lon="7.26077">
        <ele>702.430214</ele>
        <time>2011-12-30T14:57:20Z</time>
      </trkpt>
      <trkpt lat="43.83992" lon="7.26076">
        <ele>698.430229</ele>
        <time>2011-12-30T15:06:15Z</time>
      </trkpt>
      <trkpt lat="43.83992" lon="7.26076">
        <ele>698.430229</ele>
        <time>2011-12-30T15:06:16Z</time>
      </trkpt>
      <trkpt lat="43.83984" lon="7.26082">
        <ele>710.430229</ele>
        <time>2011-12-30T15:08:35Z</time>
      </trkpt>
      <trkpt lat="43.83992" lon="7.26076">
        <ele>675.430229</ele>
        <time>2011-12-30T15:11:36Z</time>
      </trkpt>
      <trkpt lat="43.83991" lon="7.26075">
        <ele>673.430222</ele>
        <time>2011-12-30T15:11:43Z</time>
      </trkpt>
      <trkpt lat="43.83987" lon="7.26086">
        <ele>690.430237</ele>
        <time>2011-12-30T15:15:47Z</time>
      </trkpt>
      <trkpt lat="43.83987" lon="7.26087">
        <ele>690.430244</ele>
        <time>2011-12-30T15:15:48Z</time>
      </trkpt>
      <trkpt lat="43.83983" lon="7.26075">
        <ele>690.43021</ele>
        <time>2011-12-30T15:22:27Z</time>
      </trkpt>
      <trkpt lat="43.8398" lon="7.26062">
        <ele>690.430183</ele>
        <time>2011-12-30T15:22:32Z</time>
      </trkpt>
      <trkpt lat="43.83973" lon="7.26052">
        <ele>690.430149</ele>
        <time>2011-12-30T15:22:36Z</time>
      </trkpt>
      <trkpt lat="43.83971" lon="7.26049">
        <ele>691.430145</ele>
        <time>2011-12-30T15:22:37Z</time>
      </trkpt>
      <trkpt lat="43.83965" lon="7.26033">
        <ele>692.430099</ele>
        <time>2011-12-30T15:22:41Z</time>
      </trkpt>
      <trkpt lat="43.83961" lon="7.26014">
        <ele>692.430054</ele>
        <time>2011-12-30T15:22:45Z</time>
      </trkpt>
      <trkpt lat="43.83958" lon="7.26">
        <ele>693.430023</ele>
        <time>2011-12-30T15:22:48Z</time>
      </trkpt>
      <trkpt lat="43.83957" lon="7.25988">
        <ele>694.43</ele>
        <time>2011-12-30T15:22:50Z</time>
      </trkpt>
      <trkpt lat="43.83958" lon="7.25974">
        <ele>694.42997</ele>
        <time>2011-12-30T15:22:53Z</time>
      </trkpt>
      <trkpt lat="43.83959" lon="7.2596">
        <ele>694.429939</ele>
        <time>2011-12-30T15:22:59Z</time>
      </trkpt>
      <trkpt lat="43.8396" lon="7.25945">
        <ele>693.429909</ele>
        <time>2011-12-30T15:23:10Z</time>
      </trkpt>
      <trkpt lat="43.83958" lon="7.25933">
        <ele>693.429886</ele>
        <time>2011-12-30T15:23:13Z</time>
      </trkpt>
      <trkpt lat="43.83952" lon="7.25918">
        <ele>695.429844</ele>
        <time>2011-12-30T15:23:20Z</time>
      </trkpt>
      <trkpt lat="43.83943" lon="7.2591">
        <ele>696.429817</ele>
        <time>2011-12-30T15:23:23Z</time>
      </trkpt>
      <trkpt lat="43.83934" lon="7.25902">
        <ele>696.429787</ele>
        <time>2011-12-30T15:23:26Z</time>
      </trkpt>
      <trkpt lat="43.83928" lon="7.25893">
        <ele>696.42976</ele>
        <time>2011-12-30T15:23:29Z</time>
      </trkpt>
      <trkpt lat="43.83923" lon="7.25881">
        <ele>695.429729</ele>
        <time>2011-12-30T15:23:34Z</time>
      </trkpt>
      <trkpt lat="43.83922" lon="7.25867">
        <ele>693.429695</ele>
        <time>2011-12-30T15:23:38Z</time>
      </trkpt>
      <trkpt lat="43.8392" lon="7.25851">
        <ele>690.429657</ele>
        <time>2011-12-30T15:23:42Z</time>
      </trkpt>
      <trkpt lat="43.8392" lon="7.25835">
        <ele>688.429626</ele>
        <time>2011-12-30T15:23:45Z</time>
      </trkpt>
      <trkpt lat="43.83921" lon="7.2582">
        <ele>687.429596</ele>
        <time>2011-12-30T15:23:48Z</time>
      </trkpt>
      <trkpt lat="43.83922" lon="7.25807">
        <ele>687.429573</ele>
        <time>2011-12-30T15:23:51Z</time>
      </trkpt>
      <trkpt lat="43.83926" lon="7.25792">
        <ele>686.429546</ele>
        <time>2011-12-30T15:23:56Z</time>
      </trkpt>
      <trkpt lat="43.83933" lon="7.25778">
        <ele>686.429527</ele>
        <time>2011-12-30T15:23:59Z</time>
      </trkpt>
      <trkpt lat="43.83938" lon="7.25759">
        <ele>687.429497</ele>
        <time>2011-12-30T15:24:04Z</time>
      </trkpt>
      <trkpt lat="43.83938" lon="7.25755">
        <ele>688.429489</ele>
        <time>2011-12-30T15:24:06Z</time>
      </trkpt>
      <trkpt lat="43.83933" lon="7.25744">
        <ele>688.429459</ele>
        <time>2011-12-30T15:24:12Z</time>
      </trkpt>
      <trkpt lat="43.83927" lon="7.25733">
        <ele>689.429424</ele>
        <time>2011-12-30T15:24:18Z</time>
      </trkpt>
      <trkpt lat="43.83919" lon="7.25724">
        <ele>691.429394</ele>
        <time>2011-12-30T15:24:24Z</time>
      </trkpt>
      <trkpt lat="43.8391" lon="7.25715">
        <ele>691.429367</ele>
        <time>2011-12-30T15:24:29Z</time>
      </trkpt>
      <trkpt lat="43.83902" lon="7.25708">
        <ele>691.42934</ele>
        <time>2011-12-30T15:24:31Z</time>
      </trkpt>
      <trkpt lat="43.83892" lon="7.25702">
        <ele>692.429314</ele>
        <time>2011-12-30T15:24:33Z</time>
      </trkpt>
      <trkpt lat="43.83882" lon="7.25697">
        <ele>693.429287</ele>
        <time>2011-12-30T15:24:35Z</time>
      </trkpt>
      <trkpt lat="43.83871" lon="7.25693">
        <ele>693.429264</ele>
        <time>2011-12-30T15:24:37Z</time>
      </trkpt>
      <trkpt lat="43.83862" lon="7.25688">
        <ele>695.429241</ele>
        <time>2011-12-30T15:24:39Z</time>
      </trkpt>
      <trkpt lat="43.83849" lon="7.25685">
        <ele>696.429214</ele>
        <time>2011-12-30T15:24:42Z</time>
      </trkpt>
      <trkpt lat="43.83838" lon="7.25683">
        <ele>697.429199</ele>
        <time>2011-12-30T15:24:45Z</time>
      </trkpt>
      <trkpt lat="43.83834" lon="7.25682">
        <ele>697.429192</ele>
        <time>2011-12-30T15:24:46Z</time>
      </trkpt>
      <trkpt lat="43.83822" lon="7.25682">
        <ele>697.429173</ele>
        <time>2011-12-30T15:24:49Z</time>
      </trkpt>
      <trkpt lat="43.83819" lon="7.25681">
        <ele>697.429169</ele>
        <time>2011-12-30T15:24:50Z</time>
      </trkpt>
      <trkpt lat="43.83797" lon="7.25677">
        <ele>698.429131</ele>
        <time>2011-12-30T15:25:02Z</time>
      </trkpt>
      <trkpt lat="43.83786" lon="7.25674">
        <ele>698.429108</ele>
        <time>2011-12-30T15:25:05Z</time>
      </trkpt>
      <trkpt lat="43.83778" lon="7.25672">
        <ele>698.429092</ele>
        <time>2011-12-30T15:25:07Z</time>
      </trkpt>
      <trkpt lat="43.83766" lon="7.25666">
        <ele>699.429062</ele>
        <time>2011-12-30T15:25:10Z</time>
      </trkpt>
      <trkpt lat="43.83758" lon="7.25662">
        <ele>699.429047</ele>
        <time>2011-12-30T15:25:12Z</time>
      </trkpt>
      <trkpt lat="43.83749" lon="7.25656">
        <ele>699.429024</ele>
        <time>2011-12-30T15:25:15Z</time>
      </trkpt>
      <trkpt lat="43.83739" lon="7.2565">
        <ele>700.428993</ele>
        <time>2011-12-30T15:25:21Z</time>
      </trkpt>
      <trkpt lat="43.83729" lon="7.25646">
        <ele>701.42897</ele>
        <time>2011-12-30T15:25:26Z</time>
      </trkpt>
      <trkpt lat="43.8372" lon="7.25642">
        <ele>701.428947</ele>
        <time>2011-12-30T15:25:30Z</time>
      </trkpt>
      <trkpt lat="43.8371" lon="7.25635">
        <ele>702.428925</ele>
        <time>2011-12-30T15:25:33Z</time>
      </trkpt>
      <trkpt lat="43.837" lon="7.25623">
        <ele>699.428883</ele>
        <time>2011-12-30T15:25:55Z</time>
      </trkpt>
      <trkpt lat="43.83699" lon="7.25608">
        <ele>696.428856</ele>
        <time>2011-12-30T15:26:25Z</time>
      </trkpt>
      <trkpt lat="43.83699" lon="7.25596">
        <ele>697.428825</ele>
        <time>2011-12-30T15:26:27Z</time>
      </trkpt>
      <trkpt lat="43.83699" lon="7.25582">
        <ele>697.428795</ele>
        <time>2011-12-30T15:26:29Z</time>
      </trkpt>
      <trkpt lat="43.83706" lon="7.2557">
        <ele>696.42878</ele>
        <time>2011-12-30T15:26:31Z</time>
      </trkpt>
      <trkpt lat="43.83712" lon="7.25559">
        <ele>697.428768</ele>
        <time>2011-12-30T15:26:33Z</time>
      </trkpt>
      <trkpt lat="43.83719" lon="7.25549">
        <ele>697.428757</ele>
        <time>2011-12-30T15:26:35Z</time>
      </trkpt>
      <trkpt lat="43.83722" lon="7.25544">
        <ele>697.428749</ele>
        <time>2011-12-30T15:26:36Z</time>
      </trkpt>
      <trkpt lat="43.83729" lon="7.25535">
        <ele>697.428741</ele>
        <time>2011-12-30T15:26:38Z</time>
      </trkpt>
      <trkpt lat="43.83735" lon="7.25525">
        <ele>697.428726</ele>
        <time>2011-12-30T15:26:40Z</time>
      </trkpt>
      <trkpt lat="43.83742" lon="7.25502">
        <ele>695.428688</ele>
        <time>2011-12-30T15:26:50Z</time>
      </trkpt>
      <trkpt lat="43.83736" lon="7.25493">
        <ele>695.428665</ele>
        <time>2011-12-30T15:26:52Z</time>
      </trkpt>
      <trkpt lat="43.83732" lon="7.25477">
        <ele>693.428627</ele>
        <time>2011-12-30T15:27:00Z</time>
      </trkpt>
      <trkpt lat="43.83734" lon="7.25465">
        <ele>691.428596</ele>
        <time>2011-12-30T15:27:07Z</time>
      </trkpt>
      <trkpt lat="43.83724" lon="7.25429">
        <ele>682.428513</ele>
        <time>2011-12-30T15:27:34Z</time>
      </trkpt>
      <trkpt lat="43.83714" lon="7.25393">
        <ele>679.428429</ele>
        <time>2011-12-30T15:27:44Z</time>
      </trkpt>
      <trkpt lat="43.83709" lon="7.25349">
        <ele>675.428329</ele>
        <time>2011-12-30T15:27:55Z</time>
      </trkpt>
      <trkpt lat="43.83712" lon="7.25336">
        <ele>675.428307</ele>
        <time>2011-12-30T15:27:57Z</time>
      </trkpt>
      <trkpt lat="43.83716" lon="7.25323">
        <ele>674.42828</ele>
        <time>2011-12-30T15:27:59Z</time>
      </trkpt>
      <trkpt lat="43.83719" lon="7.25311">
        <ele>673.428261</ele>
        <time>2011-12-30T15:28:01Z</time>
      </trkpt>
      <trkpt lat="43.83726" lon="7.25289">
        <ele>672.428223</ele>
        <time>2011-12-30T15:28:05Z</time>
      </trkpt>
      <trkpt lat="43.83731" lon="7.25275">
        <ele>671.428204</ele>
        <time>2011-12-30T15:28:08Z</time>
      </trkpt>
      <trkpt lat="43.83734" lon="7.2526">
        <ele>670.428177</ele>
        <time>2011-12-30T15:28:11Z</time>
      </trkpt>
      <trkpt lat="43.83741" lon="7.2525">
        <ele>669.428162</ele>
        <time>2011-12-30T15:28:13Z</time>
      </trkpt>
      <trkpt lat="43.83735" lon="7.25237">
        <ele>667.428131</ele>
        <time>2011-12-30T15:28:15Z</time>
      </trkpt>
      <trkpt lat="43.83736" lon="7.25223">
        <ele>666.428101</ele>
        <time>2011-12-30T15:28:17Z</time>
      </trkpt>
      <trkpt lat="43.83736" lon="7.25208">
        <ele>665.42807</ele>
        <time>2011-12-30T15:28:19Z</time>
      </trkpt>
      <trkpt lat="43.83737" lon="7.25191">
        <ele>664.428032</ele>
        <time>2011-12-30T15:28:22Z</time>
      </trkpt>
      <trkpt lat="43.83735" lon="7.25183">
        <ele>663.428017</ele>
        <time>2011-12-30T15:28:23Z</time>
      </trkpt>
      <trkpt lat="43.83733" lon="7.2517">
        <ele>662.427986</ele>
        <time>2011-12-30T15:28:25Z</time>
      </trkpt>
      <trkpt lat="43.83731" lon="7.25146">
        <ele>660.427933</ele>
        <time>2011-12-30T15:28:29Z</time>
      </trkpt>
      <trkpt lat="43.83727" lon="7.25123">
        <ele>658.427879</ele>
        <time>2011-12-30T15:28:32Z</time>
      </trkpt>
      <trkpt lat="43.83721" lon="7.2511">
        <ele>657.427841</ele>
        <time>2011-12-30T15:28:34Z</time>
      </trkpt>
      <trkpt lat="43.83714" lon="7.25092">
        <ele>653.427799</ele>
        <time>2011-12-30T15:28:38Z</time>
      </trkpt>
      <trkpt lat="43.83712" lon="7.2508">
        <ele>650.427773</ele>
        <time>2011-12-30T15:28:41Z</time>
      </trkpt>
      <trkpt lat="43.83689" lon="7.2505">
        <ele>640.427677</ele>
        <time>2011-12-30T15:28:58Z</time>
      </trkpt>
      <trkpt lat="43.83689" lon="7.2505">
        <ele>640.427677</ele>
        <time>2011-12-30T15:28:59Z</time>
      </trkpt>
      <trkpt lat="43.83684" lon="7.25037">
        <ele>635.427643</ele>
        <time>2011-12-30T15:29:04Z</time>
      </trkpt>
      <trkpt lat="43.83686" lon="7.25025">
        <ele>634.42762</ele>
        <time>2011-12-30T15:29:07Z</time>
      </trkpt>
      <trkpt lat="43.83675" lon="7.24989">
        <ele>624.427528</ele>
        <time>2011-12-30T15:29:24Z</time>
      </trkpt>
      <trkpt lat="43.83668" lon="7.24974">
        <ele>615.427486</ele>
        <time>2011-12-30T15:29:40Z</time>
      </trkpt>
      <trkpt lat="43.83643" lon="7.24957">
        <ele>601.427422</ele>
        <time>2011-12-30T15:30:37Z</time>
      </trkpt>
      <trkpt lat="43.83638" lon="7.24947">
        <ele>598.427391</ele>
        <time>2011-12-30T15:30:43Z</time>
      </trkpt>
      <trkpt lat="43.8363" lon="7.24902">
        <ele>573.427284</ele>
        <time>2011-12-30T15:31:53Z</time>
      </trkpt>
      <trkpt lat="43.83615" lon="7.24862">
        <ele>571.427185</ele>
        <time>2011-12-30T15:32:01Z</time>
      </trkpt>
      <trkpt lat="43.83601" lon="7.24847">
        <ele>567.427132</ele>
        <time>2011-12-30T15:32:13Z</time>
      </trkpt>
      <trkpt lat="43.8359" lon="7.2485">
        <ele>564.427124</ele>
        <time>2011-12-30T15:32:18Z</time>
      </trkpt>
      <trkpt lat="43.83582" lon="7.24858">
        <ele>559.427124</ele>
        <time>2011-12-30T15:32:28Z</time>
      </trkpt>
      <trkpt lat="43.83581" lon="7.24829">
        <ele>549.427067</ele>
        <time>2011-12-30T15:33:13Z</time>
      </trkpt>
      <trkpt lat="43.83585" lon="7.24815">
        <ele>548.427044</ele>
        <time>2011-12-30T15:33:16Z</time>
      </trkpt>
      <trkpt lat="43.83589" lon="7.24802">
        <ele>547.427021</ele>
        <time>2011-12-30T15:33:18Z</time>
      </trkpt>
      <trkpt lat="43.83593" lon="7.24791">
        <ele>547.427002</ele>
        <time>2011-12-30T15:33:20Z</time>
      </trkpt>
      <trkpt lat="43.83596" lon="7.24782">
        <ele>546.426991</ele>
        <time>2011-12-30T15:33:22Z</time>
      </trkpt>
      <trkpt lat="43.83598" lon="7.24768">
        <ele>544.426964</ele>
        <time>2011-12-30T15:33:27Z</time>
      </trkpt>
      <trkpt lat="43.83603" lon="7.24746">
        <ele>542.426922</ele>
        <time>2011-12-30T15:33:32Z</time>
      </trkpt>
      <trkpt lat="43.83613" lon="7.24694">
        <ele>535.426826</ele>
        <time>2011-12-30T15:33:44Z</time>
      </trkpt>
      <trkpt lat="43.83631" lon="7.24659">
        <ele>533.426781</ele>
        <time>2011-12-30T15:33:49Z</time>
      </trkpt>
      <trkpt lat="43.8364" lon="7.24647">
        <ele>532.426773</ele>
        <time>2011-12-30T15:33:51Z</time>
      </trkpt>
      <trkpt lat="43.83647" lon="7.24641">
        <ele>531.426765</ele>
        <time>2011-12-30T15:33:52Z</time>
      </trkpt>
      <trkpt lat="43.83658" lon="7.24631">
        <ele>530.426762</ele>
        <time>2011-12-30T15:33:54Z</time>
      </trkpt>
      <trkpt lat="43.83672" lon="7.24626">
        <ele>530.426765</ele>
        <time>2011-12-30T15:33:56Z</time>
      </trkpt>
      <trkpt lat="43.83689" lon="7.24624">
        <ele>529.426788</ele>
        <time>2011-12-30T15:33:58Z</time>
      </trkpt>
      <trkpt lat="43.83705" lon="7.24624">
        <ele>528.426811</ele>
        <time>2011-12-30T15:34:00Z</time>
      </trkpt>
      <trkpt lat="43.83718" lon="7.24622">
        <ele>527.426826</ele>
        <time>2011-12-30T15:34:02Z</time>
      </trkpt>
      <trkpt lat="43.83728" lon="7.24624">
        <ele>527.426842</ele>
        <time>2011-12-30T15:34:04Z</time>
      </trkpt>
      <trkpt lat="43.83739" lon="7.24626">
        <ele>527.426865</ele>
        <time>2011-12-30T15:34:06Z</time>
      </trkpt>
      <trkpt lat="43.8375" lon="7.24629">
        <ele>527.426884</ele>
        <time>2011-12-30T15:34:08Z</time>
      </trkpt>
      <trkpt lat="43.83762" lon="7.24631">
        <ele>527.426903</ele>
        <time>2011-12-30T15:34:10Z</time>
      </trkpt>
      <trkpt lat="43.83774" lon="7.24633">
        <ele>527.426926</ele>
        <time>2011-12-30T15:34:12Z</time>
      </trkpt>
      <trkpt lat="43.83785" lon="7.24635">
        <ele>527.426941</ele>
        <time>2011-12-30T15:34:14Z</time>
      </trkpt>
      <trkpt lat="43.83796" lon="7.24634">
        <ele>527.42696</ele>
        <time>2011-12-30T15:34:16Z</time>
      </trkpt>
      <trkpt lat="43.83808" lon="7.24633">
        <ele>527.426975</ele>
        <time>2011-12-30T15:34:18Z</time>
      </trkpt>
      <trkpt lat="43.83817" lon="7.24631">
        <ele>527.426979</ele>
        <time>2011-12-30T15:34:20Z</time>
      </trkpt>
      <trkpt lat="43.83827" lon="7.24628">
        <ele>527.426987</ele>
        <time>2011-12-30T15:34:22Z</time>
      </trkpt>
      <trkpt lat="43.83838" lon="7.24624">
        <ele>527.426994</ele>
        <time>2011-12-30T15:34:24Z</time>
      </trkpt>
      <trkpt lat="43.83847" lon="7.24618">
        <ele>527.426994</ele>
        <time>2011-12-30T15:34:26Z</time>
      </trkpt>
      <trkpt lat="43.83857" lon="7.24611">
        <ele>526.426994</ele>
        <time>2011-12-30T15:34:28Z</time>
      </trkpt>
      <trkpt lat="43.83866" lon="7.24603">
        <ele>526.426994</ele>
        <time>2011-12-30T15:34:30Z</time>
      </trkpt>
      <trkpt lat="43.83876" lon="7.24596">
        <ele>527.426987</ele>
        <time>2011-12-30T15:34:32Z</time>
      </trkpt>
      <trkpt lat="43.83886" lon="7.24589">
        <ele>528.426987</ele>
        <time>2011-12-30T15:34:34Z</time>
      </trkpt>
      <trkpt lat="43.83895" lon="7.24582">
        <ele>528.426979</ele>
        <time>2011-12-30T15:34:36Z</time>
      </trkpt>
      <trkpt lat="43.83899" lon="7.24578">
        <ele>527.426987</ele>
        <time>2011-12-30T15:34:37Z</time>
      </trkpt>
      <trkpt lat="43.83909" lon="7.24571">
        <ele>527.426983</ele>
        <time>2011-12-30T15:34:39Z</time>
      </trkpt>
      <trkpt lat="43.83918" lon="7.24564">
        <ele>527.426979</ele>
        <time>2011-12-30T15:34:41Z</time>
      </trkpt>
      <trkpt lat="43.83927" lon="7.24557">
        <ele>528.426971</ele>
        <time>2011-12-30T15:34:43Z</time>
      </trkpt>
      <trkpt lat="43.83936" lon="7.2455">
        <ele>527.426979</ele>
        <time>2011-12-30T15:34:45Z</time>
      </trkpt>
      <trkpt lat="43.83945" lon="7.24544">
        <ele>527.426971</ele>
        <time>2011-12-30T15:34:47Z</time>
      </trkpt>
      <trkpt lat="43.83954" lon="7.24539">
        <ele>527.426979</ele>
        <time>2011-12-30T15:34:49Z</time>
      </trkpt>
      <trkpt lat="43.83964" lon="7.24534">
        <ele>527.426987</ele>
        <time>2011-12-30T15:34:51Z</time>
      </trkpt>
      <trkpt lat="43.83976" lon="7.24537">
        <ele>528.427002</ele>
        <time>2011-12-30T15:34:54Z</time>
      </trkpt>
      <trkpt lat="43.83987" lon="7.24539">
        <ele>529.427025</ele>
        <time>2011-12-30T15:34:57Z</time>
      </trkpt>
      <trkpt lat="43.83997" lon="7.24543">
        <ele>530.42704</ele>
        <time>2011-12-30T15:35:00Z</time>
      </trkpt>
      <trkpt lat="43.84003" lon="7.24546">
        <ele>530.427063</ele>
        <time>2011-12-30T15:35:02Z</time>
      </trkpt>
      <trkpt lat="43.84011" lon="7.24551">
        <ele>532.427078</ele>
        <time>2011-12-30T15:35:05Z</time>
      </trkpt>
      <trkpt lat="43.84021" lon="7.24556">
        <ele>533.427101</ele>
        <time>2011-12-30T15:35:08Z</time>
      </trkpt>
      <trkpt lat="43.84029" lon="7.24562">
        <ele>535.427128</ele>
        <time>2011-12-30T15:35:12Z</time>
      </trkpt>
      <trkpt lat="43.84038" lon="7.24567">
        <ele>540.427151</ele>
        <time>2011-12-30T15:35:22Z</time>
      </trkpt>
      <trkpt lat="43.84047" lon="7.24562">
        <ele>540.427155</ele>
        <time>2011-12-30T15:35:33Z</time>
      </trkpt>
      <trkpt lat="43.84058" lon="7.24552">
        <ele>542.427147</ele>
        <time>2011-12-30T15:35:44Z</time>
      </trkpt>
      <trkpt lat="43.8408" lon="7.24527">
        <ele>541.427128</ele>
        <time>2011-12-30T15:35:55Z</time>
      </trkpt>
      <trkpt lat="43.84089" lon="7.24517">
        <ele>541.42712</ele>
        <time>2011-12-30T15:35:58Z</time>
      </trkpt>
      <trkpt lat="43.84097" lon="7.24509">
        <ele>541.427109</ele>
        <time>2011-12-30T15:36:03Z</time>
      </trkpt>
      <trkpt lat="43.84106" lon="7.245">
        <ele>541.427101</ele>
        <time>2011-12-30T15:36:07Z</time>
      </trkpt>
      <trkpt lat="43.84117" lon="7.24492">
        <ele>541.427101</ele>
        <time>2011-12-30T15:36:11Z</time>
      </trkpt>
      <trkpt lat="43.84126" lon="7.24485">
        <ele>541.427101</ele>
        <time>2011-12-30T15:36:15Z</time>
      </trkpt>
      <trkpt lat="43.84138" lon="7.24474">
        <ele>541.427094</ele>
        <time>2011-12-30T15:36:23Z</time>
      </trkpt>
      <trkpt lat="43.84158" lon="7.24444">
        <ele>545.427063</ele>
        <time>2011-12-30T15:36:35Z</time>
      </trkpt>
      <trkpt lat="43.84166" lon="7.24434">
        <ele>545.427052</ele>
        <time>2011-12-30T15:36:38Z</time>
      </trkpt>
      <trkpt lat="43.84181" lon="7.24416">
        <ele>544.427032</ele>
        <time>2011-12-30T15:36:43Z</time>
      </trkpt>
      <trkpt lat="43.84184" lon="7.24412">
        <ele>544.427032</ele>
        <time>2011-12-30T15:36:44Z</time>
      </trkpt>
      <trkpt lat="43.84193" lon="7.24404">
        <ele>545.427025</ele>
        <time>2011-12-30T15:36:47Z</time>
      </trkpt>
      <trkpt lat="43.84199" lon="7.24399">
        <ele>545.427017</ele>
        <time>2011-12-30T15:36:49Z</time>
      </trkpt>
      <trkpt lat="43.84209" lon="7.24391">
        <ele>545.427025</ele>
        <time>2011-12-30T15:36:52Z</time>
      </trkpt>
      <trkpt lat="43.84243" lon="7.24368">
        <ele>546.427017</ele>
        <time>2011-12-30T15:37:02Z</time>
      </trkpt>
      <trkpt lat="43.84255" lon="7.2436">
        <ele>546.427017</ele>
        <time>2011-12-30T15:37:05Z</time>
      </trkpt>
      <trkpt lat="43.84281" lon="7.24348">
        <ele>546.427032</ele>
        <time>2011-12-30T15:37:15Z</time>
      </trkpt>
      <trkpt lat="43.84304" lon="7.24327">
        <ele>547.427021</ele>
        <time>2011-12-30T15:37:23Z</time>
      </trkpt>
      <trkpt lat="43.84313" lon="7.2432">
        <ele>547.427017</ele>
        <time>2011-12-30T15:37:25Z</time>
      </trkpt>
      <trkpt lat="43.84319" lon="7.2431">
        <ele>548.427002</ele>
        <time>2011-12-30T15:37:27Z</time>
      </trkpt>
      <trkpt lat="43.84325" lon="7.243">
        <ele>548.426994</ele>
        <time>2011-12-30T15:37:29Z</time>
      </trkpt>
      <trkpt lat="43.84333" lon="7.24287">
        <ele>549.426979</ele>
        <time>2011-12-30T15:37:32Z</time>
      </trkpt>
      <trkpt lat="43.84355" lon="7.24254">
        <ele>553.426941</ele>
        <time>2011-12-30T15:37:41Z</time>
      </trkpt>
      <trkpt lat="43.84371" lon="7.24221">
        <ele>555.426895</ele>
        <time>2011-12-30T15:37:47Z</time>
      </trkpt>
      <trkpt lat="43.84382" lon="7.24196">
        <ele>556.426857</ele>
        <time>2011-12-30T15:37:51Z</time>
      </trkpt>
      <trkpt lat="43.84389" lon="7.24186">
        <ele>556.426842</ele>
        <time>2011-12-30T15:37:53Z</time>
      </trkpt>
      <trkpt lat="43.84397" lon="7.24175">
        <ele>556.42683</ele>
        <time>2011-12-30T15:37:55Z</time>
      </trkpt>
      <trkpt lat="43.84405" lon="7.24157">
        <ele>558.426804</ele>
        <time>2011-12-30T15:37:58Z</time>
      </trkpt>
      <trkpt lat="43.84414" lon="7.24144">
        <ele>559.426788</ele>
        <time>2011-12-30T15:38:00Z</time>
      </trkpt>
      <trkpt lat="43.84423" lon="7.24136">
        <ele>559.426788</ele>
        <time>2011-12-30T15:38:02Z</time>
      </trkpt>
      <trkpt lat="43.84431" lon="7.24129">
        <ele>559.426781</ele>
        <time>2011-12-30T15:38:04Z</time>
      </trkpt>
      <trkpt lat="43.8444" lon="7.24123">
        <ele>559.426781</ele>
        <time>2011-12-30T15:38:07Z</time>
      </trkpt>
      <trkpt lat="43.84448" lon="7.24116">
        <ele>560.426781</ele>
        <time>2011-12-30T15:38:09Z</time>
      </trkpt>
      <trkpt lat="43.84458" lon="7.24106">
        <ele>560.426773</ele>
        <time>2011-12-30T15:38:12Z</time>
      </trkpt>
      <trkpt lat="43.84466" lon="7.241">
        <ele>560.426773</ele>
        <time>2011-12-30T15:38:14Z</time>
      </trkpt>
      <trkpt lat="43.84476" lon="7.24094">
        <ele>561.426773</ele>
        <time>2011-12-30T15:38:16Z</time>
      </trkpt>
      <trkpt lat="43.84484" lon="7.24088">
        <ele>561.426765</ele>
        <time>2011-12-30T15:38:18Z</time>
      </trkpt>
      <trkpt lat="43.84495" lon="7.24077">
        <ele>561.426765</ele>
        <time>2011-12-30T15:38:21Z</time>
      </trkpt>
      <trkpt lat="43.84503" lon="7.2407">
        <ele>561.426758</ele>
        <time>2011-12-30T15:38:23Z</time>
      </trkpt>
      <trkpt lat="43.84507" lon="7.24065">
        <ele>560.426754</ele>
        <time>2011-12-30T15:38:24Z</time>
      </trkpt>
      <trkpt lat="43.8452" lon="7.24052">
        <ele>560.426746</ele>
        <time>2011-12-30T15:38:26Z</time>
      </trkpt>
      <trkpt lat="43.8453" lon="7.24043">
        <ele>560.426743</ele>
        <time>2011-12-30T15:38:28Z</time>
      </trkpt>
      <trkpt lat="43.84542" lon="7.24034">
        <ele>559.426735</ele>
        <time>2011-12-30T15:38:29Z</time>
      </trkpt>
      <trkpt lat="43.84557" lon="7.2402">
        <ele>559.426731</ele>
        <time>2011-12-30T15:38:31Z</time>
      </trkpt>
      <trkpt lat="43.84568" lon="7.24014">
        <ele>559.426735</ele>
        <time>2011-12-30T15:38:32Z</time>
      </trkpt>
      <trkpt lat="43.84583" lon="7.24004">
        <ele>558.426735</ele>
        <time>2011-12-30T15:38:34Z</time>
      </trkpt>
      <trkpt lat="43.84596" lon="7.23995">
        <ele>558.426735</ele>
        <time>2011-12-30T15:38:36Z</time>
      </trkpt>
      <trkpt lat="43.8461" lon="7.23985">
        <ele>558.426727</ele>
        <time>2011-12-30T15:38:38Z</time>
      </trkpt>
      <trkpt lat="43.84626" lon="7.23974">
        <ele>558.426731</ele>
        <time>2011-12-30T15:38:40Z</time>
      </trkpt>
      <trkpt lat="43.84642" lon="7.23964">
        <ele>558.426731</ele>
        <time>2011-12-30T15:38:42Z</time>
      </trkpt>
      <trkpt lat="43.84657" lon="7.23955">
        <ele>559.426731</ele>
        <time>2011-12-30T15:38:44Z</time>
      </trkpt>
      <trkpt lat="43.84671" lon="7.23945">
        <ele>559.426735</ele>
        <time>2011-12-30T15:38:46Z</time>
      </trkpt>
      <trkpt lat="43.84685" lon="7.23935">
        <ele>559.426731</ele>
        <time>2011-12-30T15:38:48Z</time>
      </trkpt>
      <trkpt lat="43.84698" lon="7.23926">
        <ele>559.426731</ele>
        <time>2011-12-30T15:38:50Z</time>
      </trkpt>
      <trkpt lat="43.84709" lon="7.23917">
        <ele>560.426727</ele>
        <time>2011-12-30T15:38:52Z</time>
      </trkpt>
      <trkpt lat="43.84718" lon="7.23911">
        <ele>560.426727</ele>
        <time>2011-12-30T15:38:54Z</time>
      </trkpt>
      <trkpt lat="43.84727" lon="7.23903">
        <ele>560.426723</ele>
        <time>2011-12-30T15:38:56Z</time>
      </trkpt>
      <trkpt lat="43.84735" lon="7.23896">
        <ele>560.42672</ele>
        <time>2011-12-30T15:38:58Z</time>
      </trkpt>
      <trkpt lat="43.84744" lon="7.23888">
        <ele>561.426712</ele>
        <time>2011-12-30T15:39:01Z</time>
      </trkpt>
      <trkpt lat="43.84755" lon="7.2388">
        <ele>561.426712</ele>
        <time>2011-12-30T15:39:04Z</time>
      </trkpt>
      <trkpt lat="43.84766" lon="7.23871">
        <ele>562.426712</ele>
        <time>2011-12-30T15:39:07Z</time>
      </trkpt>
      <trkpt lat="43.84774" lon="7.23863">
        <ele>562.426704</ele>
        <time>2011-12-30T15:39:09Z</time>
      </trkpt>
      <trkpt lat="43.84782" lon="7.23855">
        <ele>562.426697</ele>
        <time>2011-12-30T15:39:11Z</time>
      </trkpt>
      <trkpt lat="43.8479" lon="7.23848">
        <ele>562.426697</ele>
        <time>2011-12-30T15:39:13Z</time>
      </trkpt>
      <trkpt lat="43.84799" lon="7.23841">
        <ele>562.426689</ele>
        <time>2011-12-30T15:39:15Z</time>
      </trkpt>
      <trkpt lat="43.84809" lon="7.23835">
        <ele>562.426689</ele>
        <time>2011-12-30T15:39:17Z</time>
      </trkpt>
      <trkpt lat="43.84819" lon="7.23827">
        <ele>562.426689</ele>
        <time>2011-12-30T15:39:19Z</time>
      </trkpt>
      <trkpt lat="43.84829" lon="7.23819">
        <ele>562.426689</ele>
        <time>2011-12-30T15:39:21Z</time>
      </trkpt>
      <trkpt lat="43.84841" lon="7.2381">
        <ele>562.426685</ele>
        <time>2011-12-30T15:39:23Z</time>
      </trkpt>
      <trkpt lat="43.84853" lon="7.23801">
        <ele>562.426682</ele>
        <time>2011-12-30T15:39:25Z</time>
      </trkpt>
      <trkpt lat="43.84859" lon="7.23797">
        <ele>562.426682</ele>
        <time>2011-12-30T15:39:26Z</time>
      </trkpt>
      <trkpt lat="43.84869" lon="7.23788">
        <ele>562.426678</ele>
        <time>2011-12-30T15:39:28Z</time>
      </trkpt>
      <trkpt lat="43.84879" lon="7.23779">
        <ele>562.426674</ele>
        <time>2011-12-30T15:39:30Z</time>
      </trkpt>
      <trkpt lat="43.84889" lon="7.23771">
        <ele>562.426674</ele>
        <time>2011-12-30T15:39:32Z</time>
      </trkpt>
      <trkpt lat="43.84902" lon="7.23766">
        <ele>561.426682</ele>
        <time>2011-12-30T15:39:35Z</time>
      </trkpt>
      <trkpt lat="43.84908" lon="7.23753">
        <ele>561.426662</ele>
        <time>2011-12-30T15:39:38Z</time>
      </trkpt>
      <trkpt lat="43.84916" lon="7.23747">
        <ele>562.426659</ele>
        <time>2011-12-30T15:39:40Z</time>
      </trkpt>
      <trkpt lat="43.84917" lon="7.23747">
        <ele>562.426659</ele>
        <time>2011-12-30T15:39:51Z</time>
      </trkpt>
      <trkpt lat="43.84924" lon="7.2374">
        <ele>561.426655</ele>
        <time>2011-12-30T15:39:52Z</time>
      </trkpt>
    </trkseg>
  </trk>
</gpx>